Provisional Data: Meshoppen Creek near Kaiserville, PA


Please select a monitoring station.
Please select start date.
Please select start date.

Toggle Unit: C/F Toggle Unit: C/F
Sample Time Temperature (C) Temperature (F) Specific Conductivity (mS/cm) pH   Turbidity (NTU+) DO (mg/L)
2/8/2023 12:00:00 AM 0 32 0.123 7.2 2.21 14.24
2/8/2023 12:15:00 AM -0.01 31.982 0.123 7.19 2.5 14.24
2/8/2023 12:30:00 AM -0.03 31.946 0.123 7.19 2.63 14.25
2/8/2023 12:45:00 AM -0.03 31.946 0.123 7.19 2.35 14.26
2/8/2023 1:00:00 AM -0.03 31.946 0.123 7.19 2.37 14.25
2/8/2023 1:15:00 AM -0.02 31.964 0.123 7.19 2.49 14.25
2/8/2023 1:30:00 AM -0.03 31.946 0.123 7.19 2.54 14.26
2/8/2023 1:45:00 AM -0.04 31.928 0.124 7.19 2.44 14.26
2/8/2023 2:00:00 AM -0.05 31.91 0.124 7.19 2.44 14.27
2/8/2023 2:15:00 AM -0.05 31.91 0.123 7.19 2.12 14.26
2/8/2023 2:30:00 AM -0.05 31.91 0.123 7.19 2.31 14.27
2/8/2023 2:45:00 AM -0.05 31.91 0.124 7.19 2.65 14.27
2/8/2023 3:00:00 AM -0.04 31.928 0.124 7.19 2.16 14.27
2/8/2023 3:15:00 AM -0.02 31.964 0.124 7.19 2.24 14.27
2/8/2023 3:30:00 AM 0 32 0.124 7.19 2.18 14.26
2/8/2023 3:45:00 AM 0 32 0.124 7.19 2.19 14.26
2/8/2023 4:00:00 AM 0.01 32.018 0.124 7.19 2.17 14.26
2/8/2023 4:15:00 AM 0.01 32.018 0.124 7.2 2.07 14.26
2/8/2023 4:30:00 AM 0.01 32.018 0.124 7.2 2.12 14.26
2/8/2023 4:45:00 AM 0.01 32.018 0.124 7.2 2.18 14.26
2/8/2023 5:00:00 AM 0 32 0.124 7.19 2.32 14.27
2/8/2023 5:15:00 AM 0 32 0.124 7.19 2.16 14.27
2/8/2023 5:30:00 AM -0.01 31.982 0.124 7.19 2.26 14.28
2/8/2023 5:45:00 AM -0.02 31.964 0.124 7.19 2.12 14.27
2/8/2023 6:00:00 AM -0.03 31.946 0.125 7.19 2.23 14.27
2/8/2023 6:15:00 AM -0.04 31.928 0.124 7.19 2.03 14.29
2/8/2023 6:30:00 AM -0.04 31.928 0.125 7.19 2.09 14.29
2/8/2023 6:45:00 AM -0.03 31.946 0.125 7.19 2.11 14.29
2/8/2023 7:00:00 AM -0.03 31.946 0.125 7.19 2.15 14.29
2/8/2023 7:15:00 AM -0.02 31.964 0.125 7.19 2.16 14.3
2/8/2023 7:30:00 AM -0.01 31.982 0.125 7.19 2.19 14.3
2/8/2023 7:45:00 AM 0 32 0.125 7.2 2.06 14.31
2/8/2023 8:00:00 AM 0.02 32.036 0.125 7.2 2.04 14.33
2/8/2023 8:15:00 AM 0.04 32.072 0.125 7.2 2.07 14.34
2/8/2023 8:30:00 AM 0.06 32.108 0.125 7.21 2.06 14.35
2/8/2023 8:45:00 AM 0.09 32.162 0.125 7.22 2 14.36
2/8/2023 9:00:00 AM 0.12 32.216 0.125 7.22 2.04 14.35
2/8/2023 9:15:00 AM 0.15 32.27 0.125 7.23 2.18 14.36
2/8/2023 9:30:00 AM 0.17 32.306 0.125 7.23 2.21 14.36
2/8/2023 9:45:00 AM 0.22 32.396 0.125 7.24 2.17 14.36
2/8/2023 10:00:00 AM 0.25 32.45 0.125 7.24 2.36 14.36
2/8/2023 10:15:00 AM 0.29 32.522 0.124 7.25 2.24 14.35
2/8/2023 10:30:00 AM 0.31 32.558 0.124 7.25 2.41 14.35
2/8/2023 10:45:00 AM 0.37 32.666 0.124 7.25 2.55 14.34
2/8/2023 11:00:00 AM 0.41 32.738 0.124 7.26 2.49 14.34
2/8/2023 11:15:00 AM 0.47 32.846 0.124 7.26 2.68 14.31
2/8/2023 11:30:00 AM 0.53 32.954 0.124 7.26 2.69 14.29
2/8/2023 11:45:00 AM 0.57 33.026 0.123 7.26 2.71 14.27
2/8/2023 12:00:00 PM 0.59 33.062 0.123 7.27 2.78 14.25
2/8/2023 12:15:00 PM 0.62 33.116 0.123 7.26 2.68 14.24
2/8/2023 12:30:00 PM 0.64 33.152 0.123 7.27 2.83 14.23
2/8/2023 12:45:00 PM 0.65 33.17 0.122 7.27 2.75 14.21
2/8/2023 1:00:00 PM 0.66 33.188 0.122 7.27 2.94 14.2
2/8/2023 1:15:00 PM 0.67 33.206 0.122 7.27 3 14.19
2/8/2023 1:30:00 PM 0.67 33.206 0.121 7.27 3.05 14.18
2/8/2023 1:45:00 PM 0.67 33.206 0.121 7.26 3.26 14.18
2/8/2023 2:00:00 PM 0.63 33.134 0.121 7.27 3.14 14.17
2/8/2023 2:15:00 PM 0.61 33.098 0.121 7.26 3.23 14.17
2/8/2023 2:30:00 PM 0.59 33.062 0.12 7.26 3.24 14.17
2/8/2023 2:45:00 PM 0.55 32.99 0.12 7.27 3.35 14.18
2/8/2023 3:00:00 PM 0.53 32.954 0.12 7.27 3.14 14.18
2/8/2023 3:15:00 PM 0.51 32.918 0.12 7.26 3.31 14.19
2/8/2023 3:30:00 PM 0.49 32.882 0.12 7.26 3.01 14.2
2/8/2023 3:45:00 PM 0.46 32.828 0.12 7.26 3.06 14.21
2/8/2023 4:00:00 PM 0.42 32.756 0.121 7.26 3.04 14.22
2/8/2023 4:15:00 PM 0.37 32.666 0.12 7.26 2.92 14.23
2/8/2023 4:30:00 PM 0.32 32.576 0.12 7.26 3.22 14.25
2/8/2023 4:45:00 PM 0.27 32.486 0.12 7.26 2.95 14.27
2/8/2023 5:00:00 PM 0.23 32.414 0.12 7.25 2.98 14.28
2/8/2023 5:15:00 PM 0.2 32.36 0.12 7.25 2.8 14.28
2/8/2023 5:30:00 PM 0.17 32.306 0.12 7.24 2.73 14.29
2/8/2023 5:45:00 PM 0.14 32.252 0.12 7.24 2.77 14.29
2/8/2023 6:00:00 PM 0.12 32.216 0.12 7.23 2.79 14.29
2/8/2023 6:15:00 PM 0.11 32.198 0.12 7.23 2.71 14.3
2/8/2023 6:30:00 PM 0.09 32.162 0.12 7.23 2.7 14.3
2/8/2023 6:45:00 PM 0.08 32.144 0.12 7.22 2.73 14.31
2/8/2023 7:00:00 PM 0.07 32.126 0.12 7.22 2.78 14.31
2/8/2023 7:15:00 PM 0.06 32.108 0.12 7.22 2.56 14.31
2/8/2023 7:30:00 PM 0.05 32.09 0.12 7.22 2.65 14.32
2/8/2023 7:45:00 PM 0.04 32.072 0.12 7.22 2.76 14.33
2/8/2023 8:00:00 PM 0.03 32.054 0.12 7.22 2.68 14.33
2/8/2023 8:15:00 PM 0.02 32.036 0.12 7.22 2.61 14.35
2/8/2023 8:30:00 PM 0.01 32.018 0.12 7.22 2.55 14.34
2/8/2023 8:45:00 PM 0 32 0.12 7.22 2.44 14.36
2/8/2023 9:00:00 PM -0.01 31.982 0.12 7.22 2.62 14.37
2/8/2023 9:15:00 PM -0.03 31.946 0.12 7.21 2.52 14.37
2/8/2023 9:30:00 PM -0.04 31.928 0.121 7.21 2.56 14.38
2/8/2023 9:45:00 PM -0.05 31.91 0.12 7.21 2.61 14.38
2/8/2023 10:00:00 PM -0.06 31.892 0.12 7.21 2.52 14.39
2/8/2023 10:15:00 PM -0.08 31.856 0.121 7.21 2.46 14.4
2/8/2023 10:30:00 PM -0.08 31.856 0.121 7.21 2.44 14.4
2/8/2023 10:45:00 PM -0.08 31.856 0.121 7.21 2.51 14.41
2/8/2023 11:00:00 PM -0.08 31.856 0.121 7.21 2.71 14.42
2/8/2023 11:15:00 PM -0.08 31.856 0.121 7.21 2.73 14.42
2/8/2023 11:30:00 PM -0.08 31.856 0.121 7.21 2.84 14.42
2/8/2023 11:45:00 PM -0.07 31.874 0.121 7.21 2.97 14.42
2/9/2023 12:00:00 AM -0.07 31.874 0.121 7.21 2.86 14.42
2/9/2023 12:15:00 AM -0.07 31.874 0.121 7.21 2.73 14.43
2/9/2023 12:30:00 AM -0.07 31.874 0.122 7.21 3.25 14.44
2/9/2023 12:45:00 AM -0.07 31.874 0.122 7.21 3.08 14.43
2/9/2023 1:00:00 AM -0.07 31.874 0.122 7.21 3.41 14.43
2/9/2023 1:15:00 AM -0.07 31.874 0.122 7.21 3.51 14.44
2/9/2023 1:30:00 AM -0.07 31.874 0.122 7.21 3.31 14.44
2/9/2023 1:45:00 AM -0.07 31.874 0.122 7.21 3.5 14.43
2/9/2023 2:00:00 AM -0.07 31.874 0.122 7.21 3.91 14.43
2/9/2023 2:15:00 AM -0.07 31.874 0.122 7.21 3.48 14.44
2/9/2023 2:30:00 AM -0.07 31.874 0.122 7.21 4.06 14.44
2/9/2023 2:45:00 AM -0.06 31.892 0.123 7.21 3.95 14.44
2/9/2023 3:00:00 AM -0.06 31.892 0.122 7.21 4.33 14.44
2/9/2023 3:15:00 AM -0.06 31.892 0.123 7.21 5.18 14.44
2/9/2023 3:30:00 AM -0.06 31.892 0.123 7.22 6.23 14.43
2/9/2023 3:45:00 AM -0.06 31.892 0.123 7.22 5.69 14.42
2/9/2023 4:00:00 AM -0.06 31.892 0.123 7.22 7.19 14.42
2/9/2023 4:15:00 AM -0.06 31.892 0.123 7.22 6.93 14.42
2/9/2023 4:30:00 AM -0.06 31.892 0.123 7.22 6.68 14.41
2/9/2023 4:45:00 AM -0.06 31.892 0.123 7.22 7.73 14.4
2/9/2023 5:00:00 AM -0.06 31.892 0.123 7.22 8 14.41
2/9/2023 5:15:00 AM -0.06 31.892 0.124 7.22 8.19 14.41
2/9/2023 5:30:00 AM -0.06 31.892 0.123 7.22 8.56 14.4
2/9/2023 5:45:00 AM -0.05 31.91 0.123 7.22 8.7 14.39
2/9/2023 6:00:00 AM -0.05 31.91 0.124 7.22 10.48 14.39
2/9/2023 6:15:00 AM -0.05 31.91 0.123 7.22 10.66 14.39
2/9/2023 6:30:00 AM -0.05 31.91 0.123 7.22 9.7 14.39
2/9/2023 6:45:00 AM -0.05 31.91 0.124 7.22 8.96 14.38
2/9/2023 7:00:00 AM -0.05 31.91 0.124 7.22 9.71 14.38
2/9/2023 7:15:00 AM -0.05 31.91 0.123 7.22 9.23 14.37
2/9/2023 7:30:00 AM -0.05 31.91 0.123 7.22 10.7 14.37
2/9/2023 7:45:00 AM -0.05 31.91 0.124 7.22 9.91 14.37
2/9/2023 8:00:00 AM -0.04 31.928 0.123 7.22 9.37 14.37
2/9/2023 8:15:00 AM -0.03 31.946 0.123 7.22 7.73 14.37
2/9/2023 8:30:00 AM -0.03 31.946 0.123 7.22 7.48 14.36
2/9/2023 8:45:00 AM -0.02 31.964 0.123 7.22 2.51 14.37
2/9/2023 9:00:00 AM -0.01 31.982 0.123 7.23 2.24 14.38
2/9/2023 9:15:00 AM 0 32 0.123 7.23 2.29 14.39
2/9/2023 9:30:00 AM 0.01 32.018 0.123 7.23 2.31 14.38
2/9/2023 9:45:00 AM 0.01 32.018 0.123 7.24 2.35 14.37
2/9/2023 10:00:00 AM 0.02 32.036 0.123 7.24 2.19 14.38
2/9/2023 10:15:00 AM 0.03 32.054 0.123 7.24 2.23 14.37
2/9/2023 10:30:00 AM 0.05 32.09 0.123 7.24 2.35 14.37
2/9/2023 10:45:00 AM 0.05 32.09 0.123 7.25 2.41 14.37
2/9/2023 11:00:00 AM 0.05 32.09 0.123 7.25 2.4 14.37
2/9/2023 11:15:00 AM 0.05 32.09 0.123 7.25 2.47 14.36
2/9/2023 11:30:00 AM 0.06 32.108 0.123 7.25 2.5 14.36
2/9/2023 11:45:00 AM 0.09 32.162 0.123 7.26 2.45 14.36
2/9/2023 12:00:00 PM 0.11 32.198 0.122 7.26 2.56 14.35
2/9/2023 12:15:00 PM 0.14 32.252 0.122 7.26 2.66 14.34
2/9/2023 12:30:00 PM 0.19 32.342 0.122 7.26 2.48 14.32
2/9/2023 12:45:00 PM 0.22 32.396 0.123 7.26 2.5 14.3
2/9/2023 1:00:00 PM 0.28 32.504 0.123 7.26 3 14.29
2/9/2023 1:15:00 PM 0.32 32.576 0.124 7.26 3.07 14.27
2/9/2023 1:30:00 PM 0.37 32.666 0.124 7.27 2.97 14.25
2/9/2023 1:45:00 PM 0.42 32.756 0.125 7.27 2.92 14.23
2/9/2023 2:00:00 PM 0.47 32.846 0.124 7.26 2.82 14.2
2/9/2023 2:15:00 PM 0.51 32.918 0.124 7.27 2.64 14.18
2/9/2023 2:30:00 PM 0.54 32.972 0.124 7.27 2.67 14.15
2/9/2023 2:45:00 PM 0.55 32.99 0.125 7.27 2.78 14.13
2/9/2023 3:00:00 PM 0.58 33.044 0.124 7.27 2.71 14.12
2/9/2023 3:15:00 PM 0.6 33.08 0.124 7.26 2.6 14.1
2/9/2023 3:30:00 PM 0.64 33.152 0.124 7.27 2.53 14.08
2/9/2023 3:45:00 PM 0.69 33.242 0.124 7.27 2.57 14.06
2/9/2023 4:00:00 PM 0.74 33.332 0.123 7.27 2.65 14.03
2/9/2023 4:15:00 PM 0.78 33.404 0.123 7.27 2.67 14
2/9/2023 4:30:00 PM 0.82 33.476 0.123 7.27 2.59 13.96
2/9/2023 4:45:00 PM 0.86 33.548 0.123 7.27 2.74 13.94
2/9/2023 5:00:00 PM 0.89 33.602 0.122 7.26 2.58 13.91
2/9/2023 5:15:00 PM 0.92 33.656 0.122 7.26 2.55 13.88
2/9/2023 5:30:00 PM 0.93 33.674 0.122 7.26 2.73 13.86
2/9/2023 5:45:00 PM 0.95 33.71 0.122 7.26 2.82 13.84
2/9/2023 6:00:00 PM 0.98 33.764 0.122 7.26 2.63 13.82
2/9/2023 6:15:00 PM 1 33.8 0.122 7.25 2.61 13.8
2/9/2023 6:30:00 PM 1.02 33.836 0.122 7.25 2.82 13.8
2/9/2023 6:45:00 PM 1.04 33.872 0.122 7.25 2.74 13.78
2/9/2023 7:00:00 PM 1.05 33.89 0.122 7.25 2.82 13.77
2/9/2023 7:15:00 PM 1.05 33.89 0.122 7.25 2.67 13.77
2/9/2023 7:30:00 PM 1.09 33.962 0.122 7.25 2.72 13.75
2/9/2023 7:45:00 PM 1.11 33.998 0.121 7.25 2.71 13.74
2/9/2023 8:00:00 PM 1.15 34.07 0.121 7.25 2.68 13.72
2/9/2023 8:15:00 PM 1.17 34.106 0.121 7.25 2.68 13.71
2/9/2023 8:30:00 PM 1.19 34.142 0.121 7.25 2.54 13.7
2/9/2023 8:45:00 PM 1.22 34.196 0.121 7.25 2.73 13.69
2/9/2023 9:00:00 PM 1.22 34.196 0.121 7.25 2.71 13.68
2/9/2023 9:15:00 PM 1.23 34.214 0.121 7.25 2.7 13.67
2/9/2023 9:30:00 PM 1.25 34.25 0.121 7.25 2.5 13.67
2/9/2023 9:45:00 PM 1.25 34.25 0.121 7.25 2.69 13.65
2/9/2023 10:00:00 PM 1.24 34.232 0.121 7.25 2.81 13.65
2/9/2023 10:15:00 PM 1.23 34.214 0.121 7.25 2.64 13.65
2/9/2023 10:30:00 PM 1.2 34.16 0.121 7.25 2.72 13.66
2/9/2023 10:45:00 PM 1.16 34.088 0.121 7.24 2.57 13.67
2/9/2023 11:00:00 PM 1.11 33.998 0.121 7.24 2.69 13.68
2/9/2023 11:15:00 PM 1.07 33.926 0.121 7.24 2.82 13.69
2/9/2023 11:30:00 PM 1.04 33.872 0.122 7.24 2.95 13.7
2/9/2023 11:45:00 PM 1.03 33.854 0.122 7.24 2.71 13.71
2/10/2023 12:00:00 AM 1.01 33.818 0.121 7.24 2.73 13.71
2/10/2023 12:15:00 AM 1.01 33.818 0.122 7.24 2.86 13.72
2/10/2023 12:30:00 AM 1 33.8 0.121 7.24 2.82 13.72
2/10/2023 12:45:00 AM 0.98 33.764 0.121 7.24 2.75 13.73
2/10/2023 1:00:00 AM 0.97 33.746 0.121 7.24 2.76 13.73
2/10/2023 1:15:00 AM 0.95 33.71 0.121 7.24 2.93 13.73
2/10/2023 1:30:00 AM 0.94 33.692 0.121 7.24 2.72 13.74
2/10/2023 1:45:00 AM 0.91 33.638 0.121 7.24 2.81 13.75
2/10/2023 2:00:00 AM 0.89 33.602 0.121 7.24 3.01 13.76
2/10/2023 2:15:00 AM 0.86 33.548 0.121 7.24 3.22 13.77
2/10/2023 2:30:00 AM 0.84 33.512 0.121 7.24 2.96 13.78
2/10/2023 2:45:00 AM 0.83 33.494 0.121 7.24 3.12 13.79
2/10/2023 3:00:00 AM 0.83 33.494 0.121 7.24 2.86 13.79
2/10/2023 3:15:00 AM 0.84 33.512 0.121 7.24 2.97 13.8
2/10/2023 3:30:00 AM 0.89 33.602 0.121 7.24 3.12 13.79
2/10/2023 3:45:00 AM 0.9 33.62 0.121 7.24 3.1 13.79
2/10/2023 4:00:00 AM 0.92 33.656 0.121 7.24 3.05 13.78
2/10/2023 4:15:00 AM 0.92 33.656 0.121 7.25 3.07 13.78
2/10/2023 4:30:00 AM 0.91 33.638 0.121 7.25 3.09 13.79
2/10/2023 4:45:00 AM 0.91 33.638 0.121 7.25 2.98 13.8
2/10/2023 5:00:00 AM 0.9 33.62 0.121 7.25 2.96 13.81
2/10/2023 5:15:00 AM 0.89 33.602 0.121 7.25 2.99 13.82
2/10/2023 5:30:00 AM 0.9 33.62 0.121 7.24 3.17 13.82
2/10/2023 5:45:00 AM 0.92 33.656 0.121 7.25 3.09 13.82
2/10/2023 6:00:00 AM 0.93 33.674 0.121 7.25 3.08 13.82
2/10/2023 6:15:00 AM 0.95 33.71 0.121 7.25 2.93 13.81
2/10/2023 6:30:00 AM 0.97 33.746 0.121 7.25 3.04 13.81
2/10/2023 6:45:00 AM 0.99 33.782 0.121 7.25 3.08 13.81
2/10/2023 7:00:00 AM 1.01 33.818 0.121 7.25 2.96 13.8
2/10/2023 7:15:00 AM 1.02 33.836 0.121 7.25 3.1 13.81
2/10/2023 7:30:00 AM 1.05 33.89 0.121 7.25 3.03 13.81
2/10/2023 7:45:00 AM 1.08 33.944 0.121 7.26 3.03 13.81
2/10/2023 8:00:00 AM 1.1 33.98 0.12 7.26 3.08 13.82
2/10/2023 8:15:00 AM 1.13 34.034 0.12 7.26 3.21 13.83
2/10/2023 8:30:00 AM 1.16 34.088 0.12 7.27 3.27 13.83
2/10/2023 8:45:00 AM 1.19 34.142 0.12 7.27 3.06 13.84
2/10/2023 9:00:00 AM 1.24 34.232 0.12 7.28 3.12 13.84
2/10/2023 9:15:00 AM 1.32 34.376 0.12 7.28 3.14 13.84
2/10/2023 9:30:00 AM 1.42 34.556 0.12 7.28 3.01 13.83
2/10/2023 9:45:00 AM 1.5 34.7 0.12 7.28 3.25 13.81
2/10/2023 10:00:00 AM 1.62 34.916 0.12 7.29 3.33 13.8
2/10/2023 10:15:00 AM 1.69 35.042 0.12 7.29 3.15 13.78
2/10/2023 10:30:00 AM 1.82 35.276 0.12 7.29 2.93 13.75
2/10/2023 10:45:00 AM 1.96 35.528 0.121 7.29 2.97 13.71
2/10/2023 11:00:00 AM 2.1 35.78 0.121 7.3 2.94 13.67
2/10/2023 11:15:00 AM 2.22 35.996 0.122 7.3 3 13.64
2/10/2023 11:30:00 AM 2.32 36.176 0.122 7.3 2.91 13.59
2/10/2023 11:45:00 AM 2.4 36.32 0.122 7.31 3.12 13.56
2/10/2023 12:00:00 PM 2.44 36.392 0.122 7.31 3.2 13.54
2/10/2023 12:15:00 PM 2.45 36.41 0.123 7.31 3.12 13.53
2/10/2023 12:30:00 PM 2.46 36.428 0.122 7.31 3.12 13.51
2/10/2023 12:45:00 PM 2.5 36.5 0.123 7.31 3.13 13.5
2/10/2023 1:00:00 PM 2.56 36.608 0.123 7.32 2.8 13.47
2/10/2023 1:15:00 PM 2.65 36.77 0.123 7.32 2.9 13.44
2/10/2023 1:30:00 PM 2.73 36.914 0.122 7.32 2.96 13.41
2/10/2023 1:45:00 PM 2.77 36.986 0.122 7.32 3.17 13.4
2/10/2023 2:00:00 PM 2.78 37.004 0.122 7.32 2.98 13.38
2/10/2023 2:15:00 PM 2.8 37.04 0.122 7.32 3.02 13.38
2/10/2023 2:30:00 PM 2.79 37.022 0.121 7.32 3.12 13.38
2/10/2023 2:45:00 PM 2.81 37.058 0.121 7.33 3.02 13.36
2/10/2023 3:00:00 PM 2.8 37.04 0.121 7.33 3.04 13.35
2/10/2023 3:15:00 PM 2.8 37.04 0.121 7.32 3.06 13.34
2/10/2023 3:30:00 PM 2.79 37.022 0.121 7.32 2.89 13.34
2/10/2023 3:45:00 PM 2.77 36.986 0.121 7.32 3.11 13.31
2/10/2023 4:00:00 PM 2.76 36.968 0.12 7.32 3.13 13.32
2/10/2023 4:15:00 PM 2.73 36.914 0.12 7.31 3.11 13.3
2/10/2023 4:30:00 PM 2.72 36.896 0.12 7.31 3.18 13.3
2/10/2023 4:45:00 PM 2.71 36.878 0.12 7.31 3.55 13.3
2/10/2023 5:00:00 PM 2.7 36.86 0.12 7.31 3.3 13.29
2/10/2023 5:15:00 PM 2.69 36.842 0.12 7.3 3.36 13.28
2/10/2023 5:30:00 PM 2.68 36.824 0.12 7.3 3.03 13.27
2/10/2023 5:45:00 PM 2.68 36.824 0.12 7.29 3.16 13.26
2/10/2023 6:00:00 PM 2.68 36.824 0.121 7.29 3.06 13.25
2/10/2023 6:15:00 PM 2.68 36.824 0.12 7.29 3.37 13.25
2/10/2023 6:30:00 PM 2.68 36.824 0.121 7.28 3.18 13.23
2/10/2023 6:45:00 PM 2.68 36.824 0.12 7.28 3.42 13.23
2/10/2023 7:00:00 PM 2.69 36.842 0.12 7.28 3.49 13.23
2/10/2023 7:15:00 PM 2.68 36.824 0.121 7.28 3.32 13.22
2/10/2023 7:30:00 PM 2.68 36.824 0.12 7.28 3.1 13.22
2/10/2023 7:45:00 PM 2.68 36.824 0.12 7.27 3.64 13.22
2/10/2023 8:00:00 PM 2.68 36.824 0.121 7.27 3.17 13.21
2/10/2023 8:15:00 PM 2.67 36.806 0.121 7.27 3.11 13.22
2/10/2023 8:30:00 PM 2.68 36.824 0.121 7.27 3.3 13.22
2/10/2023 8:45:00 PM 2.67 36.806 0.12 7.27 3.47 13.21
2/10/2023 9:00:00 PM 2.66 36.788 0.12 7.27 3.45 13.22
2/10/2023 9:15:00 PM 2.65 36.77 0.121 7.27 3.35 13.22
2/10/2023 9:30:00 PM 2.65 36.77 0.12 7.27 3.54 13.23
2/10/2023 9:45:00 PM 2.64 36.752 0.12 7.27 3.57 13.22
2/10/2023 10:00:00 PM 2.62 36.716 0.121 7.27 3.43 13.24
2/10/2023 10:15:00 PM 2.59 36.662 0.121 7.27 3.52 13.25
2/10/2023 10:30:00 PM 2.57 36.626 0.12 7.27 3.58 13.25
2/10/2023 10:45:00 PM 2.53 36.554 0.12 7.27 3.6 13.26
2/10/2023 11:00:00 PM 2.48 36.464 0.121 7.27 3.49 13.28
2/10/2023 11:15:00 PM 2.43 36.374 0.121 7.27 3.52 13.29
2/10/2023 11:30:00 PM 2.38 36.284 0.121 7.27 3.46 13.31
2/10/2023 11:45:00 PM 2.35 36.23 0.121 7.27 3.51 13.32
2/11/2023 12:00:00 AM 2.34 36.212 0.121 7.27 3.63 13.33
2/11/2023 12:15:00 AM 2.33 36.194 0.121 7.26 3.39 13.34
2/11/2023 12:30:00 AM 2.31 36.158 0.121 7.26 3.72 13.35
2/11/2023 12:45:00 AM 2.29 36.122 0.121 7.26 3.71 13.36
2/11/2023 1:00:00 AM 2.27 36.086 0.122 7.26 3.7 13.37
2/11/2023 1:15:00 AM 2.25 36.05 0.122 7.26 3.99 13.38
2/11/2023 1:30:00 AM 2.21 35.978 0.122 7.27 3.53 13.4
2/11/2023 1:45:00 AM 2.16 35.888 0.122 7.26 3.62 13.41
2/11/2023 2:00:00 AM 2.09 35.762 0.122 7.26 3.75 13.43
2/11/2023 2:15:00 AM 2.01 35.618 0.122 7.26 3.34 13.46
2/11/2023 2:30:00 AM 1.96 35.528 0.122 7.26 3.61 13.48
2/11/2023 2:45:00 AM 1.92 35.456 0.122 7.26 3.38 13.51
2/11/2023 3:00:00 AM 1.88 35.384 0.122 7.26 3.34 13.53
2/11/2023 3:15:00 AM 1.86 35.348 0.122 7.26 3.4 13.54
2/11/2023 3:30:00 AM 1.83 35.294 0.122 7.26 3.32 13.56
2/11/2023 3:45:00 AM 1.8 35.24 0.122 7.26 3.34 13.57
2/11/2023 4:00:00 AM 1.77 35.186 0.122 7.26 3.08 13.59
2/11/2023 4:15:00 AM 1.74 35.132 0.122 7.26 3.12 13.6
2/11/2023 4:30:00 AM 1.71 35.078 0.122 7.26 3.2 13.62
2/11/2023 4:45:00 AM 1.68 35.024 0.122 7.26 3.16 13.63
2/11/2023 5:00:00 AM 1.64 34.952 0.123 7.26 2.91 13.64
2/11/2023 5:15:00 AM 1.62 34.916 0.123 7.26 3.11 13.66
2/11/2023 5:30:00 AM 1.59 34.862 0.123 7.26 2.99 13.67
2/11/2023 5:45:00 AM 1.55 34.79 0.123 7.26 3.05 13.68
2/11/2023 6:00:00 AM 1.53 34.754 0.123 7.26 2.88 13.7
2/11/2023 6:15:00 AM 1.49 34.682 0.123 7.26 2.97 13.72
2/11/2023 6:30:00 AM 1.46 34.628 0.123 7.25 2.9 13.73
2/11/2023 6:45:00 AM 1.43 34.574 0.123 7.25 3 13.75
2/11/2023 7:00:00 AM 1.4 34.52 0.123 7.25 3.02 13.77
2/11/2023 7:15:00 AM 1.37 34.466 0.123 7.25 3.09 13.79
2/11/2023 7:30:00 AM 1.35 34.43 0.123 7.25 2.91 13.82
2/11/2023 7:45:00 AM 1.33 34.394 0.123 7.26 3.34 13.83
2/11/2023 8:00:00 AM 1.32 34.376 0.123 7.26 2.87 13.86
2/11/2023 8:15:00 AM 1.32 34.376 0.123 7.26 2.93 13.88
2/11/2023 8:30:00 AM 1.32 34.376 0.123 7.26 3.1 13.91
2/11/2023 8:45:00 AM 1.32 34.376 0.123 7.27 3.05 13.92
2/11/2023 9:00:00 AM 1.33 34.394 0.123 7.27 2.94 13.93
2/11/2023 9:15:00 AM 1.35 34.43 0.123 7.27 2.85 13.94
2/11/2023 9:30:00 AM 1.36 34.448 0.123 7.28 2.83 13.95
2/11/2023 9:45:00 AM 1.37 34.466 0.124 7.28 2.81 13.96
2/11/2023 10:00:00 AM 1.38 34.484 0.124 7.28 2.86 13.96
2/11/2023 10:15:00 AM 1.41 34.538 0.124 7.28 2.7 13.97
2/11/2023 10:30:00 AM 1.43 34.574 0.124 7.29 2.83 13.96
2/11/2023 10:45:00 AM 1.47 34.646 0.124 7.29 2.59 13.97
2/11/2023 11:00:00 AM 1.51 34.718 0.124 7.29 2.66 13.96
2/11/2023 11:15:00 AM 1.56 34.808 0.124 7.29 2.74 13.96
2/11/2023 11:30:00 AM 1.64 34.952 0.124 7.29 2.83 13.94
2/11/2023 11:45:00 AM 1.71 35.078 0.124 7.29 2.73 13.92
2/11/2023 12:00:00 PM 1.82 35.276 0.124 7.29 2.7 13.9
2/11/2023 12:15:00 PM 1.89 35.402 0.124 7.3 2.66 13.87
2/11/2023 12:30:00 PM 1.98 35.564 0.124 7.3 2.7 13.85
2/11/2023 12:45:00 PM 2.06 35.708 0.124 7.3 2.75 13.82
2/11/2023 1:00:00 PM 2.12 35.816 0.124 7.31 2.83 13.78
2/11/2023 1:15:00 PM 2.18 35.924 0.124 7.31 2.67 13.75
2/11/2023 1:30:00 PM 2.29 36.122 0.124 7.31 2.68 13.73
2/11/2023 1:45:00 PM 2.35 36.23 0.124 7.31 2.8 13.7
2/11/2023 2:00:00 PM 2.4 36.32 0.124 7.31 2.63 13.67
2/11/2023 2:15:00 PM 2.42 36.356 0.124 7.31 2.69 13.65
2/11/2023 2:30:00 PM 2.44 36.392 0.123 7.31 2.58 13.62
2/11/2023 2:45:00 PM 2.51 36.518 0.124 7.31 2.64 13.58
2/11/2023 3:00:00 PM 2.58 36.644 0.124 7.31 2.82 13.55
2/11/2023 3:15:00 PM 2.62 36.716 0.124 7.31 2.71 13.52
2/11/2023 3:30:00 PM 2.63 36.734 0.124 7.31 2.79 13.51
2/11/2023 3:45:00 PM 2.62 36.716 0.124 7.31 2.54 13.5
2/11/2023 4:00:00 PM 2.58 36.644 0.124 7.31 2.75 13.5
2/11/2023 4:15:00 PM 2.53 36.554 0.124 7.31 2.7 13.5
2/11/2023 4:30:00 PM 2.48 36.464 0.124 7.31 2.87 13.51
2/11/2023 4:45:00 PM 2.41 36.338 0.124 7.31 2.83 13.52
2/11/2023 5:00:00 PM 2.34 36.212 0.125 7.3 2.88 13.53
2/11/2023 5:15:00 PM 2.27 36.086 0.125 7.3 2.74 13.53
2/11/2023 5:30:00 PM 2.21 35.978 0.125 7.29 2.87 13.54
2/11/2023 5:45:00 PM 2.14 35.852 0.125 7.29 2.73 13.55
2/11/2023 6:00:00 PM 2.09 35.762 0.125 7.28 2.74 13.55
2/11/2023 6:15:00 PM 2.05 35.69 0.125 7.28 2.75 13.55
2/11/2023 6:30:00 PM 2.01 35.618 0.125 7.27 2.8 13.55
2/11/2023 6:45:00 PM 1.98 35.564 0.125 7.27 2.81 13.56
2/11/2023 7:00:00 PM 1.96 35.528 0.125 7.27 2.65 13.56
2/11/2023 7:15:00 PM 1.94 35.492 0.125 7.27 2.84 13.56
2/11/2023 7:30:00 PM 1.92 35.456 0.125 7.26 2.87 13.56
2/11/2023 7:45:00 PM 1.9 35.42 0.125 7.26 2.89 13.57
2/11/2023 8:00:00 PM 1.88 35.384 0.125 7.26 2.94 13.57
2/11/2023 8:15:00 PM 1.85 35.33 0.125 7.26 2.93 13.58
2/11/2023 8:30:00 PM 1.83 35.294 0.125 7.26 2.75 13.59
2/11/2023 8:45:00 PM 1.8 35.24 0.125 7.26 2.93 13.59
2/11/2023 9:00:00 PM 1.77 35.186 0.125 7.26 3.15 13.61
2/11/2023 9:15:00 PM 1.74 35.132 0.125 7.25 2.94 13.62
2/11/2023 9:30:00 PM 1.7 35.06 0.125 7.25 2.88 13.64
2/11/2023 9:45:00 PM 1.65 34.97 0.126 7.25 2.93 13.66
2/11/2023 10:00:00 PM 1.61 34.898 0.126 7.25 2.87 13.67
2/11/2023 10:15:00 PM 1.56 34.808 0.126 7.25 2.88 13.69
2/11/2023 10:30:00 PM 1.51 34.718 0.126 7.25 3.05 13.7
2/11/2023 10:45:00 PM 1.46 34.628 0.126 7.25 3.1 13.71
2/11/2023 11:00:00 PM 1.42 34.556 0.126 7.25 2.88 13.73
2/11/2023 11:15:00 PM 1.38 34.484 0.126 7.24 2.99 13.75
2/11/2023 11:30:00 PM 1.33 34.394 0.126 7.24 2.96 13.77
2/11/2023 11:45:00 PM 1.28 34.304 0.126 7.24 2.89 13.79
2/12/2023 12:00:00 AM 1.23 34.214 0.126 7.24 2.91 13.81
2/12/2023 12:15:00 AM 1.17 34.106 0.126 7.24 3 13.83
2/12/2023 12:30:00 AM 1.1 33.98 0.126 7.24 3.05 13.86
2/12/2023 12:45:00 AM 1.05 33.89 0.127 7.24 3.06 13.88
2/12/2023 1:00:00 AM 0.98 33.764 0.127 7.24 2.93 13.9
2/12/2023 1:15:00 AM 0.92 33.656 0.126 7.24 2.86 13.92
2/12/2023 1:30:00 AM 0.85 33.53 0.127 7.23 3.14 13.95
2/12/2023 1:45:00 AM 0.79 33.422 0.127 7.23 2.99 13.97
2/12/2023 2:00:00 AM 0.73 33.314 0.126 7.23 2.88 14
2/12/2023 2:15:00 AM 0.67 33.206 0.127 7.23 2.97 14.03
2/12/2023 2:30:00 AM 0.61 33.098 0.127 7.23 2.99 14.05
2/12/2023 2:45:00 AM 0.56 33.008 0.127 7.23 3.05 14.07
2/12/2023 3:00:00 AM 0.5 32.9 0.127 7.23 3.05 14.09
2/12/2023 3:15:00 AM 0.45 32.81 0.127 7.23 2.96 14.12
2/12/2023 3:30:00 AM 0.4 32.72 0.127 7.23 3.1 14.13
2/12/2023 3:45:00 AM 0.35 32.63 0.128 7.23 2.97 14.16
2/12/2023 4:00:00 AM 0.3 32.54 0.128 7.22 2.99 14.17
2/12/2023 4:15:00 AM 0.25 32.45 0.128 7.22 2.94 14.19
2/12/2023 4:30:00 AM 0.2 32.36 0.128 7.22 3.04 14.2
2/12/2023 4:45:00 AM 0.15 32.27 0.128 7.22 3.03 14.22
2/12/2023 5:00:00 AM 0.11 32.198 0.128 7.22 2.87 14.25
2/12/2023 5:15:00 AM 0.06 32.108 0.128 7.22 2.98 14.27
2/12/2023 5:30:00 AM 0.02 32.036 0.128 7.22 2.96 14.29
2/12/2023 5:45:00 AM -0.02 31.964 0.128 7.22 2.87 14.31
2/12/2023 6:00:00 AM -0.06 31.892 0.128 7.22 3.06 14.33
2/12/2023 6:15:00 AM -0.09 31.838 0.128 7.21 2.85 14.35
2/12/2023 6:30:00 AM -0.08 31.856 0.128 7.21 2.71 14.38
2/12/2023 6:45:00 AM -0.06 31.892 0.128 7.21 2.9 14.38
2/12/2023 7:00:00 AM -0.06 31.892 0.129 7.21 2.92 14.38
2/12/2023 7:15:00 AM -0.06 31.892 0.128 7.21 4.51 14.39
2/12/2023 7:30:00 AM -0.06 31.892 0.129 7.22 2.87 14.4
2/12/2023 7:45:00 AM -0.06 31.892 0.129 7.22 2.93 14.42
2/12/2023 8:00:00 AM -0.06 31.892 0.129 7.22 2.9 14.44
2/12/2023 8:15:00 AM -0.06 31.892 0.129 7.22 2.94 14.45
2/12/2023 8:30:00 AM -0.06 31.892 0.129 7.23 3.25 14.46
2/12/2023 8:45:00 AM -0.05 31.91 0.129 7.23 2.84 14.47
2/12/2023 9:00:00 AM -0.05 31.91 0.129 7.23 2.95 14.47
2/12/2023 9:15:00 AM -0.05 31.91 0.129 7.24 2.79 14.47
2/12/2023 9:30:00 AM -0.05 31.91 0.129 7.24 2.95 14.46
2/12/2023 9:45:00 AM -0.04 31.928 0.129 7.24 2.86 14.45
2/12/2023 10:00:00 AM 0.08 32.144 0.129 7.24 2.69 14.44
2/12/2023 10:15:00 AM 0.15 32.27 0.129 7.25 2.71 14.44
2/12/2023 10:30:00 AM 0.23 32.414 0.129 7.25 2.7 14.42
2/12/2023 10:45:00 AM 0.34 32.612 0.129 7.26 2.83 14.38
2/12/2023 11:00:00 AM 0.44 32.792 0.129 7.26 2.79 14.36
2/12/2023 11:15:00 AM 0.54 32.972 0.129 7.27 2.69 14.32
2/12/2023 11:30:00 AM 0.61 33.098 0.129 7.28 2.7 14.29
2/12/2023 11:45:00 AM 0.67 33.206 0.128 7.28 3.04 14.27
2/12/2023 12:00:00 PM 0.73 33.314 0.128 7.29 2.95 14.25
2/12/2023 12:15:00 PM 0.8 33.44 0.128 7.29 2.75 14.22
2/12/2023 12:30:00 PM 0.9 33.62 0.128 7.29 2.76 14.19
2/12/2023 12:45:00 PM 1.02 33.836 0.128 7.29 2.72 14.14
2/12/2023 1:00:00 PM 1.16 34.088 0.128 7.3 2.8 14.08
2/12/2023 1:15:00 PM 1.31 34.358 0.128 7.3 2.72 14.02
2/12/2023 1:30:00 PM 1.45 34.61 0.128 7.3 2.73 13.96
2/12/2023 1:45:00 PM 1.58 34.844 0.128 7.3 2.75 13.91
2/12/2023 2:00:00 PM 1.69 35.042 0.128 7.3 2.83 13.86
2/12/2023 2:15:00 PM 1.78 35.204 0.127 7.31 2.7 13.82
2/12/2023 2:30:00 PM 1.86 35.348 0.127 7.31 2.67 13.78
2/12/2023 2:45:00 PM 1.92 35.456 0.127 7.31 2.56 13.75
2/12/2023 3:00:00 PM 1.97 35.546 0.128 7.32 2.71 13.72
2/12/2023 3:15:00 PM 2.01 35.618 0.127 7.32 2.63 13.7
2/12/2023 3:30:00 PM 2.03 35.654 0.127 7.32 2.46 13.68
2/12/2023 3:45:00 PM 2.05 35.69 0.127 7.32 2.52 13.66
2/12/2023 4:00:00 PM 2.05 35.69 0.127 7.32 2.58 13.65
2/12/2023 4:15:00 PM 2.04 35.672 0.127 7.32 2.69 13.64
2/12/2023 4:30:00 PM 2.03 35.654 0.127 7.32 2.58 13.63
2/12/2023 4:45:00 PM 1.99 35.582 0.127 7.32 2.55 13.62
2/12/2023 5:00:00 PM 1.95 35.51 0.127 7.32 2.36 13.61
2/12/2023 5:15:00 PM 1.91 35.438 0.127 7.31 2.52 13.59
2/12/2023 5:30:00 PM 1.86 35.348 0.127 7.31 2.54 13.58
2/12/2023 5:45:00 PM 1.81 35.258 0.127 7.3 2.48 13.58
2/12/2023 6:00:00 PM 1.77 35.186 0.127 7.29 2.5 13.57
2/12/2023 6:15:00 PM 1.74 35.132 0.128 7.29 2.6 13.56
2/12/2023 6:30:00 PM 1.71 35.078 0.128 7.28 2.67 13.56
2/12/2023 6:45:00 PM 1.69 35.042 0.128 7.28 2.41 13.56
2/12/2023 7:00:00 PM 1.68 35.024 0.128 7.28 2.68 13.55
2/12/2023 7:15:00 PM 1.66 34.988 0.128 7.28 2.49 13.55
2/12/2023 7:30:00 PM 1.66 34.988 0.128 7.27 2.47 13.55
2/12/2023 7:45:00 PM 1.65 34.97 0.128 7.27 2.43 13.54
2/12/2023 8:00:00 PM 1.64 34.952 0.128 7.27 2.53 13.54
2/12/2023 8:15:00 PM 1.63 34.934 0.128 7.27 2.71 13.54
2/12/2023 8:30:00 PM 1.62 34.916 0.128 7.27 2.57 13.54
2/12/2023 8:45:00 PM 1.61 34.898 0.128 7.27 2.41 13.53
2/12/2023 9:00:00 PM 1.6 34.88 0.128 7.27 2.4 13.54
2/12/2023 9:15:00 PM 1.59 34.862 0.128 7.27 2.45 13.53
2/12/2023 9:30:00 PM 1.59 34.862 0.128 7.27 2.44 13.53
2/12/2023 9:45:00 PM 1.58 34.844 0.128 7.27 2.41 13.54
2/12/2023 10:00:00 PM 1.57 34.826 0.128 7.27 2.42 13.53
2/12/2023 10:15:00 PM 1.55 34.79 0.128 7.27 2.45 13.53
2/12/2023 10:30:00 PM 1.54 34.772 0.128 7.27 2.43 13.53
2/12/2023 10:45:00 PM 1.52 34.736 0.128 7.26 2.51 13.53
2/12/2023 11:00:00 PM 1.5 34.7 0.128 7.26 2.39 13.54
2/12/2023 11:15:00 PM 1.47 34.646 0.128 7.26 2.42 13.54
2/12/2023 11:30:00 PM 1.45 34.61 0.128 7.26 2.27 13.55
2/12/2023 11:45:00 PM 1.42 34.556 0.128 7.26 2.31 13.56
2/13/2023 12:00:00 AM 1.4 34.52 0.128 7.26 2.49 13.57
2/13/2023 12:15:00 AM 1.37 34.466 0.128 7.26 2.33 13.57
2/13/2023 12:30:00 AM 1.35 34.43 0.128 7.26 2.4 13.58
2/13/2023 12:45:00 AM 1.32 34.376 0.128 7.26 2.4 13.59
2/13/2023 1:00:00 AM 1.3 34.34 0.128 7.26 2.34 13.6
2/13/2023 1:15:00 AM 1.28 34.304 0.128 7.26 2.36 13.61
2/13/2023 1:30:00 AM 1.25 34.25 0.128 7.26 2.24 13.62
2/13/2023 1:45:00 AM 1.23 34.214 0.128 7.26 2.45 13.63
2/13/2023 2:00:00 AM 1.2 34.16 0.128 7.26 2.34 13.64
2/13/2023 2:15:00 AM 1.17 34.106 0.129 7.26 2.38 13.65
2/13/2023 2:30:00 AM 1.14 34.052 0.129 7.26 2.36 13.66
2/13/2023 2:45:00 AM 1.12 34.016 0.129 7.26 2.26 13.67
2/13/2023 3:00:00 AM 1.08 33.944 0.129 7.25 2.31 13.68
2/13/2023 3:15:00 AM 1.05 33.89 0.129 7.25 2.35 13.7
2/13/2023 3:30:00 AM 1.02 33.836 0.129 7.25 2.32 13.7
2/13/2023 3:45:00 AM 0.99 33.782 0.129 7.25 2.36 13.72
2/13/2023 4:00:00 AM 0.95 33.71 0.129 7.25 2.27 13.72
2/13/2023 4:15:00 AM 0.92 33.656 0.129 7.25 2.24 13.73
2/13/2023 4:30:00 AM 0.88 33.584 0.128 7.25 2.22 13.75
2/13/2023 4:45:00 AM 0.83 33.494 0.129 7.25 2.22 13.76
2/13/2023 5:00:00 AM 0.79 33.422 0.129 7.25 2.18 13.77
2/13/2023 5:15:00 AM 0.75 33.35 0.128 7.25 2.23 13.79
2/13/2023 5:30:00 AM 0.7 33.26 0.128 7.25 2.35 13.81
2/13/2023 5:45:00 AM 0.66 33.188 0.128 7.25 2.25 13.83
2/13/2023 6:00:00 AM 0.61 33.098 0.129 7.25 2.19 13.84
2/13/2023 6:15:00 AM 0.57 33.026 0.129 7.25 2.18 13.87
2/13/2023 6:30:00 AM 0.52 32.936 0.129 7.25 2.13 13.88
2/13/2023 6:45:00 AM 0.47 32.846 0.129 7.24 2.28 13.9
2/13/2023 7:00:00 AM 0.43 32.774 0.129 7.24 2.27 13.92
2/13/2023 7:15:00 AM 0.38 32.684 0.129 7.24 2.22 13.95
2/13/2023 7:30:00 AM 0.34 32.612 0.129 7.24 2.23 13.98
2/13/2023 7:45:00 AM 0.3 32.54 0.129 7.25 2.25 14.01
2/13/2023 8:00:00 AM 0.27 32.486 0.129 7.25 2.32 14.04
2/13/2023 8:15:00 AM 0.24 32.432 0.129 7.25 2.23 14.07
2/13/2023 8:30:00 AM 0.22 32.396 0.129 7.26 2.32 14.09
2/13/2023 8:45:00 AM 0.24 32.432 0.129 7.26 2.22 14.11
2/13/2023 9:00:00 AM 0.27 32.486 0.129 7.26 2.14 14.12
2/13/2023 9:15:00 AM 0.32 32.576 0.129 7.27 2.08 14.12
2/13/2023 9:30:00 AM 0.41 32.738 0.129 7.27 2.18 14.12
2/13/2023 9:45:00 AM 0.52 32.936 0.129 7.27 2.18 14.1
2/13/2023 10:00:00 AM 0.64 33.152 0.129 7.27 2.11 14.09
2/13/2023 10:15:00 AM 0.74 33.332 0.128 7.28 2.13 14.05
2/13/2023 10:30:00 AM 0.85 33.53 0.128 7.28 2.1 14.02
2/13/2023 10:45:00 AM 0.97 33.746 0.129 7.28 2.04 13.99
2/13/2023 11:00:00 AM 1.09 33.962 0.129 7.29 2.08 13.95
2/13/2023 11:15:00 AM 1.2 34.16 0.128 7.29 2.16 13.91
2/13/2023 11:30:00 AM 1.31 34.358 0.128 7.3 2.32 13.87
2/13/2023 11:45:00 AM 1.45 34.61 0.128 7.3 1.93 13.81
2/13/2023 12:00:00 PM 1.59 34.862 0.128 7.31 2.07 13.76
2/13/2023 12:15:00 PM 1.78 35.204 0.128 7.31 2.25 13.7
2/13/2023 12:30:00 PM 1.93 35.474 0.128 7.32 2.08 13.64
2/13/2023 12:45:00 PM 2.09 35.762 0.128 7.32 2.11 13.58
2/13/2023 1:00:00 PM 2.27 36.086 0.128 7.33 1.99 13.52
2/13/2023 1:15:00 PM 2.41 36.338 0.127 7.33 2.1 13.44
2/13/2023 1:30:00 PM 2.58 36.644 0.128 7.33 2.05 13.38
2/13/2023 1:45:00 PM 2.67 36.806 0.128 7.34 2.1 13.34
2/13/2023 2:00:00 PM 2.78 37.004 0.127 7.34 2 13.3
2/13/2023 2:15:00 PM 2.85 37.13 0.127 7.34 2.03 13.26
2/13/2023 2:30:00 PM 2.91 37.238 0.128 7.35 2.17 13.23
2/13/2023 2:45:00 PM 2.94 37.292 0.127 7.35 2.22 13.22
2/13/2023 3:00:00 PM 2.94 37.292 0.128 7.36 2.17 13.19
2/13/2023 3:15:00 PM 2.93 37.274 0.127 7.36 2.05 13.19
2/13/2023 3:30:00 PM 2.94 37.292 0.127 7.36 2 13.19
2/13/2023 3:45:00 PM 2.93 37.274 0.127 7.36 1.98 13.17
2/13/2023 4:00:00 PM 2.91 37.238 0.127 7.36 2.14 13.17
2/13/2023 4:15:00 PM 2.87 37.166 0.127 7.36 2.06 13.16
2/13/2023 4:30:00 PM 2.82 37.076 0.128 7.36 2.12 13.16
2/13/2023 4:45:00 PM 2.76 36.968 0.128 7.35 2.24 13.16
2/13/2023 5:00:00 PM 2.69 36.842 0.127 7.35 2.06 13.16
2/13/2023 5:15:00 PM 2.62 36.716 0.128 7.35 2.14 13.16
2/13/2023 5:30:00 PM 2.57 36.626 0.128 7.34 2.1 13.15
2/13/2023 5:45:00 PM 2.54 36.572 0.128 7.33 2.17 13.13
2/13/2023 6:00:00 PM 2.53 36.554 0.128 7.32 2.15 13.13
2/13/2023 6:15:00 PM 2.52 36.536 0.128 7.32 2.06 13.11
2/13/2023 6:30:00 PM 2.53 36.554 0.128 7.31 2.4 13.1
2/13/2023 6:45:00 PM 2.55 36.59 0.128 7.31 2.25 13.09
2/13/2023 7:00:00 PM 2.59 36.662 0.128 7.31 2.17 13.08
2/13/2023 7:15:00 PM 2.61 36.698 0.128 7.31 2.27 13.07
2/13/2023 7:30:00 PM 2.61 36.698 0.128 7.31 2.25 13.05
2/13/2023 7:45:00 PM 2.61 36.698 0.128 7.31 2.2 13.05
2/13/2023 8:00:00 PM 2.62 36.716 0.129 7.31 2.28 13.05
2/13/2023 8:15:00 PM 2.62 36.716 0.129 7.31 2.24 13.05
2/13/2023 8:30:00 PM 2.61 36.698 0.128 7.31 2.34 13.05
2/13/2023 8:45:00 PM 2.61 36.698 0.129 7.31 2.39 13.05
2/13/2023 9:00:00 PM 2.6 36.68 0.128 7.31 2.31 13.06
2/13/2023 9:15:00 PM 2.6 36.68 0.128 7.31 2.18 13.07
2/13/2023 9:30:00 PM 2.6 36.68 0.128 7.31 2.37 13.07
2/13/2023 9:45:00 PM 2.59 36.662 0.128 7.31 2.25 13.08
2/13/2023 10:00:00 PM 2.58 36.644 0.128 7.31 2.22 13.08
2/13/2023 10:15:00 PM 2.58 36.644 0.128 7.31 2.14 13.08
2/13/2023 10:30:00 PM 2.57 36.626 0.129 7.31 2.18 13.09
2/13/2023 10:45:00 PM 2.56 36.608 0.128 7.31 2.24 13.09
2/13/2023 11:00:00 PM 2.55 36.59 0.128 7.3 2.19 13.1
2/13/2023 11:15:00 PM 2.55 36.59 0.128 7.3 2.25 13.11
2/13/2023 11:30:00 PM 2.53 36.554 0.128 7.3 2.28 13.12
2/13/2023 11:45:00 PM 2.51 36.518 0.128 7.31 2.26 13.13
2/14/2023 12:00:00 AM 2.48 36.464 0.128 7.31 2.25 13.14
2/14/2023 12:15:00 AM 2.45 36.41 0.128 7.3 2.25 13.16
2/14/2023 12:30:00 AM 2.41 36.338 0.128 7.3 2.19 13.17
2/14/2023 12:45:00 AM 2.37 36.266 0.128 7.3 2.22 13.19
2/14/2023 1:00:00 AM 2.33 36.194 0.128 7.3 2.1 13.21
2/14/2023 1:15:00 AM 2.29 36.122 0.128 7.3 2.15 13.23
2/14/2023 1:30:00 AM 2.27 36.086 0.128 7.3 2.2 13.25
2/14/2023 1:45:00 AM 2.24 36.032 0.129 7.3 2.09 13.27
2/14/2023 2:00:00 AM 2.22 35.996 0.129 7.3 2.12 13.28
2/14/2023 2:15:00 AM 2.19 35.942 0.129 7.3 2.19 13.3
2/14/2023 2:30:00 AM 2.15 35.87 0.129 7.3 2.18 13.31
2/14/2023 2:45:00 AM 2.11 35.798 0.129 7.3 2.14 13.33
2/14/2023 3:00:00 AM 2.06 35.708 0.129 7.3 2.17 13.35
2/14/2023 3:15:00 AM 2.01 35.618 0.128 7.3 2.18 13.37
2/14/2023 3:30:00 AM 1.96 35.528 0.129 7.29 2.08 13.39
2/14/2023 3:45:00 AM 1.91 35.438 0.129 7.3 2.11 13.41
2/14/2023 4:00:00 AM 1.86 35.348 0.129 7.29 2.12 13.43
2/14/2023 4:15:00 AM 1.81 35.258 0.129 7.29 2.08 13.45
2/14/2023 4:30:00 AM 1.77 35.186 0.129 7.29 2.18 13.47
2/14/2023 4:45:00 AM 1.72 35.096 0.129 7.29 2.14 13.5
2/14/2023 5:00:00 AM 1.67 35.006 0.129 7.29 2.14 13.52
2/14/2023 5:15:00 AM 1.63 34.934 0.129 7.29 2.15 13.53
2/14/2023 5:30:00 AM 1.58 34.844 0.129 7.28 2.16 13.56
2/14/2023 5:45:00 AM 1.53 34.754 0.129 7.28 2.22 13.58
2/14/2023 6:00:00 AM 1.48 34.664 0.129 7.28 2.16 13.6
2/14/2023 6:15:00 AM 1.44 34.592 0.129 7.28 2.16 13.62
2/14/2023 6:30:00 AM 1.39 34.502 0.129 7.28 2.04 13.64
2/14/2023 6:45:00 AM 1.34 34.412 0.129 7.28 2.16 13.65
2/14/2023 7:00:00 AM 1.3 34.34 0.129 7.28 2.2 13.68
2/14/2023 7:15:00 AM 1.25 34.25 0.129 7.28 2.14 13.71
2/14/2023 7:30:00 AM 1.21 34.178 0.129 7.28 2.13 13.74
2/14/2023 7:45:00 AM 1.17 34.106 0.129 7.28 2.14 13.78
2/14/2023 8:00:00 AM 1.14 34.052 0.129 7.28 2.21 13.81
2/14/2023 8:15:00 AM 1.12 34.016 0.129 7.29 2.15 13.85
2/14/2023 8:30:00 AM 1.1 33.98 0.129 7.29 2.06 13.87
2/14/2023 8:45:00 AM 1.11 33.998 0.129 7.29 2.09 13.9
2/14/2023 9:00:00 AM 1.16 34.088 0.129 7.3 2.06 13.91
2/14/2023 9:15:00 AM 1.21 34.178 0.129 7.3 2.1 13.92
2/14/2023 9:30:00 AM 1.31 34.358 0.129 7.31 2.11 13.92
2/14/2023 9:45:00 AM 1.42 34.556 0.129 7.31 2.13 13.9
2/14/2023 10:00:00 AM 1.54 34.772 0.129 7.31 2.04 13.88
2/14/2023 10:15:00 AM 1.65 34.97 0.129 7.31 2 13.85
2/14/2023 10:30:00 AM 1.76 35.168 0.129 7.32 1.97 13.83
2/14/2023 10:45:00 AM 1.86 35.348 0.129 7.32 2.13 13.8
2/14/2023 11:00:00 AM 1.98 35.564 0.129 7.33 1.96 13.77
2/14/2023 11:15:00 AM 2.09 35.762 0.128 7.33 2.01 13.73
2/14/2023 11:30:00 AM 2.22 35.996 0.129 7.33 1.95 13.69
2/14/2023 11:45:00 AM 2.37 36.266 0.129 7.34 1.92 13.65
2/14/2023 12:00:00 PM 2.52 36.536 0.128 7.34 1.89 13.59
2/14/2023 12:15:00 PM 2.67 36.806 0.128 7.35 2.03 13.53
2/14/2023 12:30:00 PM 2.83 37.094 0.129 7.35 1.98 13.48
2/14/2023 12:45:00 PM 2.99 37.382 0.128 7.35 1.94 13.42
2/14/2023 1:00:00 PM 3.14 37.652 0.128 7.36 1.89 13.37
2/14/2023 1:15:00 PM 3.28 37.904 0.129 7.36 1.95 13.32
2/14/2023 1:30:00 PM 3.42 38.156 0.129 7.36 1.76 13.26
2/14/2023 1:45:00 PM 3.54 38.372 0.128 7.37 1.93 13.22
2/14/2023 2:00:00 PM 3.65 38.57 0.128 7.37 1.84 13.17
2/14/2023 2:15:00 PM 3.73 38.714 0.128 7.37 1.99 13.13
2/14/2023 2:30:00 PM 3.79 38.822 0.128 7.37 1.85 13.09
2/14/2023 2:45:00 PM 3.84 38.912 0.128 7.38 2.09 13.07
2/14/2023 3:00:00 PM 3.86 38.948 0.128 7.38 1.98 13.04
2/14/2023 3:15:00 PM 3.86 38.948 0.128 7.38 1.93 13.03
2/14/2023 3:30:00 PM 3.84 38.912 0.128 7.38 2.02 13.04
2/14/2023 3:45:00 PM 3.79 38.822 0.128 7.38 1.95 13.04
2/14/2023 4:00:00 PM 3.73 38.714 0.128 7.38 1.92 13.04
2/14/2023 4:15:00 PM 3.66 38.588 0.128 7.37 2.03 13.06
2/14/2023 4:30:00 PM 3.58 38.444 0.128 7.37 2.02 13.07
2/14/2023 4:45:00 PM 3.49 38.282 0.128 7.37 2 13.08
2/14/2023 5:00:00 PM 3.39 38.102 0.128 7.36 2 13.09
2/14/2023 5:15:00 PM 3.3 37.94 0.129 7.35 2.07 13.11
2/14/2023 5:30:00 PM 3.21 37.778 0.129 7.35 1.91 13.12
2/14/2023 5:45:00 PM 3.14 37.652 0.128 7.34 2.11 13.13
2/14/2023 6:00:00 PM 3.06 37.508 0.128 7.33 2.02 13.14
2/14/2023 6:15:00 PM 3 37.4 0.128 7.33 2.1 13.15
2/14/2023 6:30:00 PM 2.95 37.31 0.128 7.32 1.97 13.15
2/14/2023 6:45:00 PM 2.91 37.238 0.128 7.32 1.99 13.16
2/14/2023 7:00:00 PM 2.89 37.202 0.128 7.31 2.03 13.16
2/14/2023 7:15:00 PM 2.87 37.166 0.128 7.31 2.15 13.16
2/14/2023 7:30:00 PM 2.87 37.166 0.129 7.31 2.06 13.15
2/14/2023 7:45:00 PM 2.86 37.148 0.129 7.31 2.09 13.15
2/14/2023 8:00:00 PM 2.86 37.148 0.128 7.31 2.15 13.15
2/14/2023 8:15:00 PM 2.85 37.13 0.128 7.31 2.17 13.16
2/14/2023 8:30:00 PM 2.85 37.13 0.128 7.3 2.11 13.15
2/14/2023 8:45:00 PM 2.85 37.13 0.128 7.3 2 13.14
2/14/2023 9:00:00 PM 2.84 37.112 0.129 7.3 2.15 13.15
2/14/2023 9:15:00 PM 2.83 37.094 0.129 7.3 2.95 13.15
2/14/2023 9:30:00 PM 2.83 37.094 0.129 7.3 2.22 13.15
2/14/2023 9:45:00 PM 2.82 37.076 0.129 7.3 2.1 13.15
2/14/2023 10:00:00 PM 2.81 37.058 0.128 7.3 2.07 13.15
2/14/2023 10:15:00 PM 2.79 37.022 0.128 7.29 2.12 13.16
2/14/2023 10:30:00 PM 2.78 37.004 0.129 7.29 2.29 13.17
2/14/2023 10:45:00 PM 2.76 36.968 0.128 7.29 2.18 13.17
2/14/2023 11:00:00 PM 2.75 36.95 0.128 7.29 2.14 13.18
2/14/2023 11:15:00 PM 2.73 36.914 0.128 7.29 2.06 13.19
2/14/2023 11:30:00 PM 2.71 36.878 0.128 7.29 1.92 13.2
2/14/2023 11:45:00 PM 2.69 36.842 0.128 7.29 2.07 13.2
2/15/2023 12:00:00 AM 2.67 36.806 0.129 7.29 2.07 13.21
2/15/2023 12:15:00 AM 2.65 36.77 0.128 7.29 2.06 13.21
2/15/2023 12:30:00 AM 2.64 36.752 0.129 7.29 1.98 13.22
2/15/2023 12:45:00 AM 2.63 36.734 0.128 7.29 2.09 13.22
2/15/2023 1:00:00 AM 2.62 36.716 0.129 7.29 2.03 13.23
2/15/2023 1:15:00 AM 2.61 36.698 0.129 7.29 2.13 13.23
2/15/2023 1:30:00 AM 2.59 36.662 0.128 7.29 2.12 13.24
2/15/2023 1:45:00 AM 2.59 36.662 0.129 7.29 2.21 13.25
2/15/2023 2:00:00 AM 2.59 36.662 0.129 7.29 2.14 13.25
2/15/2023 2:15:00 AM 2.58 36.644 0.129 7.29 2.08 13.26
2/15/2023 2:30:00 AM 2.57 36.626 0.128 7.29 2.09 13.27
2/15/2023 2:45:00 AM 2.56 36.608 0.129 7.29 1.96 13.27
2/15/2023 3:00:00 AM 2.56 36.608 0.129 7.29 2.05 13.27
2/15/2023 3:15:00 AM 2.55 36.59 0.129 7.29 2.16 13.27
2/15/2023 3:30:00 AM 2.55 36.59 0.129 7.29 1.96 13.28
2/15/2023 3:45:00 AM 2.55 36.59 0.129 7.29 2.04 13.27
2/15/2023 4:00:00 AM 2.54 36.572 0.129 7.29 2.01 13.27
2/15/2023 4:15:00 AM 2.53 36.554 0.129 7.29 2.02 13.29
2/15/2023 4:30:00 AM 2.52 36.536 0.129 7.29 2.05 13.28
2/15/2023 4:45:00 AM 2.52 36.536 0.129 7.29 2.05 13.28
2/15/2023 5:00:00 AM 2.51 36.518 0.129 7.29 1.94 13.28
2/15/2023 5:15:00 AM 2.5 36.5 0.129 7.29 2.02 13.28
2/15/2023 5:30:00 AM 2.5 36.5 0.129 7.3 1.9 13.29
2/15/2023 5:45:00 AM 2.51 36.518 0.129 7.3 2.06 13.28
2/15/2023 6:00:00 AM 2.52 36.536 0.129 7.3 2.06 13.28
2/15/2023 6:15:00 AM 2.53 36.554 0.129 7.3 1.91 13.27
2/15/2023 6:30:00 AM 2.52 36.536 0.129 7.3 1.98 13.27
2/15/2023 6:45:00 AM 2.52 36.536 0.129 7.3 1.91 13.26
2/15/2023 7:00:00 AM 2.51 36.518 0.129 7.3 2.04 13.27
2/15/2023 7:15:00 AM 2.52 36.536 0.129 7.3 1.99 13.27
2/15/2023 7:30:00 AM 2.54 36.572 0.129 7.3 1.99 13.28
2/15/2023 7:45:00 AM 2.56 36.608 0.129 7.3 2.07 13.29
2/15/2023 8:00:00 AM 2.61 36.698 0.129 7.31 1.97 13.3
2/15/2023 8:15:00 AM 2.65 36.77 0.129 7.31 1.97 13.29
2/15/2023 8:30:00 AM 2.7 36.86 0.129 7.32 2.19 13.3
2/15/2023 8:45:00 AM 2.75 36.95 0.129 7.33 2.03 13.3
2/15/2023 9:00:00 AM 2.79 37.022 0.129 7.33 2.18 13.3
2/15/2023 9:15:00 AM 2.87 37.166 0.129 7.34 1.93 13.29
2/15/2023 9:30:00 AM 2.98 37.364 0.128 7.34 1.98 13.28
2/15/2023 9:45:00 AM 3.12 37.616 0.128 7.35 2.01 13.26
2/15/2023 10:00:00 AM 3.27 37.886 0.128 7.35 2.12 13.23
2/15/2023 10:15:00 AM 3.43 38.174 0.128 7.35 2 13.19
2/15/2023 10:30:00 AM 3.56 38.408 0.128 7.36 2.08 13.16
2/15/2023 10:45:00 AM 3.69 38.642 0.128 7.37 1.98 13.11
2/15/2023 11:00:00 AM 3.83 38.894 0.128 7.37 1.87 13.08
2/15/2023 11:15:00 AM 3.96 39.128 0.128 7.38 1.95 13.03
2/15/2023 11:30:00 AM 4.12 39.416 0.128 7.38 1.94 12.99
2/15/2023 11:45:00 AM 4.27 39.686 0.128 7.38 1.96 12.93
2/15/2023 12:00:00 PM 4.44 39.992 0.128 7.39 2.04 12.88
2/15/2023 12:15:00 PM 4.62 40.316 0.128 7.39 1.95 12.82
2/15/2023 12:30:00 PM 4.82 40.676 0.128 7.4 2.06 12.75
2/15/2023 12:45:00 PM 5 41 0.128 7.4 1.88 12.69
2/15/2023 1:00:00 PM 5.19 41.342 0.128 7.4 1.94 12.62
2/15/2023 1:15:00 PM 5.37 41.666 0.128 7.41 2.05 12.56
2/15/2023 1:30:00 PM 5.55 41.99 0.128 7.41 1.97 12.5
2/15/2023 1:45:00 PM 5.71 42.278 0.128 7.42 1.97 12.44
2/15/2023 2:00:00 PM 5.85 42.53 0.127 7.42 1.99 12.38
2/15/2023 2:15:00 PM 5.96 42.728 0.128 7.42 2.02 12.33
2/15/2023 2:30:00 PM 6.04 42.872 0.128 7.42 1.98 12.3
2/15/2023 2:45:00 PM 6.12 43.016 0.127 7.43 1.9 12.25
2/15/2023 3:00:00 PM 6.17 43.106 0.127 7.43 2.06 12.22
2/15/2023 3:15:00 PM 6.21 43.178 0.127 7.43 2.11 12.21
2/15/2023 3:30:00 PM 6.22 43.196 0.127 7.43 2.2 12.18
2/15/2023 3:45:00 PM 6.21 43.178 0.127 7.43 2.12 12.18
2/15/2023 4:00:00 PM 6.18 43.124 0.127 7.43 2.02 12.16
2/15/2023 4:15:00 PM 6.13 43.034 0.128 7.42 2.14 12.16
2/15/2023 4:30:00 PM 6.08 42.944 0.127 7.42 2.05 12.15
2/15/2023 4:45:00 PM 6.01 42.818 0.127 7.42 2.06 12.16
2/15/2023 5:00:00 PM 5.94 42.692 0.128 7.41 2.32 12.17
2/15/2023 5:15:00 PM 5.86 42.548 0.127 7.41 2.08 12.16
2/15/2023 5:30:00 PM 5.8 42.44 0.128 7.4 2.1 12.16
2/15/2023 5:45:00 PM 5.74 42.332 0.128 7.39 2.25 12.15
2/15/2023 6:00:00 PM 5.67 42.206 0.128 7.38 2.04 12.15
2/15/2023 6:15:00 PM 5.61 42.098 0.128 7.37 2.24 12.16
2/15/2023 6:30:00 PM 5.55 41.99 0.128 7.36 2.15 12.16
2/15/2023 6:45:00 PM 5.52 41.936 0.128 7.35 2.32 12.16
2/15/2023 7:00:00 PM 5.49 41.882 0.127 7.35 2.34 12.16
2/15/2023 7:15:00 PM 5.48 41.864 0.127 7.34 2.21 12.16
2/15/2023 7:30:00 PM 5.48 41.864 0.128 7.34 2.34 12.15
2/15/2023 7:45:00 PM 5.48 41.864 0.128 7.33 2.32 12.15
2/15/2023 8:00:00 PM 5.48 41.864 0.128 7.33 2.33 12.14
2/15/2023 8:15:00 PM 5.49 41.882 0.128 7.33 2.39 12.14
2/15/2023 8:30:00 PM 5.49 41.882 0.127 7.33 2.32 12.13
2/15/2023 8:45:00 PM 5.5 41.9 0.128 7.32 2.44 12.14
2/15/2023 9:00:00 PM 5.49 41.882 0.128 7.32 2.36 12.13
2/15/2023 9:15:00 PM 5.49 41.882 0.128 7.32 2.34 12.14
2/15/2023 9:30:00 PM 5.48 41.864 0.127 7.32 2.32 12.14
2/15/2023 9:45:00 PM 5.47 41.846 0.128 7.32 2.31 12.14
2/15/2023 10:00:00 PM 5.45 41.81 0.128 7.31 2.39 12.15
2/15/2023 10:15:00 PM 5.43 41.774 0.128 7.31 2.23 12.15
2/15/2023 10:30:00 PM 5.4 41.72 0.128 7.31 2.38 12.16
2/15/2023 10:45:00 PM 5.38 41.684 0.128 7.31 2.42 12.18
2/15/2023 11:00:00 PM 5.34 41.612 0.128 7.31 2.28 12.18
2/15/2023 11:15:00 PM 5.3 41.54 0.128 7.31 2.4 12.2
2/15/2023 11:30:00 PM 5.26 41.468 0.128 7.31 2.56 12.21
2/15/2023 11:45:00 PM 5.22 41.396 0.128 7.31 2.35 12.23
2/16/2023 12:00:00 AM 5.17 41.306 0.128 7.31 2.39 12.24
2/16/2023 12:15:00 AM 5.12 41.216 0.128 7.3 2.46 12.27
2/16/2023 12:30:00 AM 5.07 41.126 0.128 7.3 2.6 12.28
2/16/2023 12:45:00 AM 5.02 41.036 0.128 7.3 2.49 12.3
2/16/2023 1:00:00 AM 4.96 40.928 0.128 7.3 2.63 12.32
2/16/2023 1:15:00 AM 4.91 40.838 0.128 7.3 2.56 12.34
2/16/2023 1:30:00 AM 4.85 40.73 0.128 7.3 2.7 12.36
2/16/2023 1:45:00 AM 4.79 40.622 0.128 7.3 2.58 12.38
2/16/2023 2:00:00 AM 4.73 40.514 0.128 7.29 2.59 12.4
2/16/2023 2:15:00 AM 4.67 40.406 0.128 7.29 2.66 12.42
2/16/2023 2:30:00 AM 4.61 40.298 0.128 7.29 2.65 12.44
2/16/2023 2:45:00 AM 4.54 40.172 0.128 7.29 2.94 12.47
2/16/2023 3:00:00 AM 4.48 40.064 0.128 7.29 2.76 12.5
2/16/2023 3:15:00 AM 4.41 39.938 0.128 7.29 2.95 12.52
2/16/2023 3:30:00 AM 4.35 39.83 0.128 7.29 2.79 12.55
2/16/2023 3:45:00 AM 4.28 39.704 0.128 7.29 3.04 12.57
2/16/2023 4:00:00 AM 4.22 39.596 0.128 7.29 2.88 12.59
2/16/2023 4:15:00 AM 4.15 39.47 0.128 7.29 2.94 12.62
2/16/2023 4:30:00 AM 4.08 39.344 0.128 7.29 3.09 12.65
2/16/2023 4:45:00 AM 4.02 39.236 0.128 7.28 3.12 12.68
2/16/2023 5:00:00 AM 3.96 39.128 0.129 7.28 3.19 12.69
2/16/2023 5:15:00 AM 3.91 39.038 0.128 7.28 3.25 12.72
2/16/2023 5:30:00 AM 3.85 38.93 0.128 7.28 3.4 12.74
2/16/2023 5:45:00 AM 3.79 38.822 0.128 7.28 3.22 12.77
2/16/2023 6:00:00 AM 3.74 38.732 0.128 7.28 3.38 12.79
2/16/2023 6:15:00 AM 3.69 38.642 0.128 7.28 3.42 12.81
2/16/2023 6:30:00 AM 3.64 38.552 0.128 7.28 3.4 12.83
2/16/2023 6:45:00 AM 3.6 38.48 0.128 7.28 3.25 12.85
2/16/2023 7:00:00 AM 3.56 38.408 0.129 7.28 3.66 12.87
2/16/2023 7:15:00 AM 3.51 38.318 0.128 7.28 3.54 12.9
2/16/2023 7:30:00 AM 3.48 38.264 0.129 7.28 3.44 12.93
2/16/2023 7:45:00 AM 3.46 38.228 0.128 7.29 3.39 12.96
2/16/2023 8:00:00 AM 3.46 38.228 0.129 7.29 3.35 13
2/16/2023 8:15:00 AM 3.46 38.228 0.128 7.3 3.29 13.03
2/16/2023 8:30:00 AM 3.48 38.264 0.128 7.31 3.39 13.06
2/16/2023 8:45:00 AM 3.52 38.336 0.128 7.32 3.06 13.08
2/16/2023 9:00:00 AM 3.56 38.408 0.128 7.32 2.91 13.09
2/16/2023 9:15:00 AM 3.61 38.498 0.128 7.33 2.95 13.09
2/16/2023 9:30:00 AM 3.67 38.606 0.128 7.33 2.87 13.09
2/16/2023 9:45:00 AM 3.73 38.714 0.128 7.34 2.84 13.09
2/16/2023 10:00:00 AM 3.8 38.84 0.128 7.34 2.85 13.09
2/16/2023 10:15:00 AM 3.88 38.984 0.128 7.35 2.59 13.07
2/16/2023 10:30:00 AM 3.94 39.092 0.128 7.35 2.47 13.05
2/16/2023 10:45:00 AM 4.02 39.236 0.128 7.36 2.35 13.03
2/16/2023 11:00:00 AM 4.08 39.344 0.128 7.37 2.53 13.01
2/16/2023 11:15:00 AM 4.15 39.47 0.128 7.37 2.55 13
2/16/2023 11:30:00 AM 4.21 39.578 0.128 7.37 2.47 12.98
2/16/2023 11:45:00 AM 4.28 39.704 0.127 7.38 2.25 12.96
2/16/2023 12:00:00 PM 4.35 39.83 0.127 7.38 2.29 12.94
2/16/2023 12:15:00 PM 4.41 39.938 0.127 7.39 2.5 12.91
2/16/2023 12:30:00 PM 4.46 40.028 0.127 7.39 2.3 12.89
2/16/2023 12:45:00 PM 4.51 40.118 0.127 7.39 2.24 12.86
2/16/2023 1:00:00 PM 4.54 40.172 0.127 7.4 2.24 12.84
2/16/2023 1:15:00 PM 4.56 40.208 0.127 7.4 2.36 12.81
2/16/2023 1:30:00 PM 4.59 40.262 0.127 7.39 2.33 12.8
2/16/2023 1:45:00 PM 4.59 40.262 0.127 7.4 2.37 12.78
2/16/2023 2:00:00 PM 4.6 40.28 0.127 7.39 2.28 12.74
2/16/2023 2:15:00 PM 4.6 40.28 0.127 7.39 2.2 12.73
2/16/2023 2:30:00 PM 4.61 40.298 0.127 7.38 2.21 12.72
2/16/2023 2:45:00 PM 4.61 40.298 0.127 7.38 2.34 12.71
2/16/2023 3:00:00 PM 4.63 40.334 0.127 7.38 2.29 12.71
2/16/2023 3:15:00 PM 4.64 40.352 0.127 7.38 2.25 12.69
2/16/2023 3:30:00 PM 4.65 40.37 0.127 7.38 2.2 12.69
2/16/2023 3:45:00 PM 4.67 40.406 0.127 7.38 2.28 12.69
2/16/2023 4:00:00 PM 4.69 40.442 0.127 7.38 2.2 12.68
2/16/2023 4:15:00 PM 4.69 40.442 0.127 7.38 2.34 12.64
2/16/2023 4:30:00 PM 4.7 40.46 0.127 7.38 2.56 12.63
2/16/2023 4:45:00 PM 4.7 40.46 0.127 7.37 2.29 12.62
2/16/2023 5:00:00 PM 4.69 40.442 0.127 7.36 2.28 12.59
2/16/2023 5:15:00 PM 4.69 40.442 0.127 7.35 2.4 12.58
2/16/2023 5:30:00 PM 4.68 40.424 0.127 7.34 2.31 12.56
2/16/2023 5:45:00 PM 4.66 40.388 0.127 7.34 2.24 12.54
2/16/2023 6:00:00 PM 4.65 40.37 0.127 7.33 2.29 12.53
2/16/2023 6:15:00 PM 4.63 40.334 0.127 7.33 2.3 12.52
2/16/2023 6:30:00 PM 4.61 40.298 0.127 7.32 2.35 12.51
2/16/2023 6:45:00 PM 4.6 40.28 0.127 7.31 2.38 12.51
2/16/2023 7:00:00 PM 4.59 40.262 0.127 7.31 2.33 12.51
2/16/2023 7:15:00 PM 4.6 40.28 0.127 7.31 2.31 12.5
2/16/2023 7:30:00 PM 4.6 40.28 0.127 7.3 2.35 12.49
2/16/2023 7:45:00 PM 4.62 40.316 0.127 7.3 2.28 12.48
2/16/2023 8:00:00 PM 4.64 40.352 0.127 7.3 2.35 12.47
2/16/2023 8:15:00 PM 4.67 40.406 0.127 7.31 2.61 12.46
2/16/2023 8:30:00 PM 4.69 40.442 0.127 7.31 2.29 12.45
2/16/2023 8:45:00 PM 4.73 40.514 0.127 7.31 2.35 12.44
2/16/2023 9:00:00 PM 4.77 40.586 0.127 7.31 2.33 12.43
2/16/2023 9:15:00 PM 4.81 40.658 0.127 7.31 2.44 12.41
2/16/2023 9:30:00 PM 4.83 40.694 0.127 7.31 2.35 12.4
2/16/2023 9:45:00 PM 4.86 40.748 0.127 7.31 2.33 12.39
2/16/2023 10:00:00 PM 4.88 40.784 0.127 7.31 2.32 12.38
2/16/2023 10:15:00 PM 4.9 40.82 0.127 7.31 2.5 12.37
2/16/2023 10:30:00 PM 4.92 40.856 0.127 7.31 2.48 12.36
2/16/2023 10:45:00 PM 4.93 40.874 0.127 7.31 2.17 12.35
2/16/2023 11:00:00 PM 4.94 40.892 0.127 7.31 2.42 12.34
2/16/2023 11:15:00 PM 4.98 40.964 0.127 7.32 2.32 12.32
2/16/2023 11:30:00 PM 5.02 41.036 0.127 7.31 2.26 12.31
2/16/2023 11:45:00 PM 5.05 41.09 0.127 7.32 2.19 12.3
2/17/2023 12:00:00 AM 5.08 41.144 0.127 7.32 2.3 12.28
2/17/2023 12:15:00 AM 5.11 41.198 0.127 7.32 2.22 12.26
2/17/2023 12:30:00 AM 5.14 41.252 0.127 7.32 2.32 12.25
2/17/2023 12:45:00 AM 5.16 41.288 0.127 7.32 2.29 12.23
2/17/2023 1:00:00 AM 5.17 41.306 0.127 7.32 2.36 12.22
2/17/2023 1:15:00 AM 5.19 41.342 0.127 7.32 2.44 12.22
2/17/2023 1:30:00 AM 5.19 41.342 0.127 7.32 2.33 12.22
2/17/2023 1:45:00 AM 5.19 41.342 0.127 7.32 2.55 12.21
2/17/2023 2:00:00 AM 5.2 41.36 0.127 7.32 2.4 12.21
2/17/2023 2:15:00 AM 5.21 41.378 0.127 7.32 2.52 12.2
2/17/2023 2:30:00 AM 5.22 41.396 0.127 7.32 2.71 12.19
2/17/2023 2:45:00 AM 5.22 41.396 0.127 7.32 2.79 12.18
2/17/2023 3:00:00 AM 5.22 41.396 0.127 7.32 2.83 12.18
2/17/2023 3:15:00 AM 5.23 41.414 0.127 7.31 2.75 12.18
2/17/2023 3:30:00 AM 5.23 41.414 0.127 7.31 2.96 12.17
2/17/2023 3:45:00 AM 5.24 41.432 0.127 7.31 2.84 12.17
2/17/2023 4:00:00 AM 5.25 41.45 0.127 7.32 2.84 12.15
2/17/2023 4:15:00 AM 5.29 41.522 0.127 7.32 2.83 12.14
2/17/2023 4:30:00 AM 5.3 41.54 0.127 7.32 2.97 12.13
2/17/2023 4:45:00 AM 5.33 41.594 0.127 7.32 2.87 12.13
2/17/2023 5:00:00 AM 5.32 41.576 0.127 7.32 2.85 12.12
2/17/2023 5:15:00 AM 5.32 41.576 0.127 7.32 2.91 12.12
2/17/2023 5:30:00 AM 5.35 41.63 0.127 7.32 2.83 12.12
2/17/2023 5:45:00 AM 5.39 41.702 0.127 7.32 2.92 12.11
2/17/2023 6:00:00 AM 5.44 41.792 0.127 7.32 2.94 12.1
2/17/2023 6:15:00 AM 5.48 41.864 0.127 7.32 3.01 12.09
2/17/2023 6:30:00 AM 5.53 41.954 0.127 7.33 2.99 12.07
2/17/2023 6:45:00 AM 5.57 42.026 0.127 7.32 3.06 12.05
2/17/2023 7:00:00 AM 5.6 42.08 0.127 7.32 3.11 12.04
2/17/2023 7:15:00 AM 5.64 42.152 0.127 7.33 3.19 12.03
2/17/2023 7:30:00 AM 5.67 42.206 0.127 7.33 3 12.02
2/17/2023 7:45:00 AM 5.69 42.242 0.127 7.33 3.13 12.02
2/17/2023 8:00:00 AM 5.71 42.278 0.127 7.33 3.03 12.03
2/17/2023 8:15:00 AM 5.73 42.314 0.127 7.34 2.75 12.02
2/17/2023 8:30:00 AM 5.75 42.35 0.127 7.34 2.78 12.03
2/17/2023 8:45:00 AM 5.8 42.44 0.127 7.35 2.89 12.03
2/17/2023 9:00:00 AM 5.85 42.53 0.127 7.35 2.89 12.02
2/17/2023 9:15:00 AM 5.9 42.62 0.127 7.35 2.93 12
2/17/2023 9:30:00 AM 5.98 42.764 0.126 7.35 2.73 11.99
2/17/2023 9:45:00 AM 6.01 42.818 0.127 7.36 2.97 12
2/17/2023 10:00:00 AM 6.02 42.836 0.126 7.36 2.77 12.02
2/17/2023 10:15:00 AM 6.02 42.836 0.127 7.37 2.87 12.01
2/17/2023 10:30:00 AM 6.03 42.854 0.127 7.38 2.83 12.04
2/17/2023 10:45:00 AM 6.05 42.89 0.127 7.39 2.86 12.08
2/17/2023 11:00:00 AM 6.07 42.926 0.126 7.39 2.79 12.09
2/17/2023 11:15:00 AM 6.09 42.962 0.126 7.4 2.83 12.11
2/17/2023 11:30:00 AM 6.08 42.944 0.126 7.41 3 12.1
2/17/2023 11:45:00 AM 6.06 42.908 0.126 7.41 3.03 12.11
2/17/2023 12:00:00 PM 6.03 42.854 0.126 7.41 2.95 12.12
2/17/2023 12:15:00 PM 5.99 42.782 0.126 7.41 3.05 12.15
2/17/2023 12:30:00 PM 5.96 42.728 0.126 7.42 3.22 12.17
2/17/2023 12:45:00 PM 5.96 42.728 0.126 7.42 3.27 12.19
2/17/2023 1:00:00 PM 5.95 42.71 0.126 7.42 3.31 12.2
2/17/2023 1:15:00 PM 5.95 42.71 0.126 7.43 3.27 12.22
2/17/2023 1:30:00 PM 5.92 42.656 0.126 7.43 3.49 12.22
2/17/2023 1:45:00 PM 5.94 42.692 0.126 7.44 3.73 12.23
2/17/2023 2:00:00 PM 5.91 42.638 0.126 7.44 3.64 12.24
2/17/2023 2:15:00 PM 5.91 42.638 0.126 7.44 3.85 12.25
2/17/2023 2:30:00 PM 5.88 42.584 0.126 7.44 3.67 12.25
2/17/2023 2:45:00 PM 5.85 42.53 0.126 7.45 3.91 12.26
2/17/2023 3:00:00 PM 5.79 42.422 0.127 7.44 4.33 12.27
2/17/2023 3:15:00 PM 5.71 42.278 0.127 7.44 4.59 12.27
2/17/2023 3:30:00 PM 5.65 42.17 0.127 7.44 4.69 12.28
2/17/2023 3:45:00 PM 5.6 42.08 0.128 7.43 4.61 12.31
2/17/2023 4:00:00 PM 5.52 41.936 0.127 7.43 5.33 12.32
2/17/2023 4:15:00 PM 5.43 41.774 0.127 7.43 4.91 12.32
2/17/2023 4:30:00 PM 5.34 41.612 0.128 7.42 4.71 12.33
2/17/2023 4:45:00 PM 5.24 41.432 0.128 7.41 4.49 12.34
2/17/2023 5:00:00 PM 5.15 41.27 0.128 7.4 4.34 12.35
2/17/2023 5:15:00 PM 5.07 41.126 0.128 7.4 4.02 12.36
2/17/2023 5:30:00 PM 4.98 40.964 0.127 7.39 4 12.37
2/17/2023 5:45:00 PM 4.9 40.82 0.127 7.38 3.96 12.38
2/17/2023 6:00:00 PM 4.84 40.712 0.127 7.37 3.92 12.4
2/17/2023 6:15:00 PM 4.76 40.568 0.127 7.37 3.96 12.41
2/17/2023 6:30:00 PM 4.68 40.424 0.128 7.36 3.9 12.43
2/17/2023 6:45:00 PM 4.6 40.28 0.128 7.36 3.83 12.46
2/17/2023 7:00:00 PM 4.51 40.118 0.128 7.35 4.12 12.49
2/17/2023 7:15:00 PM 4.43 39.974 0.128 7.35 4.03 12.51
2/17/2023 7:30:00 PM 4.35 39.83 0.128 7.34 4.11 12.54
2/17/2023 7:45:00 PM 4.29 39.722 0.128 7.34 4.33 12.57
2/17/2023 8:00:00 PM 4.22 39.596 0.128 7.34 4.03 12.6
2/17/2023 8:15:00 PM 4.14 39.452 0.128 7.34 4.3 12.62
2/17/2023 8:30:00 PM 4.08 39.344 0.128 7.34 4.7 12.65
2/17/2023 8:45:00 PM 4 39.2 0.128 7.33 4.26 12.67
2/17/2023 9:00:00 PM 3.93 39.074 0.128 7.33 4.45 12.7
2/17/2023 9:15:00 PM 3.85 38.93 0.128 7.33 4.56 12.73
2/17/2023 9:30:00 PM 3.79 38.822 0.128 7.33 4.67 12.76
2/17/2023 9:45:00 PM 3.73 38.714 0.128 7.33 4.45 12.78
2/17/2023 10:00:00 PM 3.66 38.588 0.128 7.32 4.57 12.81
2/17/2023 10:15:00 PM 3.61 38.498 0.127 7.33 4.51 12.83
2/17/2023 10:30:00 PM 3.55 38.39 0.128 7.32 4.5 12.86
2/17/2023 10:45:00 PM 3.48 38.264 0.128 7.31 4.68 12.89
2/17/2023 11:00:00 PM 3.42 38.156 0.128 7.31 4.59 12.91
2/17/2023 11:15:00 PM 3.37 38.066 0.128 7.31 4.74 12.93
2/17/2023 11:30:00 PM 3.29 37.922 0.128 7.31 5.08 12.96
2/17/2023 11:45:00 PM 3.22 37.796 0.127 7.31 4.8 12.99
2/18/2023 12:00:00 AM 3.16 37.688 0.127 7.3 4.73 13.02
2/18/2023 12:15:00 AM 3.1 37.58 0.127 7.3 4.56 13.04
2/18/2023 12:30:00 AM 3.05 37.49 0.128 7.3 4.62 13.06
2/18/2023 12:45:00 AM 2.99 37.382 0.127 7.3 4.4 13.09
2/18/2023 1:00:00 AM 2.93 37.274 0.127 7.3 4.25 13.11
2/18/2023 1:15:00 AM 2.88 37.184 0.128 7.3 4.28 13.14
2/18/2023 1:30:00 AM 2.81 37.058 0.128 7.3 4.16 13.17
2/18/2023 1:45:00 AM 2.75 36.95 0.128 7.3 3.97 13.2
2/18/2023 2:00:00 AM 2.69 36.842 0.128 7.29 4.1 13.23
2/18/2023 2:15:00 AM 2.63 36.734 0.128 7.29 3.86 13.25
2/18/2023 2:30:00 AM 2.56 36.608 0.128 7.29 3.77 13.28
2/18/2023 2:45:00 AM 2.49 36.482 0.128 7.29 3.51 13.31
2/18/2023 3:00:00 AM 2.44 36.392 0.128 7.29 3.61 13.33
2/18/2023 3:15:00 AM 2.38 36.284 0.128 7.29 3.38 13.36
2/18/2023 3:30:00 AM 2.29 36.122 0.128 7.29 3.32 13.39
2/18/2023 3:45:00 AM 2.19 35.942 0.128 7.29 3.41 13.42
2/18/2023 4:00:00 AM 2.11 35.798 0.128 7.28 3.52 13.46
2/18/2023 4:15:00 AM 2.01 35.618 0.128 7.28 3.3 13.49
2/18/2023 4:30:00 AM 1.92 35.456 0.128 7.28 3.24 13.53
2/18/2023 4:45:00 AM 1.84 35.312 0.128 7.28 3.15 13.57
2/18/2023 5:00:00 AM 1.75 35.15 0.128 7.27 3.2 13.6
2/18/2023 5:15:00 AM 1.67 35.006 0.128 7.27 3.11 13.63
2/18/2023 5:30:00 AM 1.6 34.88 0.128 7.27 3.11 13.67
2/18/2023 5:45:00 AM 1.53 34.754 0.128 7.27 3.25 13.7
2/18/2023 6:00:00 AM 1.46 34.628 0.128 7.27 3.21 13.73
2/18/2023 6:15:00 AM 1.4 34.52 0.127 7.27 3.08 13.76
2/18/2023 6:30:00 AM 1.33 34.394 0.127 7.26 3.02 13.79
2/18/2023 6:45:00 AM 1.26 34.268 0.128 7.26 3 13.82
2/18/2023 7:00:00 AM 1.19 34.142 0.128 7.26 3 13.86
2/18/2023 7:15:00 AM 1.12 34.016 0.127 7.26 2.94 13.9
2/18/2023 7:30:00 AM 1.06 33.908 0.127 7.26 2.88 13.94
2/18/2023 7:45:00 AM 1.01 33.818 0.127 7.27 2.96 13.99
2/18/2023 8:00:00 AM 0.96 33.728 0.127 7.27 2.89 14.04
2/18/2023 8:15:00 AM 0.93 33.674 0.127 7.27 2.85 14.08
2/18/2023 8:30:00 AM 0.91 33.638 0.127 7.28 2.88 14.11
2/18/2023 8:45:00 AM 0.91 33.638 0.127 7.28 2.8 14.14
2/18/2023 9:00:00 AM 0.95 33.71 0.127 7.29 2.99 14.15
2/18/2023 9:15:00 AM 0.97 33.746 0.127 7.29 2.95 14.17
2/18/2023 9:30:00 AM 1.05 33.89 0.127 7.3 2.76 14.17
2/18/2023 9:45:00 AM 1.14 34.052 0.127 7.3 2.9 14.16
2/18/2023 10:00:00 AM 1.22 34.196 0.126 7.31 2.79 14.15
2/18/2023 10:15:00 AM 1.33 34.394 0.126 7.31 2.79 14.14
2/18/2023 10:30:00 AM 1.4 34.52 0.126 7.32 2.69 14.12
2/18/2023 10:45:00 AM 1.48 34.664 0.126 7.32 2.85 14.1
2/18/2023 11:00:00 AM 1.57 34.826 0.126 7.32 3.43 14.07
2/18/2023 11:15:00 AM 1.67 35.006 0.126 7.33 2.65 14.04
2/18/2023 11:30:00 AM 1.78 35.204 0.126 7.33 3.22 14
2/18/2023 11:45:00 AM 1.9 35.42 0.125 7.34 2.71 13.96
2/18/2023 12:00:00 PM 2.03 35.654 0.125 7.35 2.68 13.92
2/18/2023 12:15:00 PM 2.17 35.906 0.125 7.35 2.61 13.86
2/18/2023 12:30:00 PM 2.33 36.194 0.125 7.36 2.69 13.81
2/18/2023 12:45:00 PM 2.47 36.446 0.125 7.36 2.64 13.75
2/18/2023 1:00:00 PM 2.61 36.698 0.125 7.37 2.6 13.69
2/18/2023 1:15:00 PM 2.76 36.968 0.125 7.37 2.54 13.64
2/18/2023 1:30:00 PM 2.89 37.202 0.126 7.37 2.57 13.6
2/18/2023 1:45:00 PM 3.01 37.418 0.125 7.38 2.57 13.54
2/18/2023 2:00:00 PM 3.12 37.616 0.125 7.38 2.58 13.49
2/18/2023 2:15:00 PM 3.21 37.778 0.125 7.39 2.48 13.45
2/18/2023 2:30:00 PM 3.26 37.868 0.126 7.39 2.67 13.42
2/18/2023 2:45:00 PM 3.28 37.904 0.126 7.39 2.77 13.39
2/18/2023 3:00:00 PM 3.28 37.904 0.125 7.39 2.71 13.38
2/18/2023 3:15:00 PM 3.28 37.904 0.126 7.39 2.53 13.37
2/18/2023 3:30:00 PM 3.25 37.85 0.126 7.4 2.69 13.36
2/18/2023 3:45:00 PM 3.21 37.778 0.126 7.4 2.6 13.37
2/18/2023 4:00:00 PM 3.16 37.688 0.126 7.4 2.72 13.37
2/18/2023 4:15:00 PM 3.09 37.562 0.126 7.39 2.67 13.37
2/18/2023 4:30:00 PM 3.02 37.436 0.126 7.39 2.61 13.39
2/18/2023 4:45:00 PM 2.94 37.292 0.126 7.39 2.74 13.39
2/18/2023 5:00:00 PM 2.87 37.166 0.126 7.38 2.56 13.4
2/18/2023 5:15:00 PM 2.79 37.022 0.126 7.38 2.6 13.41
2/18/2023 5:30:00 PM 2.73 36.914 0.126 7.38 2.69 13.4
2/18/2023 5:45:00 PM 2.67 36.806 0.126 7.37 2.66 13.4
2/18/2023 6:00:00 PM 2.62 36.716 0.126 7.36 2.54 13.4
2/18/2023 6:15:00 PM 2.58 36.644 0.126 7.35 2.75 13.39
2/18/2023 6:30:00 PM 2.56 36.608 0.126 7.34 2.64 13.38
2/18/2023 6:45:00 PM 2.54 36.572 0.127 7.33 2.67 13.37
2/18/2023 7:00:00 PM 2.53 36.554 0.126 7.33 2.53 13.37
2/18/2023 7:15:00 PM 2.54 36.572 0.127 7.33 2.76 13.36
2/18/2023 7:30:00 PM 2.54 36.572 0.127 7.32 2.61 13.35
2/18/2023 7:45:00 PM 2.53 36.554 0.127 7.32 2.52 13.35
2/18/2023 8:00:00 PM 2.52 36.536 0.127 7.32 2.52 13.34
2/18/2023 8:15:00 PM 2.51 36.518 0.127 7.32 2.56 13.35
2/18/2023 8:30:00 PM 2.5 36.5 0.127 7.32 2.48 13.34
2/18/2023 8:45:00 PM 2.49 36.482 0.127 7.32 2.53 13.35
2/18/2023 9:00:00 PM 2.47 36.446 0.127 7.31 2.64 13.36
2/18/2023 9:15:00 PM 2.46 36.428 0.127 7.31 2.54 13.37
2/18/2023 9:30:00 PM 2.43 36.374 0.127 7.31 2.49 13.38
2/18/2023 9:45:00 PM 2.4 36.32 0.127 7.31 2.53 13.39
2/18/2023 10:00:00 PM 2.37 36.266 0.127 7.31 2.39 13.4
2/18/2023 10:15:00 PM 2.33 36.194 0.127 7.31 2.37 13.41
2/18/2023 10:30:00 PM 2.29 36.122 0.127 7.31 2.46 13.43
2/18/2023 10:45:00 PM 2.25 36.05 0.128 7.31 2.44 13.44
2/18/2023 11:00:00 PM 2.2 35.96 0.128 7.3 2.32 13.46
2/18/2023 11:15:00 PM 2.15 35.87 0.128 7.3 2.4 13.48
2/18/2023 11:30:00 PM 2.1 35.78 0.128 7.3 2.38 13.5
2/18/2023 11:45:00 PM 2.06 35.708 0.128 7.3 2.3 13.52
2/19/2023 12:00:00 AM 2.01 35.618 0.128 7.3 2.27 13.54
2/19/2023 12:15:00 AM 1.97 35.546 0.128 7.3 2.35 13.55
2/19/2023 12:30:00 AM 1.93 35.474 0.128 7.3 2.31 13.57
2/19/2023 12:45:00 AM 1.88 35.384 0.128 7.3 2.26 13.6
2/19/2023 1:00:00 AM 1.83 35.294 0.128 7.3 2.29 13.61
2/19/2023 1:15:00 AM 1.79 35.222 0.128 7.29 2.28 13.64
2/19/2023 1:30:00 AM 1.75 35.15 0.129 7.29 2.3 13.65
2/19/2023 1:45:00 AM 1.69 35.042 0.129 7.29 2.4 13.68
2/19/2023 2:00:00 AM 1.65 34.97 0.129 7.29 2.21 13.7
2/19/2023 2:15:00 AM 1.6 34.88 0.129 7.29 2.31 13.72
2/19/2023 2:30:00 AM 1.55 34.79 0.129 7.29 2.17 13.74
2/19/2023 2:45:00 AM 1.5 34.7 0.129 7.29 2.3 13.76
2/19/2023 3:00:00 AM 1.46 34.628 0.129 7.29 2.3 13.78
2/19/2023 3:15:00 AM 1.41 34.538 0.129 7.29 2.19 13.8
2/19/2023 3:30:00 AM 1.37 34.466 0.129 7.29 2.23 13.82
2/19/2023 3:45:00 AM 1.33 34.394 0.129 7.29 2.28 13.83
2/19/2023 4:00:00 AM 1.28 34.304 0.129 7.28 2.21 13.85
2/19/2023 4:15:00 AM 1.25 34.25 0.129 7.28 2.17 13.87
2/19/2023 4:30:00 AM 1.21 34.178 0.129 7.28 2.2 13.88
2/19/2023 4:45:00 AM 1.18 34.124 0.129 7.28 2.18 13.89
2/19/2023 5:00:00 AM 1.14 34.052 0.129 7.28 2.28 13.91
2/19/2023 5:15:00 AM 1.11 33.998 0.129 7.28 2.21 13.92
2/19/2023 5:30:00 AM 1.08 33.944 0.13 7.28 2.15 13.93
2/19/2023 5:45:00 AM 1.05 33.89 0.129 7.28 2.3 13.95
2/19/2023 6:00:00 AM 1.02 33.836 0.129 7.28 2.15 13.96
2/19/2023 6:15:00 AM 0.98 33.764 0.13 7.28 2.12 13.98
2/19/2023 6:30:00 AM 0.96 33.728 0.129 7.28 2.24 13.99
2/19/2023 6:45:00 AM 0.94 33.692 0.129 7.28 2.3 14
2/19/2023 7:00:00 AM 0.91 33.638 0.129 7.28 2.28 14.02
2/19/2023 7:15:00 AM 0.89 33.602 0.129 7.28 2.26 14.03
2/19/2023 7:30:00 AM 0.88 33.584 0.129 7.28 2.25 14.06
2/19/2023 7:45:00 AM 0.87 33.566 0.129 7.29 2.32 14.09
2/19/2023 8:00:00 AM 0.89 33.602 0.129 7.3 2.29 14.11
2/19/2023 8:15:00 AM 0.89 33.602 0.129 7.3 2.32 14.13
2/19/2023 8:30:00 AM 0.91 33.638 0.129 7.31 2.37 14.15
2/19/2023 8:45:00 AM 0.94 33.692 0.129 7.31 2.42 14.16
2/19/2023 9:00:00 AM 0.98 33.764 0.129 7.32 2.29 14.17
2/19/2023 9:15:00 AM 1.01 33.818 0.129 7.33 2.3 14.16
2/19/2023 9:30:00 AM 1.05 33.89 0.129 7.33 2.36 14.16
2/19/2023 9:45:00 AM 1.09 33.962 0.129 7.33 2.28 14.16
2/19/2023 10:00:00 AM 1.15 34.07 0.128 7.34 2.27 14.15
2/19/2023 10:15:00 AM 1.23 34.214 0.128 7.34 2.27 14.14
2/19/2023 10:30:00 AM 1.31 34.358 0.128 7.35 2.31 14.12
2/19/2023 10:45:00 AM 1.37 34.466 0.128 7.35 2.29 14.09
2/19/2023 11:00:00 AM 1.47 34.646 0.128 7.36 2.27 14.07
2/19/2023 11:15:00 AM 1.57 34.826 0.128 7.36 2.38 14.04
2/19/2023 11:30:00 AM 1.68 35.024 0.128 7.37 2.35 14
2/19/2023 11:45:00 AM 1.79 35.222 0.128 7.37 2.37 13.96
2/19/2023 12:00:00 PM 1.9 35.42 0.128 7.37 2.43 13.92
2/19/2023 12:15:00 PM 2.03 35.654 0.128 7.38 2.36 13.88
2/19/2023 12:30:00 PM 2.12 35.816 0.127 7.39 2.35 13.83
2/19/2023 12:45:00 PM 2.23 36.014 0.128 7.39 2.3 13.79
2/19/2023 1:00:00 PM 2.32 36.176 0.127 7.39 2.34 13.76
2/19/2023 1:15:00 PM 2.43 36.374 0.127 7.4 2.32 13.71
2/19/2023 1:30:00 PM 2.53 36.554 0.127 7.4 2.4 13.67
2/19/2023 1:45:00 PM 2.59 36.662 0.127 7.41 2.27 13.63
2/19/2023 2:00:00 PM 2.66 36.788 0.127 7.41 2.31 13.6
2/19/2023 2:15:00 PM 2.7 36.86 0.127 7.41 2.32 13.56
2/19/2023 2:30:00 PM 2.74 36.932 0.127 7.41 2.19 13.53
2/19/2023 2:45:00 PM 2.79 37.022 0.127 7.42 2.33 13.52
2/19/2023 3:00:00 PM 2.84 37.112 0.128 7.42 2.28 13.49
2/19/2023 3:15:00 PM 2.9 37.22 0.127 7.42 2.3 13.46
2/19/2023 3:30:00 PM 2.95 37.31 0.127 7.42 2.31 13.44
2/19/2023 3:45:00 PM 3 37.4 0.127 7.42 2.35 13.41
2/19/2023 4:00:00 PM 3.05 37.49 0.127 7.43 2.3 13.39
2/19/2023 4:15:00 PM 3.09 37.562 0.127 7.43 2.31 13.36
2/19/2023 4:30:00 PM 3.11 37.598 0.127 7.42 2.29 13.33
2/19/2023 4:45:00 PM 3.13 37.634 0.127 7.43 2.33 13.31
2/19/2023 5:00:00 PM 3.14 37.652 0.127 7.42 2.32 13.29
2/19/2023 5:15:00 PM 3.13 37.634 0.127 7.42 2.43 13.26
2/19/2023 5:30:00 PM 3.1 37.58 0.127 7.41 2.43 13.23
2/19/2023 5:45:00 PM 3.07 37.526 0.127 7.41 2.51 13.21
2/19/2023 6:00:00 PM 3.03 37.454 0.127 7.4 2.35 13.18
2/19/2023 6:15:00 PM 2.98 37.364 0.127 7.39 2.46 13.17
2/19/2023 6:30:00 PM 2.94 37.292 0.128 7.38 2.55 13.17
2/19/2023 6:45:00 PM 2.91 37.238 0.128 7.37 2.56 13.16
2/19/2023 7:00:00 PM 2.88 37.184 0.128 7.37 2.95 13.15
2/19/2023 7:15:00 PM 2.85 37.13 0.128 7.36 2.42 13.16
2/19/2023 7:30:00 PM 2.85 37.13 0.128 7.36 2.43 13.15
2/19/2023 7:45:00 PM 2.85 37.13 0.128 7.36 2.45 13.15
2/19/2023 8:00:00 PM 2.86 37.148 0.128 7.36 2.42 13.14
2/19/2023 8:15:00 PM 2.85 37.13 0.128 7.35 2.55 13.14
2/19/2023 8:30:00 PM 2.83 37.094 0.128 7.35 2.5 13.14
2/19/2023 8:45:00 PM 2.81 37.058 0.128 7.35 2.7 13.14
2/19/2023 9:00:00 PM 2.78 37.004 0.128 7.35 2.51 13.14
2/19/2023 9:15:00 PM 2.75 36.95 0.128 7.34 2.47 13.15
2/19/2023 9:30:00 PM 2.73 36.914 0.128 7.34 2.62 13.16
2/19/2023 9:45:00 PM 2.69 36.842 0.128 7.34 2.52 13.16
2/19/2023 10:00:00 PM 2.65 36.77 0.128 7.34 2.65 13.16
2/19/2023 10:15:00 PM 2.62 36.716 0.129 7.34 2.91 13.18
2/19/2023 10:30:00 PM 2.58 36.644 0.128 7.33 3.01 13.19
2/19/2023 10:45:00 PM 2.54 36.572 0.128 7.33 2.67 13.2
2/19/2023 11:00:00 PM 2.5 36.5 0.129 7.33 2.64 13.2
2/19/2023 11:15:00 PM 2.47 36.446 0.128 7.33 2.69 13.21
2/19/2023 11:30:00 PM 2.43 36.374 0.129 7.33 2.57 13.23
2/19/2023 11:45:00 PM 2.4 36.32 0.129 7.32 2.76 13.24
2/20/2023 12:00:00 AM 2.36 36.248 0.129 7.32 2.72 13.25
2/20/2023 12:15:00 AM 2.32 36.176 0.129 7.32 2.7 13.26
2/20/2023 12:30:00 AM 2.28 36.104 0.129 7.32 2.68 13.28
2/20/2023 12:45:00 AM 2.24 36.032 0.129 7.32 2.66 13.28
2/20/2023 1:00:00 AM 2.2 35.96 0.129 7.32 2.75 13.29
2/20/2023 1:15:00 AM 2.16 35.888 0.129 7.32 2.71 13.31
2/20/2023 1:30:00 AM 2.12 35.816 0.129 7.32 2.75 13.33
2/20/2023 1:45:00 AM 2.08 35.744 0.129 7.31 2.73 13.34
2/20/2023 2:00:00 AM 2.04 35.672 0.129 7.31 2.75 13.35
2/20/2023 2:15:00 AM 2.01 35.618 0.129 7.31 2.78 13.37
2/20/2023 2:30:00 AM 1.97 35.546 0.129 7.31 2.82 13.38
2/20/2023 2:45:00 AM 1.94 35.492 0.129 7.31 2.92 13.39
2/20/2023 3:00:00 AM 1.92 35.456 0.129 7.31 2.69 13.4
2/20/2023 3:15:00 AM 1.89 35.402 0.129 7.31 2.89 13.41
2/20/2023 3:30:00 AM 1.87 35.366 0.129 7.31 2.66 13.42
2/20/2023 3:45:00 AM 1.85 35.33 0.129 7.31 2.89 13.42
2/20/2023 4:00:00 AM 1.84 35.312 0.129 7.31 2.87 13.42
2/20/2023 4:15:00 AM 1.83 35.294 0.129 7.3 2.83 13.43
2/20/2023 4:30:00 AM 1.82 35.276 0.129 7.31 2.69 13.43
2/20/2023 4:45:00 AM 1.81 35.258 0.129 7.3 2.85 13.44
2/20/2023 5:00:00 AM 1.8 35.24 0.13 7.3 2.78 13.44
2/20/2023 5:15:00 AM 1.8 35.24 0.13 7.3 2.71 13.44
2/20/2023 5:30:00 AM 1.79 35.222 0.13 7.31 2.95 13.44
2/20/2023 5:45:00 AM 1.78 35.204 0.13 7.3 2.83 13.44
2/20/2023 6:00:00 AM 1.78 35.204 0.13 7.3 2.95 13.45
2/20/2023 6:15:00 AM 1.77 35.186 0.129 7.3 2.79 13.45
2/20/2023 6:30:00 AM 1.77 35.186 0.13 7.31 2.85 13.45
2/20/2023 6:45:00 AM 1.77 35.186 0.13 7.3 2.88 13.45
2/20/2023 7:00:00 AM 1.77 35.186 0.13 7.3 2.85 13.45
2/20/2023 7:15:00 AM 1.77 35.186 0.13 7.3 2.82 13.45
2/20/2023 7:30:00 AM 1.77 35.186 0.13 7.3 2.8 13.45
2/20/2023 7:45:00 AM 1.78 35.204 0.13 7.31 2.85 13.46
2/20/2023 8:00:00 AM 1.79 35.222 0.13 7.31 2.81 13.47
2/20/2023 8:15:00 AM 1.79 35.222 0.13 7.31 2.82 13.47
2/20/2023 8:30:00 AM 1.81 35.258 0.13 7.32 3.01 13.48
2/20/2023 8:45:00 AM 1.82 35.276 0.13 7.32 2.74 13.5
2/20/2023 9:00:00 AM 1.83 35.294 0.13 7.32 2.65 13.51
2/20/2023 9:15:00 AM 1.87 35.366 0.13 7.33 2.67 13.53
2/20/2023 9:30:00 AM 1.9 35.42 0.13 7.34 2.78 13.55
2/20/2023 9:45:00 AM 1.94 35.492 0.13 7.34 2.78 13.55
2/20/2023 10:00:00 AM 1.99 35.582 0.13 7.35 2.62 13.55
2/20/2023 10:15:00 AM 2.03 35.654 0.13 7.35 2.6 13.55
2/20/2023 10:30:00 AM 2.12 35.816 0.13 7.36 2.61 13.56
2/20/2023 10:45:00 AM 2.23 36.014 0.13 7.37 2.57 13.55
2/20/2023 11:00:00 AM 2.43 36.374 0.13 7.37 2.41 13.51
2/20/2023 11:15:00 AM 2.51 36.518 0.13 7.38 2.46 13.47
2/20/2023 11:30:00 AM 2.74 36.932 0.13 7.39 2.47 13.42
2/20/2023 11:45:00 AM 2.93 37.274 0.13 7.4 2.49 13.36
2/20/2023 12:00:00 PM 3.19 37.742 0.13 7.4 2.45 13.3
2/20/2023 12:15:00 PM 3.36 38.048 0.13 7.41 2.69 13.22
2/20/2023 12:30:00 PM 3.62 38.516 0.129 7.42 2.48 13.16
2/20/2023 12:45:00 PM 3.7 38.66 0.129 7.42 2.48 13.1
2/20/2023 1:00:00 PM 3.8 38.84 0.13 7.43 2.58 13.04
2/20/2023 1:15:00 PM 3.79 38.822 0.13 7.43 2.47 13.04
2/20/2023 1:30:00 PM 3.77 38.786 0.13 7.44 2.47 13.02
2/20/2023 1:45:00 PM 3.76 38.768 0.129 7.44 2.45 13.02
2/20/2023 2:00:00 PM 3.77 38.786 0.13 7.44 2.47 13.01
2/20/2023 2:15:00 PM 3.85 38.93 0.129 7.44 2.51 13.01
2/20/2023 2:30:00 PM 3.94 39.092 0.129 7.45 2.48 12.98
2/20/2023 2:45:00 PM 4.02 39.236 0.13 7.45 2.51 12.93
2/20/2023 3:00:00 PM 4.07 39.326 0.13 7.45 2.58 12.9
2/20/2023 3:15:00 PM 4.11 39.398 0.129 7.46 2.54 12.87
2/20/2023 3:30:00 PM 4.15 39.47 0.129 7.46 2.47 12.86
2/20/2023 3:45:00 PM 4.18 39.524 0.129 7.46 2.55 12.84
2/20/2023 4:00:00 PM 4.17 39.506 0.13 7.46 2.47 12.83
2/20/2023 4:15:00 PM 4.15 39.47 0.129 7.46 2.42 12.82
2/20/2023 4:30:00 PM 4.12 39.416 0.13 7.45 2.55 12.82
2/20/2023 4:45:00 PM 4.09 39.362 0.13 7.45 2.49 12.81
2/20/2023 5:00:00 PM 4.06 39.308 0.13 7.44 2.42 12.78
2/20/2023 5:15:00 PM 4.03 39.254 0.13 7.43 2.45 12.77
2/20/2023 5:30:00 PM 4 39.2 0.13 7.43 2.5 12.76
2/20/2023 5:45:00 PM 3.97 39.146 0.13 7.42 2.6 12.74
2/20/2023 6:00:00 PM 3.94 39.092 0.13 7.41 2.54 12.73
2/20/2023 6:15:00 PM 3.91 39.038 0.13 7.39 2.45 12.72
2/20/2023 6:30:00 PM 3.89 39.002 0.13 7.39 2.49 12.71
2/20/2023 6:45:00 PM 3.86 38.948 0.13 7.38 2.51 12.69
2/20/2023 7:00:00 PM 3.84 38.912 0.13 7.37 2.63 12.7
2/20/2023 7:15:00 PM 3.82 38.876 0.13 7.37 2.46 12.7
2/20/2023 7:30:00 PM 3.8 38.84 0.13 7.36 2.54 12.69
2/20/2023 7:45:00 PM 3.78 38.804 0.13 7.36 2.51 12.71
2/20/2023 8:00:00 PM 3.77 38.786 0.13 7.36 2.42 12.71
2/20/2023 8:15:00 PM 3.76 38.768 0.13 7.35 2.48 12.7
2/20/2023 8:30:00 PM 3.75 38.75 0.13 7.35 2.42 12.71
2/20/2023 8:45:00 PM 3.74 38.732 0.13 7.34 2.39 12.7
2/20/2023 9:00:00 PM 3.73 38.714 0.13 7.35 2.51 12.71
2/20/2023 9:15:00 PM 3.71 38.678 0.13 7.34 2.36 12.71
2/20/2023 9:30:00 PM 3.69 38.642 0.13 7.34 2.34 12.71
2/20/2023 9:45:00 PM 3.68 38.624 0.13 7.34 2.46 12.72
2/20/2023 10:00:00 PM 3.67 38.606 0.131 7.33 2.29 12.71
2/20/2023 10:15:00 PM 3.65 38.57 0.131 7.33 2.36 12.72
2/20/2023 10:30:00 PM 3.64 38.552 0.131 7.33 2.39 12.72
2/20/2023 10:45:00 PM 3.63 38.534 0.131 7.33 2.22 12.72
2/20/2023 11:00:00 PM 3.62 38.516 0.131 7.33 2.33 12.72
2/20/2023 11:15:00 PM 3.61 38.498 0.131 7.33 2.31 12.72
2/20/2023 11:30:00 PM 3.6 38.48 0.131 7.33 2.22 12.73
2/20/2023 11:45:00 PM 3.6 38.48 0.131 7.32 2.23 12.73
2/21/2023 12:00:00 AM 3.59 38.462 0.13 7.32 2.2 12.73
2/21/2023 12:15:00 AM 3.58 38.444 0.131 7.32 2.28 12.73
2/21/2023 12:30:00 AM 3.58 38.444 0.131 7.32 2.2 12.73
2/21/2023 12:45:00 AM 3.57 38.426 0.131 7.33 2.23 12.74
2/21/2023 1:00:00 AM 3.57 38.426 0.13 7.32 2.25 12.74
2/21/2023 1:15:00 AM 3.54 38.372 0.13 7.32 2.33 12.74
2/21/2023 1:30:00 AM 3.52 38.336 0.13 7.33 2.28 12.74
2/21/2023 1:45:00 AM 3.49 38.282 0.13 7.33 2.19 12.76
2/21/2023 2:00:00 AM 3.47 38.246 0.13 7.33 2.31 12.76
2/21/2023 2:15:00 AM 3.44 38.192 0.13 7.33 2.19 12.77
2/21/2023 2:30:00 AM 3.42 38.156 0.13 7.33 2.27 12.78
2/21/2023 2:45:00 AM 3.4 38.12 0.13 7.33 2.26 12.79
2/21/2023 3:00:00 AM 3.38 38.084 0.13 7.33 2.24 12.79
2/21/2023 3:15:00 AM 3.37 38.066 0.13 7.33 2.29 12.79
2/21/2023 3:30:00 AM 3.35 38.03 0.13 7.33 2.32 12.8
2/21/2023 3:45:00 AM 3.34 38.012 0.13 7.33 2.36 12.8
2/21/2023 4:00:00 AM 3.33 37.994 0.13 7.33 2.28 12.81
2/21/2023 4:15:00 AM 3.32 37.976 0.131 7.33 2.47 12.81
2/21/2023 4:30:00 AM 3.3 37.94 0.131 7.33 2.34 12.81
2/21/2023 4:45:00 AM 3.29 37.922 0.13 7.33 2.41 12.82
2/21/2023 5:00:00 AM 3.27 37.886 0.131 7.32 2.39 12.82
2/21/2023 5:15:00 AM 3.26 37.868 0.131 7.33 2.32 12.83
2/21/2023 5:30:00 AM 3.25 37.85 0.131 7.33 2.59 12.83
2/21/2023 5:45:00 AM 3.23 37.814 0.131 7.32 2.48 12.83
2/21/2023 6:00:00 AM 3.22 37.796 0.13 7.32 2.51 12.84
2/21/2023 6:15:00 AM 3.21 37.778 0.131 7.32 2.43 12.85
2/21/2023 6:30:00 AM 3.2 37.76 0.131 7.33 2.59 12.84
2/21/2023 6:45:00 AM 3.19 37.742 0.131 7.32 2.45 12.85
2/21/2023 7:00:00 AM 3.18 37.724 0.131 7.33 2.63 12.86
2/21/2023 7:15:00 AM 3.17 37.706 0.131 7.33 2.59 12.87
2/21/2023 7:30:00 AM 3.18 37.724 0.131 7.33 2.51 12.88
2/21/2023 7:45:00 AM 3.18 37.724 0.131 7.34 2.57 12.9
2/21/2023 8:00:00 AM 3.19 37.742 0.131 7.35 2.6 12.93
2/21/2023 8:15:00 AM 3.21 37.778 0.131 7.35 2.53 12.97
2/21/2023 8:30:00 AM 3.24 37.832 0.131 7.36 2.58 12.98
2/21/2023 8:45:00 AM 3.27 37.886 0.131 7.37 2.59 13
2/21/2023 9:00:00 AM 3.31 37.958 0.131 7.38 2.66 13.01
2/21/2023 9:15:00 AM 3.36 38.048 0.131 7.39 2.65 13.03
2/21/2023 9:30:00 AM 3.43 38.174 0.131 7.4 2.4 13.03
2/21/2023 9:45:00 AM 3.5 38.3 0.131 7.4 2.48 13.03
2/21/2023 10:00:00 AM 3.58 38.444 0.131 7.41 2.3 13.02
2/21/2023 10:15:00 AM 3.68 38.624 0.131 7.42 2.2 13
2/21/2023 10:30:00 AM 3.76 38.768 0.131 7.42 2.26 12.98
2/21/2023 10:45:00 AM 3.84 38.912 0.131 7.43 2.3 12.96
2/21/2023 11:00:00 AM 3.94 39.092 0.131 7.44 2.2 12.93
2/21/2023 11:15:00 AM 4.04 39.272 0.131 7.44 2.27 12.9
2/21/2023 11:30:00 AM 4.13 39.434 0.13 7.44 2.23 12.89
2/21/2023 11:45:00 AM 4.21 39.578 0.131 7.45 2.17 12.86
2/21/2023 12:00:00 PM 4.25 39.65 0.13 7.45 2.15 12.82
2/21/2023 12:15:00 PM 4.28 39.704 0.13 7.46 2.2 12.79
2/21/2023 12:30:00 PM 4.29 39.722 0.13 7.46 2.21 12.76
2/21/2023 12:45:00 PM 4.29 39.722 0.13 7.45 2.19 12.73
2/21/2023 1:00:00 PM 4.3 39.74 0.13 7.45 2.12 12.72
2/21/2023 1:15:00 PM 4.29 39.722 0.13 7.45 2.16 12.69
2/21/2023 1:30:00 PM 4.27 39.686 0.13 7.44 2.08 12.67
2/21/2023 1:45:00 PM 4.26 39.668 0.13 7.43 2.2 12.66
2/21/2023 2:00:00 PM 4.35 39.83 0.13 7.43 2.13 12.67
2/21/2023 2:15:00 PM 4.43 39.974 0.13 7.43 2.22 12.66
2/21/2023 2:30:00 PM 4.56 40.208 0.13 7.44 2.25 12.63
2/21/2023 2:45:00 PM 4.69 40.442 0.13 7.44 2.26 12.62
2/21/2023 3:00:00 PM 4.77 40.586 0.13 7.45 2.26 12.61
2/21/2023 3:15:00 PM 4.85 40.73 0.129 7.46 2.22 12.58
2/21/2023 3:30:00 PM 4.73 40.514 0.129 7.45 2.37 12.53
2/21/2023 3:45:00 PM 4.73 40.514 0.13 7.45 2.33 12.53
2/21/2023 4:00:00 PM 4.66 40.388 0.13 7.45 2.3 12.57
2/21/2023 4:15:00 PM 4.6 40.28 0.13 7.45 2.31 12.59
2/21/2023 4:30:00 PM 4.54 40.172 0.13 7.44 2.31 12.59
2/21/2023 4:45:00 PM 4.51 40.118 0.13 7.44 2.31 12.59
2/21/2023 5:00:00 PM 4.45 40.01 0.13 7.44 2.43 12.6
2/21/2023 5:15:00 PM 4.38 39.884 0.13 7.43 2.27 12.61
2/21/2023 5:30:00 PM 4.3 39.74 0.13 7.42 2.31 12.62
2/21/2023 5:45:00 PM 4.21 39.578 0.13 7.42 2.34 12.62
2/21/2023 6:00:00 PM 4.13 39.434 0.13 7.4 2.34 12.62
2/21/2023 6:15:00 PM 4.05 39.29 0.13 7.39 2.37 12.63
2/21/2023 6:30:00 PM 3.99 39.182 0.13 7.38 2.45 12.64
2/21/2023 6:45:00 PM 3.93 39.074 0.13 7.38 2.46 12.65
2/21/2023 7:00:00 PM 3.87 38.966 0.131 7.37 2.41 12.66
2/21/2023 7:15:00 PM 3.81 38.858 0.131 7.36 2.59 12.68
2/21/2023 7:30:00 PM 3.75 38.75 0.131 7.36 2.59 12.69
2/21/2023 7:45:00 PM 3.69 38.642 0.131 7.35 3.12 12.72
2/21/2023 8:00:00 PM 3.63 38.534 0.131 7.35 3.45 12.74
2/21/2023 8:15:00 PM 3.57 38.426 0.131 7.35 3.45 12.76
2/21/2023 8:30:00 PM 3.51 38.318 0.131 7.34 3.17 12.79
2/21/2023 8:45:00 PM 3.45 38.21 0.132 7.35 3.2 12.81
2/21/2023 9:00:00 PM 3.39 38.102 0.132 7.34 2.98 12.83
2/21/2023 9:15:00 PM 3.34 38.012 0.132 7.34 2.93 12.85
2/21/2023 9:30:00 PM 3.28 37.904 0.132 7.34 2.73 12.88
2/21/2023 9:45:00 PM 3.23 37.814 0.132 7.34 2.81 12.9
2/21/2023 10:00:00 PM 3.18 37.724 0.132 7.34 2.69 12.92
2/21/2023 10:15:00 PM 3.13 37.634 0.131 7.33 2.66 12.94
2/21/2023 10:30:00 PM 3.07 37.526 0.131 7.33 2.67 12.96
2/21/2023 10:45:00 PM 3.01 37.418 0.131 7.33 2.56 12.99
2/21/2023 11:00:00 PM 2.95 37.31 0.131 7.33 2.6 13.02
2/21/2023 11:15:00 PM 2.89 37.202 0.131 7.33 2.47 13.05
2/21/2023 11:30:00 PM 2.82 37.076 0.132 7.33 2.52 13.07
2/21/2023 11:45:00 PM 2.77 36.986 0.132 7.32 2.55 13.09
2/22/2023 12:00:00 AM 2.71 36.878 0.131 7.32 2.53 13.12
2/22/2023 12:15:00 AM 2.65 36.77 0.131 7.32 2.54 13.13
2/22/2023 12:30:00 AM 2.6 36.68 0.132 7.32 2.56 13.16
2/22/2023 12:45:00 AM 2.55 36.59 0.131 7.32 2.73 13.18
2/22/2023 1:00:00 AM 2.49 36.482 0.131 7.32 2.65 13.2
2/22/2023 1:15:00 AM 2.44 36.392 0.131 7.31 2.77 13.22
2/22/2023 1:30:00 AM 2.39 36.302 0.131 7.31 2.75 13.25
2/22/2023 1:45:00 AM 2.33 36.194 0.131 7.31 2.76 13.27
2/22/2023 2:00:00 AM 2.28 36.104 0.131 7.31 2.74 13.3
2/22/2023 2:15:00 AM 2.22 35.996 0.131 7.31 2.87 13.32
2/22/2023 2:30:00 AM 2.16 35.888 0.131 7.31 2.77 13.35
2/22/2023 2:45:00 AM 2.1 35.78 0.131 7.3 2.98 13.37
2/22/2023 3:00:00 AM 2.05 35.69 0.131 7.31 3.02 13.39
2/22/2023 3:15:00 AM 1.99 35.582 0.131 7.3 3.09 13.42
2/22/2023 3:30:00 AM 1.94 35.492 0.131 7.3 3.61 13.44
2/22/2023 3:45:00 AM 1.89 35.402 0.13 7.3 3.19 13.46
2/22/2023 4:00:00 AM 1.83 35.294 0.131 7.3 3.15 13.48
2/22/2023 4:15:00 AM 1.78 35.204 0.13 7.3 3.24 13.5
2/22/2023 4:30:00 AM 1.73 35.114 0.131 7.29 3.03 13.53
2/22/2023 4:45:00 AM 1.68 35.024 0.131 7.29 3.26 13.55
2/22/2023 5:00:00 AM 1.63 34.934 0.131 7.29 3.13 13.57
2/22/2023 5:15:00 AM 1.58 34.844 0.132 7.29 3.26 13.6
2/22/2023 5:30:00 AM 1.53 34.754 0.132 7.29 3.12 13.62
2/22/2023 5:45:00 AM 1.48 34.664 0.132 7.29 3.21 13.64
2/22/2023 6:00:00 AM 1.43 34.574 0.132 7.29 3.29 13.67
2/22/2023 6:15:00 AM 1.38 34.484 0.132 7.29 3.42 13.69
2/22/2023 6:30:00 AM 1.33 34.394 0.132 7.29 3.08 13.71
2/22/2023 6:45:00 AM 1.29 34.322 0.133 7.29 3.5 13.73
2/22/2023 7:00:00 AM 1.24 34.232 0.133 7.29 3.18 13.76
2/22/2023 7:15:00 AM 1.21 34.178 0.133 7.29 3.17 13.8
2/22/2023 7:30:00 AM 1.18 34.124 0.133 7.29 3.32 13.84
2/22/2023 7:45:00 AM 1.17 34.106 0.133 7.3 3.17 13.87
2/22/2023 8:00:00 AM 1.17 34.106 0.133 7.31 3.29 13.91
2/22/2023 8:15:00 AM 1.19 34.142 0.133 7.31 3.38 13.95
2/22/2023 8:30:00 AM 1.22 34.196 0.133 7.32 3.55 13.97
2/22/2023 8:45:00 AM 1.25 34.25 0.133 7.33 3.48 13.97
2/22/2023 9:00:00 AM 1.26 34.268 0.132 7.33 3.55 13.97
2/22/2023 9:15:00 AM 1.28 34.304 0.132 7.33 3.49 13.96
2/22/2023 9:30:00 AM 1.29 34.322 0.132 7.34 3.56 13.97
2/22/2023 9:45:00 AM 1.3 34.34 0.132 7.34 3.32 13.98
2/22/2023 10:00:00 AM 1.34 34.412 0.132 7.34 3.34 13.99
2/22/2023 10:15:00 AM 1.4 34.52 0.132 7.35 3.36 13.99
2/22/2023 10:30:00 AM 1.46 34.628 0.132 7.35 3.25 13.98
2/22/2023 10:45:00 AM 1.52 34.736 0.131 7.36 3.12 13.97
2/22/2023 11:00:00 AM 1.57 34.826 0.131 7.37 3.12 13.96
2/22/2023 11:15:00 AM 1.6 34.88 0.131 7.37 3.08 13.95
2/22/2023 11:30:00 AM 1.63 34.934 0.131 7.37 2.94 13.94
2/22/2023 11:45:00 AM 1.65 34.97 0.131 7.37 3.01 13.93
2/22/2023 12:00:00 PM 1.66 34.988 0.131 7.38 2.94 13.92
2/22/2023 12:15:00 PM 1.66 34.988 0.13 7.38 3.13 13.91
2/22/2023 12:30:00 PM 1.64 34.952 0.13 7.38 2.83 13.92
2/22/2023 12:45:00 PM 1.61 34.898 0.13 7.38 2.88 13.91
2/22/2023 1:00:00 PM 1.55 34.79 0.129 7.38 2.86 13.9
2/22/2023 1:15:00 PM 1.47 34.646 0.129 7.38 2.92 13.91
2/22/2023 1:30:00 PM 1.44 34.592 0.129 7.38 2.69 13.92
2/22/2023 1:45:00 PM 1.38 34.484 0.129 7.38 2.82 13.93
2/22/2023 2:00:00 PM 1.26 34.268 0.128 7.38 3.02 13.95
2/22/2023 2:15:00 PM 1.04 33.872 0.128 7.38 2.86 13.97
2/22/2023 2:30:00 PM 1 33.8 0.129 7.38 2.91 13.99
2/22/2023 2:45:00 PM 0.89 33.602 0.128 7.38 2.91 14.04
2/22/2023 3:00:00 PM 0.83 33.494 0.128 7.37 3.11 14.06
2/22/2023 3:15:00 PM 0.7 33.26 0.128 7.36 3.03 14.11
2/22/2023 3:30:00 PM 0.66 33.188 0.128 7.36 2.95 14.13
2/22/2023 3:45:00 PM 0.55 32.99 0.128 7.36 3.24 14.15
2/22/2023 4:00:00 PM 0.56 33.008 0.128 7.35 3.14 14.17
2/22/2023 4:15:00 PM 0.55 32.99 0.128 7.35 3.26 14.19
2/22/2023 4:30:00 PM 0.56 33.008 0.128 7.34 3.21 14.18
2/22/2023 4:45:00 PM 0.58 33.044 0.128 7.34 3.11 14.17
2/22/2023 5:00:00 PM 0.6 33.08 0.129 7.33 3.21 14.16
2/22/2023 5:15:00 PM 0.63 33.134 0.129 7.33 3.14 14.13
2/22/2023 5:30:00 PM 0.66 33.188 0.13 7.33 3.32 14.1
2/22/2023 5:45:00 PM 0.69 33.242 0.13 7.32 3.61 14.08
2/22/2023 6:00:00 PM 0.73 33.314 0.13 7.32 3.25 14.05
2/22/2023 6:15:00 PM 0.77 33.386 0.131 7.31 3.57 14.02
2/22/2023 6:30:00 PM 0.81 33.458 0.131 7.31 3.41 13.99
2/22/2023 6:45:00 PM 0.85 33.53 0.132 7.31 3.62 13.97
2/22/2023 7:00:00 PM 0.89 33.602 0.132 7.3 3.73 13.95
2/22/2023 7:15:00 PM 0.93 33.674 0.132 7.3 3.96 13.93
2/22/2023 7:30:00 PM 0.96 33.728 0.132 7.3 4.01 13.91
2/22/2023 7:45:00 PM 1 33.8 0.133 7.3 4.13 13.88
2/22/2023 8:00:00 PM 1.03 33.854 0.133 7.3 4.18 13.86
2/22/2023 8:15:00 PM 1.06 33.908 0.133 7.3 4.34 13.85
2/22/2023 8:30:00 PM 1.09 33.962 0.134 7.3 4.24 13.83
2/22/2023 8:45:00 PM 1.12 34.016 0.134 7.3 4.62 13.82
2/22/2023 9:00:00 PM 1.14 34.052 0.133 7.3 4.56 13.81
2/22/2023 9:15:00 PM 1.15 34.07 0.134 7.3 4.34 13.8
2/22/2023 9:30:00 PM 1.16 34.088 0.133 7.3 4.38 13.79
2/22/2023 9:45:00 PM 1.17 34.106 0.134 7.3 4.36 13.79
2/22/2023 10:00:00 PM 1.17 34.106 0.133 7.3 4.24 13.78
2/22/2023 10:15:00 PM 1.17 34.106 0.133 7.3 4.17 13.78
2/22/2023 10:30:00 PM 1.17 34.106 0.133 7.3 4.31 13.77
2/22/2023 10:45:00 PM 1.18 34.124 0.133 7.3 4.38 13.77
2/22/2023 11:00:00 PM 1.19 34.142 0.134 7.3 4.18 13.76
2/22/2023 11:15:00 PM 1.19 34.142 0.134 7.3 4.3 13.76
2/22/2023 11:30:00 PM 1.2 34.16 0.134 7.3 3.83 13.75
2/22/2023 11:45:00 PM 1.21 34.178 0.134 7.3 3.9 13.74
2/23/2023 12:00:00 AM 1.21 34.178 0.134 7.3 3.78 13.73
2/23/2023 12:15:00 AM 1.22 34.196 0.134 7.3 3.66 13.73
2/23/2023 12:30:00 AM 1.22 34.196 0.133 7.3 3.47 13.73
2/23/2023 12:45:00 AM 1.23 34.214 0.133 7.3 3.56 13.73
2/23/2023 1:00:00 AM 1.23 34.214 0.133 7.29 3.31 13.73
2/23/2023 1:15:00 AM 1.23 34.214 0.133 7.29 3.24 13.72
2/23/2023 1:30:00 AM 1.24 34.232 0.133 7.29 2.99 13.71
2/23/2023 1:45:00 AM 1.24 34.232 0.133 7.29 3.17 13.71
2/23/2023 2:00:00 AM 1.25 34.25 0.133 7.29 3.07 13.7
2/23/2023 2:15:00 AM 1.26 34.268 0.133 7.29 3 13.7
2/23/2023 2:30:00 AM 1.28 34.304 0.133 7.29 3 13.69
2/23/2023 2:45:00 AM 1.29 34.322 0.133 7.29 2.94 13.68
2/23/2023 3:00:00 AM 1.3 34.34 0.133 7.29 2.87 13.67
2/23/2023 3:15:00 AM 1.31 34.358 0.133 7.29 2.79 13.66
2/23/2023 3:30:00 AM 1.33 34.394 0.133 7.29 2.81 13.65
2/23/2023 3:45:00 AM 1.34 34.412 0.133 7.29 2.79 13.64
2/23/2023 4:00:00 AM 1.36 34.448 0.134 7.29 2.85 13.64
2/23/2023 4:15:00 AM 1.38 34.484 0.134 7.3 2.84 13.63
2/23/2023 4:30:00 AM 1.39 34.502 0.134 7.29 2.75 13.61
2/23/2023 4:45:00 AM 1.41 34.538 0.134 7.29 2.74 13.61
2/23/2023 5:00:00 AM 1.43 34.574 0.134 7.29 2.62 13.6
2/23/2023 5:15:00 AM 1.45 34.61 0.134 7.29 2.7 13.6
2/23/2023 5:30:00 AM 1.47 34.646 0.134 7.29 2.78 13.59
2/23/2023 5:45:00 AM 1.48 34.664 0.134 7.29 2.69 13.59
2/23/2023 6:00:00 AM 1.49 34.682 0.134 7.3 2.64 13.58
2/23/2023 6:15:00 AM 1.5 34.7 0.134 7.29 2.61 13.58
2/23/2023 6:30:00 AM 1.51 34.718 0.134 7.29 2.58 13.57
2/23/2023 6:45:00 AM 1.52 34.736 0.134 7.29 2.54 13.57
2/23/2023 7:00:00 AM 1.54 34.772 0.134 7.29 2.65 13.57
2/23/2023 7:15:00 AM 1.56 34.808 0.134 7.3 2.53 13.57
2/23/2023 7:30:00 AM 1.57 34.826 0.135 7.3 2.58 13.57
2/23/2023 7:45:00 AM 1.59 34.862 0.134 7.3 2.74 13.58
2/23/2023 8:00:00 AM 1.61 34.898 0.135 7.3 2.74 13.59
2/23/2023 8:15:00 AM 1.64 34.952 0.134 7.31 2.8 13.62
2/23/2023 8:30:00 AM 1.68 35.024 0.134 7.32 2.59 13.64
2/23/2023 8:45:00 AM 1.72 35.096 0.134 7.32 2.64 13.65
2/23/2023 9:00:00 AM 1.76 35.168 0.134 7.33 2.69 13.65
2/23/2023 9:15:00 AM 1.79 35.222 0.134 7.34 2.71 13.65
2/23/2023 9:30:00 AM 1.82 35.276 0.135 7.34 2.54 13.65
2/23/2023 9:45:00 AM 1.85 35.33 0.134 7.34 2.66 13.65
2/23/2023 10:00:00 AM 1.89 35.402 0.134 7.35 2.63 13.65
2/23/2023 10:15:00 AM 1.93 35.474 0.135 7.35 2.57 13.65
2/23/2023 10:30:00 AM 1.97 35.546 0.134 7.36 2.64 13.65
2/23/2023 10:45:00 AM 2.02 35.636 0.134 7.36 2.62 13.64
2/23/2023 11:00:00 AM 2.07 35.726 0.135 7.36 2.57 13.64
2/23/2023 11:15:00 AM 2.12 35.816 0.134 7.37 2.44 13.63
2/23/2023 11:30:00 AM 2.18 35.924 0.134 7.37 2.54 13.62
2/23/2023 11:45:00 AM 2.24 36.032 0.135 7.38 2.51 13.61
2/23/2023 12:00:00 PM 2.3 36.14 0.135 7.38 2.56 13.61
2/23/2023 12:15:00 PM 2.36 36.248 0.134 7.39 2.55 13.59
2/23/2023 12:30:00 PM 2.43 36.374 0.134 7.39 2.63 13.57
2/23/2023 12:45:00 PM 2.49 36.482 0.134 7.4 2.6 13.55
2/23/2023 1:00:00 PM 2.54 36.572 0.134 7.39 2.51 13.54
2/23/2023 1:15:00 PM 2.6 36.68 0.134 7.4 2.53 13.53
2/23/2023 1:30:00 PM 2.69 36.842 0.134 7.4 2.47 13.51
2/23/2023 1:45:00 PM 2.76 36.968 0.134 7.41 2.47 13.48
2/23/2023 2:00:00 PM 2.86 37.148 0.134 7.41 2.43 13.46
2/23/2023 2:15:00 PM 2.95 37.31 0.134 7.42 2.61 13.43
2/23/2023 2:30:00 PM 3.03 37.454 0.134 7.42 2.49 13.4
2/23/2023 2:45:00 PM 3.15 37.67 0.136 7.42 2.6 13.37
2/23/2023 3:00:00 PM 3.23 37.814 0.137 7.42 2.58 13.34
2/23/2023 3:15:00 PM 3.28 37.904 0.137 7.43 2.51 13.31
2/23/2023 3:30:00 PM 3.33 37.994 0.138 7.43 2.75 13.27
2/23/2023 3:45:00 PM 3.39 38.102 0.139 7.42 2.64 13.24
2/23/2023 4:00:00 PM 3.42 38.156 0.138 7.43 2.6 13.21
2/23/2023 4:15:00 PM 3.43 38.174 0.138 7.42 2.65 13.18
2/23/2023 4:30:00 PM 3.44 38.192 0.138 7.42 2.86 13.16
2/23/2023 4:45:00 PM 3.43 38.174 0.137 7.42 2.78 13.13
2/23/2023 5:00:00 PM 3.42 38.156 0.137 7.41 2.74 13.11
2/23/2023 5:15:00 PM 3.4 38.12 0.137 7.41 2.84 13.09
2/23/2023 5:30:00 PM 3.39 38.102 0.136 7.4 3.06 13.07
2/23/2023 5:45:00 PM 3.36 38.048 0.136 7.39 3.17 13.05
2/23/2023 6:00:00 PM 3.32 37.976 0.136 7.38 3.29 13.03
2/23/2023 6:15:00 PM 3.28 37.904 0.136 7.37 3.43 13.02
2/23/2023 6:30:00 PM 3.25 37.85 0.136 7.36 3.38 13.01
2/23/2023 6:45:00 PM 3.22 37.796 0.136 7.35 3.44 13
2/23/2023 7:00:00 PM 3.21 37.778 0.136 7.35 3.9 13
2/23/2023 7:15:00 PM 3.19 37.742 0.136 7.34 3.61 12.99
2/23/2023 7:30:00 PM 3.18 37.724 0.136 7.33 3.29 12.98
2/23/2023 7:45:00 PM 3.17 37.706 0.136 7.33 3.54 12.99
2/23/2023 8:00:00 PM 3.17 37.706 0.137 7.33 3.68 12.98
2/23/2023 8:15:00 PM 3.17 37.706 0.137 7.33 3.63 12.97
2/23/2023 8:30:00 PM 3.18 37.724 0.137 7.33 3.82 12.96
2/23/2023 8:45:00 PM 3.19 37.742 0.137 7.33 3.76 12.95
2/23/2023 9:00:00 PM 3.21 37.778 0.138 7.33 3.97 12.95
2/23/2023 9:15:00 PM 3.26 37.868 0.138 7.33 3.86 12.94
2/23/2023 9:30:00 PM 3.32 37.976 0.138 7.33 4.18 12.93
2/23/2023 9:45:00 PM 3.37 38.066 0.138 7.33 4.18 12.92
2/23/2023 10:00:00 PM 3.39 38.102 0.138 7.33 4.52 12.92
2/23/2023 10:15:00 PM 3.42 38.156 0.138 7.34 4.62 12.91
2/23/2023 10:30:00 PM 3.42 38.156 0.138 7.34 4.62 12.91
2/23/2023 10:45:00 PM 3.41 38.138 0.138 7.33 4.78 12.92
2/23/2023 11:00:00 PM 3.41 38.138 0.137 7.33 4.87 12.91
2/23/2023 11:15:00 PM 3.43 38.174 0.137 7.33 5.06 12.9
2/23/2023 11:30:00 PM 3.44 38.192 0.137 7.33 5.33 12.9
2/23/2023 11:45:00 PM 3.47 38.246 0.136 7.32 5.23 12.9
2/24/2023 12:00:00 AM 3.49 38.282 0.137 7.33 5.61 12.88
2/24/2023 12:15:00 AM 3.51 38.318 0.136 7.32 5.26 12.88
2/24/2023 12:30:00 AM 3.52 38.336 0.137 7.32 5.56 12.88
2/24/2023 12:45:00 AM 3.52 38.336 0.137 7.32 5.76 12.89
2/24/2023 1:00:00 AM 3.52 38.336 0.138 7.32 5.69 12.89
2/24/2023 1:15:00 AM 3.5 38.3 0.139 7.32 5.84 12.91
2/24/2023 1:30:00 AM 3.49 38.282 0.139 7.32 5.57 12.92
2/24/2023 1:45:00 AM 3.48 38.264 0.141 7.33 6.17 12.93
2/24/2023 2:00:00 AM 3.46 38.228 0.142 7.33 5.97 12.93
2/24/2023 2:15:00 AM 3.43 38.174 0.143 7.33 6.09 12.94
2/24/2023 2:30:00 AM 3.4 38.12 0.144 7.33 6.21 12.96
2/24/2023 2:45:00 AM 3.35 38.03 0.146 7.33 6.42 12.97
2/24/2023 3:00:00 AM 3.3 37.94 0.147 7.33 6.88 12.99
2/24/2023 3:15:00 AM 3.27 37.886 0.148 7.32 6.88 13.01
2/24/2023 3:30:00 AM 3.25 37.85 0.148 7.32 6.98 13.02
2/24/2023 3:45:00 AM 3.23 37.814 0.148 7.32 7.23 13.03
2/24/2023 4:00:00 AM 3.21 37.778 0.148 7.32 7.11 13.04
2/24/2023 4:15:00 AM 3.18 37.724 0.148 7.32 7.32 13.05
2/24/2023 4:30:00 AM 3.14 37.652 0.147 7.32 7.46 13.06
2/24/2023 4:45:00 AM 3.12 37.616 0.147 7.32 7.81 13.07
2/24/2023 5:00:00 AM 3.09 37.562 0.146 7.31 7.7 13.08
2/24/2023 5:15:00 AM 3.05 37.49 0.145 7.32 7.41 13.09
2/24/2023 5:30:00 AM 3.01 37.418 0.144 7.32 7.66 13.11
2/24/2023 5:45:00 AM 2.97 37.346 0.143 7.32 8.19 13.12
2/24/2023 6:00:00 AM 2.93 37.274 0.142 7.32 8.12 13.15
2/24/2023 6:15:00 AM 2.9 37.22 0.142 7.32 8.04 13.16
2/24/2023 6:30:00 AM 2.87 37.166 0.141 7.32 7.98 13.17
2/24/2023 6:45:00 AM 2.84 37.112 0.14 7.32 8.15 13.19
2/24/2023 7:00:00 AM 2.81 37.058 0.139 7.32 8.03 13.22
2/24/2023 7:15:00 AM 2.77 36.986 0.138 7.32 7.76 13.23
2/24/2023 7:30:00 AM 2.73 36.914 0.138 7.32 8.7 13.25
2/24/2023 7:45:00 AM 2.71 36.878 0.138 7.32 8.22 13.28
2/24/2023 8:00:00 AM 2.68 36.824 0.137 7.32 8.3 13.32
2/24/2023 8:15:00 AM 2.66 36.788 0.137 7.33 8.58 13.34
2/24/2023 8:30:00 AM 2.66 36.788 0.136 7.33 7.39 13.38
2/24/2023 8:45:00 AM 2.66 36.788 0.136 7.34 7.42 13.41
2/24/2023 9:00:00 AM 2.66 36.788 0.136 7.34 7.47 13.43
2/24/2023 9:15:00 AM 2.64 36.752 0.136 7.35 7.64 13.44
2/24/2023 9:30:00 AM 2.63 36.734 0.136 7.35 7.9 13.46
2/24/2023 9:45:00 AM 2.64 36.752 0.136 7.35 8.03 13.48
2/24/2023 10:00:00 AM 2.62 36.716 0.136 7.36 7.89 13.49
2/24/2023 10:15:00 AM 2.63 36.734 0.136 7.36 7.03 13.51
2/24/2023 10:30:00 AM 2.67 36.806 0.136 7.36 7.37 13.52
2/24/2023 10:45:00 AM 2.68 36.824 0.136 7.36 7.7 13.54
2/24/2023 11:00:00 AM 2.64 36.752 0.136 7.37 7.58 13.55
2/24/2023 11:15:00 AM 2.67 36.806 0.136 7.37 7.95 13.56
2/24/2023 11:30:00 AM 2.71 36.878 0.136 7.37 7.06 13.56
2/24/2023 11:45:00 AM 2.73 36.914 0.136 7.37 7.6 13.57
2/24/2023 12:00:00 PM 2.79 37.022 0.136 7.38 7.11 13.57
2/24/2023 12:15:00 PM 2.81 37.058 0.135 7.38 6.95 13.57
2/24/2023 12:30:00 PM 2.85 37.13 0.135 7.38 7.21 13.57
2/24/2023 12:45:00 PM 2.84 37.112 0.135 7.38 7.28 13.56
2/24/2023 1:00:00 PM 2.93 37.274 0.135 7.39 6.77 13.56
2/24/2023 1:15:00 PM 2.93 37.274 0.134 7.39 7.29 13.55
2/24/2023 1:30:00 PM 2.96 37.328 0.134 7.39 6.95 13.54
2/24/2023 1:45:00 PM 2.97 37.346 0.134 7.39 7.27 13.54
2/24/2023 2:00:00 PM 3 37.4 0.134 7.39 6.52 13.53
2/24/2023 2:15:00 PM 3.02 37.436 0.133 7.39 6.57 13.52
2/24/2023 2:30:00 PM 3.04 37.472 0.133 7.39 6.8 13.51
2/24/2023 2:45:00 PM 3.04 37.472 0.134 7.39 6.71 13.5
2/24/2023 3:00:00 PM 3.07 37.526 0.133 7.39 6.21 13.49
2/24/2023 3:15:00 PM 3.1 37.58 0.134 7.39 6.55 13.49
2/24/2023 3:30:00 PM 3.06 37.508 0.134 7.39 6.53 13.48
2/24/2023 3:45:00 PM 2.99 37.382 0.134 7.39 6.29 13.49
2/24/2023 4:00:00 PM 2.95 37.31 0.134 7.38 6.37 13.5
2/24/2023 4:15:00 PM 2.9 37.22 0.135 7.38 6.61 13.5
2/24/2023 4:30:00 PM 2.84 37.112 0.135 7.38 6 13.51
2/24/2023 4:45:00 PM 2.79 37.022 0.136 7.37 6.59 13.5
2/24/2023 5:00:00 PM 2.71 36.878 0.136 7.37 6.68 13.51
2/24/2023 5:15:00 PM 2.66 36.788 0.137 7.36 6.03 13.52
2/24/2023 5:30:00 PM 2.62 36.716 0.137 7.36 6.9 13.51
2/24/2023 5:45:00 PM 2.57 36.626 0.137 7.35 6.52 13.51
2/24/2023 6:00:00 PM 2.53 36.554 0.138 7.34 6.29 13.5
2/24/2023 6:15:00 PM 2.5 36.5 0.138 7.33 6.03 13.51
2/24/2023 6:30:00 PM 2.46 36.428 0.139 7.33 6.52 13.51
2/24/2023 6:45:00 PM 2.42 36.356 0.139 7.32 6.61 13.51
2/24/2023 7:00:00 PM 2.37 36.266 0.14 7.32 6.47 13.52
2/24/2023 7:15:00 PM 2.33 36.194 0.14 7.31 6.52 13.53
2/24/2023 7:30:00 PM 2.28 36.104 0.14 7.31 6.68 13.55
2/24/2023 7:45:00 PM 2.24 36.032 0.141 7.31 6.79 13.57
2/24/2023 8:00:00 PM 2.17 35.906 0.14 7.31 6.51 13.58
2/24/2023 8:15:00 PM 2.11 35.798 0.141 7.3 6.3 13.6
2/24/2023 8:30:00 PM 2.06 35.708 0.141 7.3 6.32 13.63
2/24/2023 8:45:00 PM 1.97 35.546 0.141 7.3 6.25 13.66
2/24/2023 9:00:00 PM 1.91 35.438 0.14 7.29 6.32 13.69
2/24/2023 9:15:00 PM 1.84 35.312 0.14 7.29 6.08 13.71
2/24/2023 9:30:00 PM 1.77 35.186 0.14 7.29 5.92 13.74
2/24/2023 9:45:00 PM 1.68 35.024 0.14 7.29 6.01 13.77
2/24/2023 10:00:00 PM 1.62 34.916 0.14 7.29 5.65 13.8
2/24/2023 10:15:00 PM 1.54 34.772 0.14 7.28 5.83 13.83
2/24/2023 10:30:00 PM 1.46 34.628 0.139 7.28 5.71 13.86
2/24/2023 10:45:00 PM 1.39 34.502 0.139 7.28 5.8 13.89
2/24/2023 11:00:00 PM 1.31 34.358 0.139 7.28 5.53 13.92
2/24/2023 11:15:00 PM 1.23 34.214 0.138 7.27 5.91 13.94
2/24/2023 11:30:00 PM 1.17 34.106 0.138 7.27 5.46 13.98
2/24/2023 11:45:00 PM 1.09 33.962 0.138 7.27 5.5 14.01
2/25/2023 12:00:00 AM 1.03 33.854 0.139 7.27 5.15 14.03
2/25/2023 12:15:00 AM 0.96 33.728 0.138 7.26 5.41 14.06
2/25/2023 12:30:00 AM 0.9 33.62 0.138 7.26 5.65 14.08
2/25/2023 12:45:00 AM 0.84 33.512 0.138 7.25 5.54 14.1
2/25/2023 1:00:00 AM 0.8 33.44 0.138 7.24 5.37 14.12
2/25/2023 1:15:00 AM 0.75 33.35 0.138 7.25 5.43 14.14
2/25/2023 1:30:00 AM 0.71 33.278 0.138 7.24 5.35 14.16
2/25/2023 1:45:00 AM 0.68 33.224 0.138 7.24 5.51 14.17
2/25/2023 2:00:00 AM 0.65 33.17 0.138 7.24 5.36 14.19
2/25/2023 2:15:00 AM 0.62 33.116 0.138 7.24 5.34 14.19
2/25/2023 2:30:00 AM 0.6 33.08 0.138 7.24 5.51 14.21
2/25/2023 2:45:00 AM 0.56 33.008 0.138 7.24 5.27 14.22
2/25/2023 3:00:00 AM 0.53 32.954 0.138 7.24 5.33 14.23
2/25/2023 3:15:00 AM 0.49 32.882 0.138 7.24 5.29 14.25
2/25/2023 3:30:00 AM 0.45 32.81 0.138 7.24 5.5 14.26
2/25/2023 3:45:00 AM 0.43 32.774 0.138 7.24 5.18 14.28
2/25/2023 4:00:00 AM 0.38 32.684 0.139 7.24 5.3 14.29
2/25/2023 4:15:00 AM 0.34 32.612 0.139 7.24 5.19 14.31
2/25/2023 4:30:00 AM 0.3 32.54 0.139 7.24 4.91 14.32
2/25/2023 4:45:00 AM 0.26 32.468 0.139 7.24 5.23 14.33
2/25/2023 5:00:00 AM 0.22 32.396 0.139 7.23 5.09 14.35
2/25/2023 5:15:00 AM 0.19 32.342 0.139 7.23 5.35 14.37
2/25/2023 5:30:00 AM 0.15 32.27 0.139 7.23 5.52 14.38
2/25/2023 5:45:00 AM 0.12 32.216 0.139 7.23 5.28 14.39
2/25/2023 6:00:00 AM 0.09 32.162 0.14 7.23 5.46 14.4
2/25/2023 6:15:00 AM 0.07 32.126 0.139 7.23 5.27 14.41
2/25/2023 6:30:00 AM 0.05 32.09 0.14 7.23 5.31 14.42
2/25/2023 6:45:00 AM 0.02 32.036 0.14 7.23 5.6 14.43
2/25/2023 7:00:00 AM 0 32 0.14 7.24 5.11 14.45
2/25/2023 7:15:00 AM -0.02 31.964 0.14 7.24 5.32 14.47
2/25/2023 7:30:00 AM -0.04 31.928 0.14 7.24 5.12 14.48
2/25/2023 7:45:00 AM -0.06 31.892 0.14 7.24 5.1 14.51
2/25/2023 8:00:00 AM -0.07 31.874 0.14 7.24 5.09 14.54
2/25/2023 8:15:00 AM -0.06 31.892 0.141 7.25 5.33 14.55
2/25/2023 8:30:00 AM -0.06 31.892 0.141 7.26 5.83 14.57
2/25/2023 8:45:00 AM -0.06 31.892 0.141 7.26 5.47 14.58
2/25/2023 9:00:00 AM -0.05 31.91 0.141 7.27 5.75 14.6
2/25/2023 9:15:00 AM -0.05 31.91 0.141 7.27 5.16 14.62
2/25/2023 9:30:00 AM -0.05 31.91 0.141 7.28 5.39 14.63
2/25/2023 9:45:00 AM -0.05 31.91 0.141 7.28 5.22 14.64
2/25/2023 10:00:00 AM -0.05 31.91 0.141 7.29 5.11 14.65
2/25/2023 10:15:00 AM -0.05 31.91 0.141 7.29 5.47 14.65
2/25/2023 10:30:00 AM -0.05 31.91 0.141 7.3 5.24 14.66
2/25/2023 10:45:00 AM -0.05 31.91 0.141 7.3 5.2 14.67
2/25/2023 11:00:00 AM -0.05 31.91 0.141 7.3 5.16 14.67
2/25/2023 11:15:00 AM -0.04 31.928 0.141 7.31 5.19 14.68
2/25/2023 11:30:00 AM 0.02 32.036 0.141 7.31 5.08 14.67
2/25/2023 11:45:00 AM 0.09 32.162 0.141 7.32 4.94 14.65
2/25/2023 12:00:00 PM 0.15 32.27 0.141 7.32 5.16 14.63
2/25/2023 12:15:00 PM 0.23 32.414 0.141 7.33 4.91 14.61
2/25/2023 12:30:00 PM 0.3 32.54 0.141 7.33 4.87 14.58
2/25/2023 12:45:00 PM 0.42 32.756 0.141 7.33 4.97 14.56
2/25/2023 1:00:00 PM 0.54 32.972 0.141 7.33 4.77 14.52
2/25/2023 1:15:00 PM 0.63 33.134 0.141 7.34 4.95 14.47
2/25/2023 1:30:00 PM 0.71 33.278 0.141 7.34 4.72 14.43
2/25/2023 1:45:00 PM 0.77 33.386 0.141 7.35 4.68 14.4
2/25/2023 2:00:00 PM 0.84 33.512 0.141 7.35 4.37 14.36
2/25/2023 2:15:00 PM 0.91 33.638 0.141 7.35 4.5 14.33
2/25/2023 2:30:00 PM 0.97 33.746 0.142 7.36 4.52 14.3
2/25/2023 2:45:00 PM 1.03 33.854 0.142 7.36 4.47 14.26
2/25/2023 3:00:00 PM 1.07 33.926 0.142 7.36 4.6 14.23
2/25/2023 3:15:00 PM 1.12 34.016 0.141 7.36 4.56 14.21
2/25/2023 3:30:00 PM 1.16 34.088 0.141 7.37 4.56 14.17
2/25/2023 3:45:00 PM 1.19 34.142 0.141 7.37 4.42 14.15
2/25/2023 4:00:00 PM 1.22 34.196 0.142 7.37 4.64 14.14
2/25/2023 4:15:00 PM 1.26 34.268 0.141 7.37 4.45 14.12
2/25/2023 4:30:00 PM 1.26 34.268 0.141 7.38 4.63 14.1
2/25/2023 4:45:00 PM 1.25 34.25 0.142 7.37 4.28 14.1
2/25/2023 5:00:00 PM 1.22 34.196 0.142 7.37 4.64 14.09
2/25/2023 5:15:00 PM 1.22 34.196 0.142 7.37 4.46 14.06
2/25/2023 5:30:00 PM 1.19 34.142 0.142 7.36 4.24 14.04
2/25/2023 5:45:00 PM 1.16 34.088 0.142 7.36 4.49 14.02
2/25/2023 6:00:00 PM 1.12 34.016 0.142 7.35 4.21 14
2/25/2023 6:15:00 PM 1.07 33.926 0.143 7.34 4.37 13.99
2/25/2023 6:30:00 PM 1.02 33.836 0.143 7.33 4.38 13.99
2/25/2023 6:45:00 PM 0.97 33.746 0.143 7.32 4.15 13.99
2/25/2023 7:00:00 PM 0.93 33.674 0.143 7.32 4.14 13.99
2/25/2023 7:15:00 PM 0.89 33.602 0.143 7.31 4.07 13.99
2/25/2023 7:30:00 PM 0.86 33.548 0.143 7.31 4.15 13.99
2/25/2023 7:45:00 PM 0.84 33.512 0.143 7.3 4.16 14
2/25/2023 8:00:00 PM 0.82 33.476 0.144 7.3 4.14 14
2/25/2023 8:15:00 PM 0.79 33.422 0.144 7.3 4.11 14
2/25/2023 8:30:00 PM 0.77 33.386 0.144 7.3 3.97 14
2/25/2023 8:45:00 PM 0.75 33.35 0.144 7.29 4.17 14
2/25/2023 9:00:00 PM 0.71 33.278 0.144 7.29 4 14.01
2/25/2023 9:15:00 PM 0.68 33.224 0.144 7.29 4 14.02
2/25/2023 9:30:00 PM 0.63 33.134 0.144 7.29 4.08 14.03
2/25/2023 9:45:00 PM 0.59 33.062 0.144 7.29 4.05 14.04
2/25/2023 10:00:00 PM 0.54 32.972 0.144 7.28 4.03 14.06
2/25/2023 10:15:00 PM 0.49 32.882 0.145 7.28 3.95 14.07
2/25/2023 10:30:00 PM 0.44 32.792 0.145 7.28 3.97 14.1
2/25/2023 10:45:00 PM 0.39 32.702 0.145 7.28 4.05 14.11
2/25/2023 11:00:00 PM 0.34 32.612 0.145 7.28 3.88 14.13
2/25/2023 11:15:00 PM 0.29 32.522 0.145 7.27 4.06 14.15
2/25/2023 11:30:00 PM 0.24 32.432 0.145 7.27 3.85 14.16
2/25/2023 11:45:00 PM 0.19 32.342 0.145 7.27 3.82 14.19
2/26/2023 12:00:00 AM 0.14 32.252 0.145 7.27 3.97 14.2
2/26/2023 12:15:00 AM 0.08 32.144 0.145 7.27 3.68 14.22
2/26/2023 12:30:00 AM 0.03 32.054 0.145 7.27 3.81 14.24
2/26/2023 12:45:00 AM -0.03 31.946 0.145 7.27 3.67 14.26
2/26/2023 1:00:00 AM -0.08 31.856 0.145 7.27 3.64 14.28
2/26/2023 1:15:00 AM -0.09 31.838 0.145 7.27 3.73 14.31
2/26/2023 1:30:00 AM -0.07 31.874 0.146 7.27 4.19 14.32
2/26/2023 1:45:00 AM -0.06 31.892 0.146 7.27 4.05 14.33
2/26/2023 2:00:00 AM -0.06 31.892 0.145 7.26 3.97 14.33
2/26/2023 2:15:00 AM -0.06 31.892 0.146 7.26 4.36 14.34
2/26/2023 2:30:00 AM -0.05 31.91 0.146 7.26 3.99 14.34
2/26/2023 2:45:00 AM -0.05 31.91 0.146 7.26 3.62 14.34
2/26/2023 3:00:00 AM -0.05 31.91 0.146 7.26 3.55 14.34
2/26/2023 3:15:00 AM -0.05 31.91 0.146 7.26 3.73 14.34
2/26/2023 3:30:00 AM -0.05 31.91 0.147 7.26 3.58 14.34
2/26/2023 3:45:00 AM -0.05 31.91 0.146 7.25 3.56 14.33
2/26/2023 4:00:00 AM -0.05 31.91 0.147 7.25 3.45 14.32
2/26/2023 4:15:00 AM -0.05 31.91 0.147 7.25 3.35 14.3
2/26/2023 4:30:00 AM -0.05 31.91 0.147 7.26 3.36 14.31
2/26/2023 4:45:00 AM -0.05 31.91 0.147 7.26 3.36 14.32
2/26/2023 5:00:00 AM -0.05 31.91 0.147 7.27 3.26 14.34
2/26/2023 5:15:00 AM -0.05 31.91 0.147 7.27 3.13 14.34
2/26/2023 5:30:00 AM -0.05 31.91 0.148 7.27 3.24 14.33
2/26/2023 5:45:00 AM -0.05 31.91 0.147 7.27 3.07 14.32
2/26/2023 6:00:00 AM -0.05 31.91 0.148 7.26 3.19 14.31
2/26/2023 6:15:00 AM -0.05 31.91 0.147 7.26 3.08 14.31
2/26/2023 6:30:00 AM -0.05 31.91 0.148 7.26 3.15 14.32
2/26/2023 6:45:00 AM -0.05 31.91 0.148 7.27 3.08 14.33
2/26/2023 7:00:00 AM -0.05 31.91 0.148 7.27 3.04 14.34
2/26/2023 7:15:00 AM -0.05 31.91 0.148 7.27 3 14.36
2/26/2023 7:30:00 AM -0.05 31.91 0.148 7.27 3.08 14.39
2/26/2023 7:45:00 AM -0.05 31.91 0.148 7.28 3.09 14.41
2/26/2023 8:00:00 AM -0.05 31.91 0.148 7.28 3.01 14.43
2/26/2023 8:15:00 AM -0.05 31.91 0.148 7.29 2.97 14.44
2/26/2023 8:30:00 AM -0.05 31.91 0.148 7.29 3.17 14.45
2/26/2023 8:45:00 AM -0.05 31.91 0.148 7.29 2.99 14.46
2/26/2023 9:00:00 AM -0.05 31.91 0.147 7.3 3.18 14.46
2/26/2023 9:15:00 AM -0.05 31.91 0.147 7.3 3.14 14.45
2/26/2023 9:30:00 AM -0.05 31.91 0.147 7.31 3.09 14.43
2/26/2023 9:45:00 AM -0.05 31.91 0.146 7.31 3.12 14.42
2/26/2023 10:00:00 AM -0.05 31.91 0.146 7.31 3.18 14.41
2/26/2023 10:15:00 AM -0.05 31.91 0.145 7.31 3.25 14.39
2/26/2023 10:30:00 AM -0.05 31.91 0.145 7.31 3.6 14.37
2/26/2023 10:45:00 AM -0.03 31.946 0.144 7.32 3.9 14.35
2/26/2023 11:00:00 AM 0.15 32.27 0.144 7.33 3.45 14.32
2/26/2023 11:15:00 AM 0.25 32.45 0.144 7.34 3.63 14.29
2/26/2023 11:30:00 AM 0.39 32.702 0.144 7.34 3.89 14.27
2/26/2023 11:45:00 AM 0.54 32.972 0.143 7.35 3.65 14.24
2/26/2023 12:00:00 PM 0.62 33.116 0.143 7.36 4.08 14.22
2/26/2023 12:15:00 PM 0.72 33.296 0.142 7.36 3.76 14.2
2/26/2023 12:30:00 PM 0.78 33.404 0.141 7.36 4 14.18
2/26/2023 12:45:00 PM 0.89 33.602 0.141 7.37 4.01 14.15
2/26/2023 1:00:00 PM 1.03 33.854 0.141 7.37 3.92 14.11
2/26/2023 1:15:00 PM 1.15 34.07 0.14 7.37 4.13 14.06
2/26/2023 1:30:00 PM 1.28 34.304 0.14 7.37 4.06 14.01
2/26/2023 1:45:00 PM 1.44 34.592 0.14 7.37 3.83 13.95
2/26/2023 2:00:00 PM 1.59 34.862 0.14 7.37 3.8 13.88
2/26/2023 2:15:00 PM 1.74 35.132 0.14 7.37 3.88 13.82
2/26/2023 2:30:00 PM 1.9 35.42 0.14 7.38 3.57 13.76
2/26/2023 2:45:00 PM 2.03 35.654 0.14 7.38 3.59 13.7
2/26/2023 3:00:00 PM 2.11 35.798 0.14 7.38 3.44 13.65
2/26/2023 3:15:00 PM 2.17 35.906 0.14 7.38 3.31 13.61
2/26/2023 3:30:00 PM 2.2 35.96 0.14 7.38 3.32 13.59
2/26/2023 3:45:00 PM 2.21 35.978 0.14 7.38 3.21 13.57
2/26/2023 4:00:00 PM 2.21 35.978 0.14 7.38 3.14 13.56
2/26/2023 4:15:00 PM 2.19 35.942 0.14 7.39 3.19 13.54
2/26/2023 4:30:00 PM 2.15 35.87 0.14 7.39 3.23 13.54
2/26/2023 4:45:00 PM 2.09 35.762 0.14 7.39 3.15 13.54
2/26/2023 5:00:00 PM 2.03 35.654 0.14 7.39 3.05 13.55
2/26/2023 5:15:00 PM 1.95 35.51 0.14 7.39 3.09 13.56
2/26/2023 5:30:00 PM 1.87 35.366 0.14 7.39 3.09 13.57
2/26/2023 5:45:00 PM 1.8 35.24 0.14 7.38 3.18 13.57
2/26/2023 6:00:00 PM 1.73 35.114 0.14 7.38 3.21 13.58
2/26/2023 6:15:00 PM 1.69 35.042 0.14 7.37 3.26 13.58
2/26/2023 6:30:00 PM 1.68 35.024 0.14 7.36 3.31 13.57
2/26/2023 6:45:00 PM 1.68 35.024 0.14 7.36 3.42 13.55
2/26/2023 7:00:00 PM 1.71 35.078 0.14 7.35 3.55 13.53
2/26/2023 7:15:00 PM 1.74 35.132 0.139 7.35 3.32 13.5
2/26/2023 7:30:00 PM 1.77 35.186 0.139 7.34 3.35 13.48
2/26/2023 7:45:00 PM 1.8 35.24 0.139 7.34 3.4 13.46
2/26/2023 8:00:00 PM 1.83 35.294 0.139 7.34 3.21 13.45
2/26/2023 8:15:00 PM 1.84 35.312 0.139 7.34 3.35 13.43
2/26/2023 8:30:00 PM 1.85 35.33 0.138 7.34 3.34 13.43
2/26/2023 8:45:00 PM 1.85 35.33 0.139 7.33 3.27 13.43
2/26/2023 9:00:00 PM 1.82 35.276 0.139 7.33 3.29 13.44
2/26/2023 9:15:00 PM 1.79 35.222 0.139 7.33 3.22 13.45
2/26/2023 9:30:00 PM 1.73 35.114 0.139 7.32 3.08 13.47
2/26/2023 9:45:00 PM 1.68 35.024 0.14 7.32 3.11 13.5
2/26/2023 10:00:00 PM 1.62 34.916 0.14 7.32 3.22 13.53
2/26/2023 10:15:00 PM 1.55 34.79 0.14 7.32 3.28 13.55
2/26/2023 10:30:00 PM 1.5 34.7 0.14 7.32 3.21 13.58
2/26/2023 10:45:00 PM 1.45 34.61 0.139 7.31 3.04 13.61
2/26/2023 11:00:00 PM 1.41 34.538 0.14 7.31 3.1 13.63
2/26/2023 11:15:00 PM 1.35 34.43 0.139 7.31 3.04 13.65
2/26/2023 11:30:00 PM 1.3 34.34 0.14 7.31 2.99 13.67
2/26/2023 11:45:00 PM 1.26 34.268 0.139 7.31 2.98 13.69
2/27/2023 12:00:00 AM 1.22 34.196 0.139 7.31 2.99 13.71
2/27/2023 12:15:00 AM 1.17 34.106 0.139 7.31 3.05 13.73
2/27/2023 12:30:00 AM 1.12 34.016 0.139 7.31 3.18 13.74
2/27/2023 12:45:00 AM 1.07 33.926 0.139 7.31 2.97 13.77
2/27/2023 1:00:00 AM 1.02 33.836 0.139 7.31 3.09 13.78
2/27/2023 1:15:00 AM 0.98 33.764 0.139 7.31 3.11 13.81
2/27/2023 1:30:00 AM 0.94 33.692 0.139 7.31 2.92 13.82
2/27/2023 1:45:00 AM 0.9 33.62 0.139 7.31 3.15 13.84
2/27/2023 2:00:00 AM 0.87 33.566 0.139 7.31 3.11 13.86
2/27/2023 2:15:00 AM 0.83 33.494 0.139 7.3 3.17 13.88
2/27/2023 2:30:00 AM 0.79 33.422 0.139 7.3 3.07 13.89
2/27/2023 2:45:00 AM 0.75 33.35 0.139 7.3 3.12 13.9
2/27/2023 3:00:00 AM 0.71 33.278 0.139 7.31 3.35 13.92
2/27/2023 3:15:00 AM 0.67 33.206 0.139 7.3 3.29 13.94
2/27/2023 3:30:00 AM 0.62 33.116 0.139 7.3 3.19 13.96
2/27/2023 3:45:00 AM 0.58 33.044 0.139 7.3 3.12 13.97
2/27/2023 4:00:00 AM 0.54 32.972 0.139 7.3 3.37 13.99
2/27/2023 4:15:00 AM 0.5 32.9 0.139 7.3 3.28 14.01
2/27/2023 4:30:00 AM 0.46 32.828 0.139 7.3 3.25 14.03
2/27/2023 4:45:00 AM 0.43 32.774 0.14 7.3 3.22 14.05
2/27/2023 5:00:00 AM 0.39 32.702 0.139 7.3 3.38 14.07
2/27/2023 5:15:00 AM 0.34 32.612 0.139 7.3 3.3 14.09
2/27/2023 5:30:00 AM 0.3 32.54 0.139 7.3 3.14 14.11
2/27/2023 5:45:00 AM 0.25 32.45 0.139 7.29 3.42 14.12
2/27/2023 6:00:00 AM 0.2 32.36 0.139 7.29 3.17 14.15
2/27/2023 6:15:00 AM 0.15 32.27 0.139 7.29 3.28 14.17
2/27/2023 6:30:00 AM 0.1 32.18 0.139 7.29 3.18 14.19
2/27/2023 6:45:00 AM 0.05 32.09 0.14 7.29 3.11 14.22
2/27/2023 7:00:00 AM 0.01 32.018 0.14 7.29 3.2 14.24
2/27/2023 7:15:00 AM -0.02 31.964 0.14 7.29 3.07 14.28
2/27/2023 7:30:00 AM -0.05 31.91 0.14 7.29 3.13 14.32
2/27/2023 7:45:00 AM -0.06 31.892 0.14 7.3 3.13 14.36
2/27/2023 8:00:00 AM -0.04 31.928 0.14 7.31 3.15 14.39
2/27/2023 8:15:00 AM -0.01 31.982 0.14 7.31 2.99 14.41
2/27/2023 8:30:00 AM 0.03 32.054 0.139 7.32 3.13 14.42
2/27/2023 8:45:00 AM 0.06 32.108 0.14 7.32 2.88 14.43
2/27/2023 9:00:00 AM 0.13 32.234 0.139 7.33 3.1 14.42
2/27/2023 9:15:00 AM 0.2 32.36 0.139 7.33 3.06 14.42
2/27/2023 9:30:00 AM 0.29 32.522 0.139 7.34 3.08 14.4
2/27/2023 9:45:00 AM 0.38 32.684 0.139 7.34 3.16 14.4
2/27/2023 10:00:00 AM 0.5 32.9 0.138 7.34 3 14.37
2/27/2023 10:15:00 AM 0.62 33.116 0.138 7.35 2.94 14.36
2/27/2023 10:30:00 AM 0.68 33.224 0.137 7.35 3 14.33
2/27/2023 10:45:00 AM 0.77 33.386 0.137 7.35 2.99 14.3
2/27/2023 11:00:00 AM 0.87 33.566 0.137 7.35 2.93 14.27
2/27/2023 11:15:00 AM 0.92 33.656 0.137 7.35 2.89 14.25
2/27/2023 11:30:00 AM 1.07 33.926 0.137 7.36 2.95 14.2
2/27/2023 11:45:00 AM 1.22 34.196 0.137 7.36 2.9 14.14
2/27/2023 12:00:00 PM 1.4 34.52 0.135 7.37 2.81 14.09
2/27/2023 12:15:00 PM 1.6 34.88 0.136 7.37 2.85 14.02
2/27/2023 12:30:00 PM 1.77 35.186 0.135 7.38 2.79 13.94
2/27/2023 12:45:00 PM 1.93 35.474 0.135 7.38 2.88 13.88
2/27/2023 1:00:00 PM 2.06 35.708 0.135 7.39 2.77 13.82
2/27/2023 1:15:00 PM 2.14 35.852 0.135 7.39 2.67 13.78
2/27/2023 1:30:00 PM 2.23 36.014 0.134 7.4 2.71 13.75
2/27/2023 1:45:00 PM 2.3 36.14 0.135 7.4 2.75 13.71
2/27/2023 2:00:00 PM 2.37 36.266 0.134 7.4 2.71 13.67
2/27/2023 2:15:00 PM 2.48 36.464 0.134 7.41 2.72 13.62
2/27/2023 2:30:00 PM 2.53 36.554 0.134 7.41 2.8 13.58
2/27/2023 2:45:00 PM 2.54 36.572 0.134 7.42 2.66 13.57
2/27/2023 3:00:00 PM 2.54 36.572 0.134 7.41 2.79 13.55
2/27/2023 3:15:00 PM 2.55 36.59 0.134 7.42 2.8 13.54
2/27/2023 3:30:00 PM 2.55 36.59 0.134 7.42 2.69 13.53
2/27/2023 3:45:00 PM 2.53 36.554 0.134 7.42 2.69 13.52
2/27/2023 4:00:00 PM 2.51 36.518 0.134 7.42 2.68 13.49
2/27/2023 4:15:00 PM 2.51 36.518 0.135 7.42 2.74 13.47
2/27/2023 4:30:00 PM 2.49 36.482 0.134 7.42 2.61 13.43
2/27/2023 4:45:00 PM 2.46 36.428 0.135 7.41 2.68 13.4
2/27/2023 5:00:00 PM 2.45 36.41 0.135 7.4 2.69 13.38
2/27/2023 5:15:00 PM 2.44 36.392 0.135 7.4 2.76 13.34
2/27/2023 5:30:00 PM 2.46 36.428 0.135 7.38 2.85 13.31
2/27/2023 5:45:00 PM 2.46 36.428 0.136 7.37 2.72 13.28
2/27/2023 6:00:00 PM 2.46 36.428 0.135 7.37 2.73 13.24
2/27/2023 6:15:00 PM 2.47 36.446 0.136 7.37 2.78 13.22
2/27/2023 6:30:00 PM 2.48 36.464 0.136 7.36 2.84 13.2
2/27/2023 6:45:00 PM 2.37 36.266 0.136 7.36 2.98 13.19
2/27/2023 7:00:00 PM 2.33 36.194 0.136 7.35 2.77 13.19
2/27/2023 7:15:00 PM 2.29 36.122 0.137 7.35 2.89 13.2
2/27/2023 7:30:00 PM 2.23 36.014 0.137 7.34 2.82 13.21
2/27/2023 7:45:00 PM 2.2 35.96 0.137 7.34 2.77 13.21
2/27/2023 8:00:00 PM 2.09 35.762 0.137 7.34 2.95 13.22
2/27/2023 8:15:00 PM 2.02 35.636 0.137 7.34 2.67 13.23
2/27/2023 8:30:00 PM 1.94 35.492 0.136 7.33 2.73 13.25
2/27/2023 8:45:00 PM 1.88 35.384 0.136 7.33 2.96 13.28
2/27/2023 9:00:00 PM 1.83 35.294 0.136 7.32 2.65 13.3
2/27/2023 9:15:00 PM 1.79 35.222 0.136 7.32 2.71 13.32
2/27/2023 9:30:00 PM 1.79 35.222 0.136 7.32 2.71 13.33
2/27/2023 9:45:00 PM 1.78 35.204 0.136 7.32 2.71 13.34
2/27/2023 10:00:00 PM 1.78 35.204 0.136 7.32 2.69 13.34
2/27/2023 10:15:00 PM 1.75 35.15 0.136 7.32 2.81 13.35
2/27/2023 10:30:00 PM 1.69 35.042 0.136 7.32 2.7 13.36
2/27/2023 10:45:00 PM 1.55 34.79 0.136 7.32 2.86 13.39
2/27/2023 11:00:00 PM 1.29 34.322 0.135 7.31 2.7 13.45
2/27/2023 11:15:00 PM 1.13 34.034 0.135 7.31 2.74 13.5
2/27/2023 11:30:00 PM 1.08 33.944 0.135 7.31 2.65 13.54
2/27/2023 11:45:00 PM 1.03 33.854 0.135 7.31 2.78 13.57
2/28/2023 12:00:00 AM 1.01 33.818 0.135 7.31 2.6 13.58
2/28/2023 12:15:00 AM 1.02 33.836 0.136 7.3 2.56 13.59
2/28/2023 12:30:00 AM 1.02 33.836 0.136 7.3 2.67 13.6
2/28/2023 12:45:00 AM 0.98 33.764 0.136 7.3 2.64 13.61
2/28/2023 1:00:00 AM 0.82 33.476 0.136 7.3 2.72 13.64
2/28/2023 1:15:00 AM 0.71 33.278 0.135 7.3 2.53 13.67
2/28/2023 1:30:00 AM 0.62 33.116 0.135 7.3 2.61 13.71
2/28/2023 1:45:00 AM 0.57 33.026 0.135 7.29 2.72 13.75
2/28/2023 2:00:00 AM 0.53 32.954 0.135 7.29 2.62 13.77
2/28/2023 2:15:00 AM 0.53 32.954 0.136 7.29 2.58 13.78
2/28/2023 2:30:00 AM 0.5 32.9 0.137 7.29 2.61 13.79
2/28/2023 2:45:00 AM 0.47 32.846 0.138 7.28 2.64 13.81
2/28/2023 3:00:00 AM 0.44 32.792 0.139 7.28 2.74 13.83
2/28/2023 3:15:00 AM 0.4 32.72 0.14 7.28 2.79 13.84
2/28/2023 3:30:00 AM 0.37 32.666 0.139 7.28 2.67 13.86
2/28/2023 3:45:00 AM 0.35 32.63 0.138 7.28 2.65 13.87
2/28/2023 4:00:00 AM 0.34 32.612 0.137 7.28 2.64 13.89
2/28/2023 4:15:00 AM 0.32 32.576 0.136 7.28 2.72 13.91
2/28/2023 4:30:00 AM 0.33 32.594 0.136 7.27 2.54 13.92
2/28/2023 4:45:00 AM 0.31 32.558 0.135 7.28 2.65 13.93
2/28/2023 5:00:00 AM 0.28 32.504 0.135 7.28 2.7 13.95
2/28/2023 5:15:00 AM 0.24 32.432 0.135 7.28 2.68 13.97
2/28/2023 5:30:00 AM 0.2 32.36 0.134 7.27 2.62 13.99
2/28/2023 5:45:00 AM 0.16 32.288 0.134 7.28 2.61 14
2/28/2023 6:00:00 AM 0.13 32.234 0.134 7.27 2.64 14.01
2/28/2023 6:15:00 AM 0.1 32.18 0.134 7.27 2.75 14.04
2/28/2023 6:30:00 AM 0.07 32.126 0.134 7.27 2.72 14.06
2/28/2023 6:45:00 AM 0.02 32.036 0.133 7.27 2.8 14.09
2/28/2023 7:00:00 AM 0.01 32.018 0.133 7.27 2.5 14.09
2/28/2023 7:15:00 AM 0 32 0.133 7.28 2.71 14.11
2/28/2023 7:30:00 AM 0 32 0.134 7.28 2.67 14.13
2/28/2023 7:45:00 AM 0.02 32.036 0.133 7.28 2.64 14.15
2/28/2023 8:00:00 AM 0.02 32.036 0.134 7.29 3.71 14.17
2/28/2023 8:15:00 AM 0.02 32.036 0.133 7.29 2.59 14.19
2/28/2023 8:30:00 AM 0.05 32.09 0.133 7.3 2.65 14.21
2/28/2023 8:45:00 AM 0.06 32.108 0.133 7.3 2.72 14.22
2/28/2023 9:00:00 AM 0.07 32.126 0.133 7.31 2.62 14.24
2/28/2023 9:15:00 AM 0.1 32.18 0.133 7.32 2.63 14.25
2/28/2023 9:30:00 AM 0.14 32.252 0.133 7.32 2.68 14.26
2/28/2023 9:45:00 AM 0.19 32.342 0.133 7.32 2.75 14.27
2/28/2023 10:00:00 AM 0.24 32.432 0.133 7.33 2.63 14.27
2/28/2023 10:15:00 AM 0.3 32.54 0.133 7.33 2.76 14.27
2/28/2023 10:30:00 AM 0.38 32.684 0.133 7.33 2.77 14.26
2/28/2023 10:45:00 AM 0.43 32.774 0.133 7.34 2.79 14.25
2/28/2023 11:00:00 AM 0.5 32.9 0.133 7.34 2.64 14.23
2/28/2023 11:15:00 AM 0.55 32.99 0.133 7.34 2.65 14.21
2/28/2023 11:30:00 AM 0.61 33.098 0.133 7.35 2.61 14.2
2/28/2023 11:45:00 AM 0.68 33.224 0.133 7.35 2.53 14.19
2/28/2023 12:00:00 PM 0.78 33.404 0.133 7.36 2.68 14.16
2/28/2023 12:15:00 PM 0.9 33.62 0.133 7.35 2.51 14.13
2/28/2023 12:30:00 PM 1.05 33.89 0.133 7.36 2.52 14.1
2/28/2023 12:45:00 PM 1.19 34.142 0.133 7.36 2.48 14.05
2/28/2023 1:00:00 PM 1.32 34.376 0.133 7.37 2.68 14.01
2/28/2023 1:15:00 PM 1.41 34.538 0.133 7.37 2.57 13.97
2/28/2023 1:30:00 PM 1.5 34.7 0.133 7.37 2.63 13.93
2/28/2023 1:45:00 PM 1.54 34.772 0.133 7.38 2.58 13.91
2/28/2023 2:00:00 PM 1.58 34.844 0.134 7.38 2.5 13.89
2/28/2023 2:15:00 PM 1.61 34.898 0.133 7.38 2.37 13.88
2/28/2023 2:30:00 PM 1.65 34.97 0.134 7.38 2.41 13.86
2/28/2023 2:45:00 PM 1.7 35.06 0.134 7.38 2.5 13.84
2/28/2023 3:00:00 PM 1.75 35.15 0.133 7.39 2.41 13.83
2/28/2023 3:15:00 PM 1.83 35.294 0.133 7.38 2.51 13.8
2/28/2023 3:30:00 PM 1.86 35.348 0.133 7.39 2.51 13.77
2/28/2023 3:45:00 PM 1.9 35.42 0.133 7.38 2.43 13.76
2/28/2023 4:00:00 PM 1.94 35.492 0.133 7.39 2.47 13.73
2/28/2023 4:15:00 PM 1.97 35.546 0.133 7.39 2.38 13.72
2/28/2023 4:30:00 PM 1.99 35.582 0.133 7.39 2.5 13.69
2/28/2023 4:45:00 PM 2.01 35.618 0.133 7.39 2.42 13.68
2/28/2023 5:00:00 PM 2.02 35.636 0.134 7.38 2.51 13.66
2/28/2023 5:15:00 PM 2.03 35.654 0.134 7.38 2.43 13.63
2/28/2023 5:30:00 PM 2.04 35.672 0.134 7.37 2.6 13.61
2/28/2023 5:45:00 PM 2.04 35.672 0.135 7.37 2.39 13.58
2/28/2023 6:00:00 PM 2.04 35.672 0.136 7.36 2.47 13.55
2/28/2023 6:15:00 PM 2.05 35.69 0.136 7.35 2.57 13.53
2/28/2023 6:30:00 PM 2.06 35.708 0.137 7.34 2.57 13.5
2/28/2023 6:45:00 PM 2.07 35.726 0.138 7.34 2.57 13.48
2/28/2023 7:00:00 PM 2.08 35.744 0.138 7.33 2.67 13.47
2/28/2023 7:15:00 PM 2.09 35.762 0.139 7.33 2.57 13.46
2/28/2023 7:30:00 PM 2.09 35.762 0.139 7.32 2.78 13.45
2/28/2023 7:45:00 PM 2.1 35.78 0.139 7.32 2.67 13.44
2/28/2023 8:00:00 PM 2.1 35.78 0.14 7.31 2.52 13.44
2/28/2023 8:15:00 PM 2.1 35.78 0.14 7.31 2.56 13.44
2/28/2023 8:30:00 PM 2.09 35.762 0.14 7.31 2.67 13.43
2/28/2023 8:45:00 PM 2.09 35.762 0.141 7.31 2.62 13.43
2/28/2023 9:00:00 PM 2.08 35.744 0.141 7.31 2.79 13.43
2/28/2023 9:15:00 PM 2.09 35.762 0.141 7.3 2.85 13.43
2/28/2023 9:30:00 PM 2.08 35.744 0.141 7.3 2.85 13.44
2/28/2023 9:45:00 PM 2.06 35.708 0.141 7.3 2.75 13.44
2/28/2023 10:00:00 PM 2.04 35.672 0.14 7.3 2.79 13.44
2/28/2023 10:15:00 PM 2.02 35.636 0.14 7.3 2.77 13.45
2/28/2023 10:30:00 PM 1.98 35.564 0.141 7.3 2.88 13.45
2/28/2023 10:45:00 PM 1.94 35.492 0.14 7.29 2.67 13.47
2/28/2023 11:00:00 PM 1.9 35.42 0.14 7.29 2.77 13.48
2/28/2023 11:15:00 PM 1.86 35.348 0.141 7.29 2.7 13.5
2/28/2023 11:30:00 PM 1.82 35.276 0.141 7.29 2.79 13.5
2/28/2023 11:45:00 PM 1.79 35.222 0.14 7.29 3.02 13.52
3/1/2023 12:00:00 AM 1.75 35.15 0.141 7.29 2.68 13.54
3/1/2023 12:15:00 AM 1.7 35.06 0.14 7.29 2.84 13.55
3/1/2023 12:30:00 AM 1.66 34.988 0.141 7.29 2.88 13.58
3/1/2023 12:45:00 AM 1.61 34.898 0.141 7.28 2.79 13.6
3/1/2023 1:00:00 AM 1.55 34.79 0.141 7.28 2.81 13.62
3/1/2023 1:15:00 AM 1.5 34.7 0.14 7.28 2.7 13.65
3/1/2023 1:30:00 AM 1.45 34.61 0.14 7.27 2.62 13.67
3/1/2023 1:45:00 AM 1.39 34.502 0.141 7.27 2.77 13.7
3/1/2023 2:00:00 AM 1.33 34.394 0.141 7.27 2.68 13.72
3/1/2023 2:15:00 AM 1.27 34.286 0.141 7.27 2.67 13.74
3/1/2023 2:30:00 AM 1.22 34.196 0.141 7.27 2.72 13.76
3/1/2023 2:45:00 AM 1.18 34.124 0.141 7.27 2.76 13.79
3/1/2023 3:00:00 AM 1.13 34.034 0.141 7.27 2.71 13.81
3/1/2023 3:15:00 AM 1.08 33.944 0.141 7.27 2.66 13.83
3/1/2023 3:30:00 AM 1.04 33.872 0.141 7.27 2.82 13.85
3/1/2023 3:45:00 AM 0.99 33.782 0.141 7.27 2.6 13.88
3/1/2023 4:00:00 AM 0.96 33.728 0.141 7.27 2.74 13.9
3/1/2023 4:15:00 AM 0.9 33.62 0.141 7.26 2.57 13.91
3/1/2023 4:30:00 AM 0.85 33.53 0.141 7.26 2.81 13.94
3/1/2023 4:45:00 AM 0.8 33.44 0.141 7.26 2.49 13.96
3/1/2023 5:00:00 AM 0.74 33.332 0.141 7.26 2.78 13.98
3/1/2023 5:15:00 AM 0.68 33.224 0.142 7.26 2.7 14
3/1/2023 5:30:00 AM 0.63 33.134 0.142 7.26 2.55 14.02
3/1/2023 5:45:00 AM 0.58 33.044 0.142 7.26 2.59 14.05
3/1/2023 6:00:00 AM 0.51 32.918 0.141 7.26 2.51 14.07
3/1/2023 6:15:00 AM 0.46 32.828 0.142 7.26 2.49 14.09
3/1/2023 6:30:00 AM 0.4 32.72 0.141 7.25 2.43 14.12
3/1/2023 6:45:00 AM 0.34 32.612 0.141 7.26 2.47 14.15
3/1/2023 7:00:00 AM 0.28 32.504 0.141 7.26 2.53 14.18
3/1/2023 7:15:00 AM 0.23 32.414 0.141 7.26 2.43 14.22
3/1/2023 7:30:00 AM 0.19 32.342 0.141 7.26 2.44 14.26
3/1/2023 7:45:00 AM 0.16 32.288 0.141 7.27 2.48 14.29
3/1/2023 8:00:00 AM 0.15 32.27 0.141 7.27 2.51 14.34
3/1/2023 8:15:00 AM 0.17 32.306 0.14 7.28 2.47 14.36
3/1/2023 8:30:00 AM 0.2 32.36 0.14 7.28 2.52 14.38
3/1/2023 8:45:00 AM 0.26 32.468 0.14 7.29 2.49 14.4
3/1/2023 9:00:00 AM 0.33 32.594 0.14 7.3 2.45 14.4
3/1/2023 9:15:00 AM 0.41 32.738 0.14 7.31 2.51 14.38
3/1/2023 9:30:00 AM 0.48 32.864 0.14 7.31 2.45 14.38
3/1/2023 9:45:00 AM 0.6 33.08 0.139 7.31 2.52 14.36
3/1/2023 10:00:00 AM 0.7 33.26 0.139 7.32 2.37 14.34
3/1/2023 10:15:00 AM 0.81 33.458 0.139 7.33 2.37 14.31
3/1/2023 10:30:00 AM 0.9 33.62 0.139 7.33 2.22 14.28
3/1/2023 10:45:00 AM 1 33.8 0.14 7.34 2.28 14.25
3/1/2023 11:00:00 AM 1.04 33.872 0.14 7.34 2.27 14.21
3/1/2023 11:15:00 AM 1.11 33.998 0.139 7.35 2.29 14.19
3/1/2023 11:30:00 AM 1.14 34.052 0.14 7.35 2.26 14.16
3/1/2023 11:45:00 AM 1.21 34.178 0.139 7.35 2.24 14.14
3/1/2023 12:00:00 PM 1.46 34.628 0.14 7.36 2.4 14.1
3/1/2023 12:15:00 PM 1.64 34.952 0.141 7.36 2.21 14.03
3/1/2023 12:30:00 PM 1.77 35.186 0.141 7.36 2.16 13.97
3/1/2023 12:45:00 PM 1.96 35.528 0.141 7.37 2.21 13.92
3/1/2023 1:00:00 PM 2.12 35.816 0.142 7.37 2.28 13.85
3/1/2023 1:15:00 PM 2.22 35.996 0.143 7.38 2.21 13.81
3/1/2023 1:30:00 PM 2.28 36.104 0.144 7.38 2.25 13.75
3/1/2023 1:45:00 PM 2.33 36.194 0.145 7.38 2.14 13.74
3/1/2023 2:00:00 PM 2.38 36.284 0.146 7.39 2.15 13.7
3/1/2023 2:15:00 PM 2.44 36.392 0.147 7.39 2.39 13.67
3/1/2023 2:30:00 PM 2.5 36.5 0.147 7.39 2.15 13.64
3/1/2023 2:45:00 PM 2.58 36.644 0.148 7.4 2.31 13.62
3/1/2023 3:00:00 PM 2.69 36.842 0.149 7.4 2.1 13.58
3/1/2023 3:15:00 PM 2.82 37.076 0.15 7.4 2.22 13.53
3/1/2023 3:30:00 PM 2.88 37.184 0.151 7.4 2.21 13.49
3/1/2023 3:45:00 PM 2.92 37.256 0.151 7.4 2.15 13.47
3/1/2023 4:00:00 PM 2.98 37.364 0.151 7.41 2.13 13.45
3/1/2023 4:15:00 PM 3.02 37.436 0.152 7.41 2.27 13.42
3/1/2023 4:30:00 PM 3.05 37.49 0.152 7.41 2.1 13.4
3/1/2023 4:45:00 PM 3.08 37.544 0.152 7.41 2.1 13.37
3/1/2023 5:00:00 PM 3.09 37.562 0.153 7.41 2.15 13.34
3/1/2023 5:15:00 PM 3.07 37.526 0.153 7.4 2.25 13.31
3/1/2023 5:30:00 PM 3.04 37.472 0.153 7.4 2.25 13.28
3/1/2023 5:45:00 PM 3.01 37.418 0.153 7.39 2.28 13.25
3/1/2023 6:00:00 PM 2.97 37.346 0.153 7.37 2.41 13.22
3/1/2023 6:15:00 PM 2.93 37.274 0.154 7.36 2.35 13.2
3/1/2023 6:30:00 PM 2.9 37.22 0.154 7.35 2.4 13.18
3/1/2023 6:45:00 PM 2.88 37.184 0.153 7.34 2.49 13.17
3/1/2023 7:00:00 PM 2.86 37.148 0.154 7.34 2.43 13.16
3/1/2023 7:15:00 PM 2.84 37.112 0.154 7.33 2.48 13.15
3/1/2023 7:30:00 PM 2.82 37.076 0.153 7.33 2.43 13.15
3/1/2023 7:45:00 PM 2.79 37.022 0.153 7.33 2.53 13.15
3/1/2023 8:00:00 PM 2.77 36.986 0.153 7.32 2.42 13.15
3/1/2023 8:15:00 PM 2.74 36.932 0.153 7.32 2.53 13.15
3/1/2023 8:30:00 PM 2.71 36.878 0.152 7.32 2.36 13.16
3/1/2023 8:45:00 PM 2.69 36.842 0.153 7.31 2.47 13.16
3/1/2023 9:00:00 PM 2.67 36.806 0.153 7.31 2.77 13.16
3/1/2023 9:15:00 PM 2.65 36.77 0.153 7.31 2.64 13.16
3/1/2023 9:30:00 PM 2.64 36.752 0.153 7.31 2.46 13.16
3/1/2023 9:45:00 PM 2.62 36.716 0.152 7.31 2.55 13.17
3/1/2023 10:00:00 PM 2.6 36.68 0.152 7.31 2.54 13.17
3/1/2023 10:15:00 PM 2.58 36.644 0.152 7.3 2.48 13.17
3/1/2023 10:30:00 PM 2.56 36.608 0.152 7.3 2.53 13.18
3/1/2023 10:45:00 PM 2.53 36.554 0.152 7.3 2.61 13.19
3/1/2023 11:00:00 PM 2.49 36.482 0.152 7.3 2.76 13.19
3/1/2023 11:15:00 PM 2.45 36.41 0.152 7.3 2.71 13.21
3/1/2023 11:30:00 PM 2.43 36.374 0.152 7.3 2.97 13.21
3/1/2023 11:45:00 PM 2.41 36.338 0.152 7.29 2.76 13.22
3/2/2023 12:00:00 AM 2.4 36.32 0.151 7.29 2.81 13.22
3/2/2023 12:15:00 AM 2.39 36.302 0.151 7.29 2.81 13.22
3/2/2023 12:30:00 AM 2.38 36.284 0.151 7.29 2.8 13.23
3/2/2023 12:45:00 AM 2.37 36.266 0.151 7.29 2.89 13.23
3/2/2023 1:00:00 AM 2.35 36.23 0.151 7.29 2.83 13.23
3/2/2023 1:15:00 AM 2.34 36.212 0.15 7.29 2.65 13.23
3/2/2023 1:30:00 AM 2.32 36.176 0.15 7.29 2.89 13.24
3/2/2023 1:45:00 AM 2.3 36.14 0.15 7.29 2.81 13.24
3/2/2023 2:00:00 AM 2.28 36.104 0.15 7.28 2.65 13.25
3/2/2023 2:15:00 AM 2.27 36.086 0.149 7.28 2.88 13.25
3/2/2023 2:30:00 AM 2.26 36.068 0.149 7.28 2.73 13.26
3/2/2023 2:45:00 AM 2.26 36.068 0.149 7.28 3.15 13.26
3/2/2023 3:00:00 AM 2.26 36.068 0.148 7.28 2.87 13.25
3/2/2023 3:15:00 AM 2.26 36.068 0.149 7.29 3 13.25
3/2/2023 3:30:00 AM 2.26 36.068 0.148 7.28 2.89 13.25
3/2/2023 3:45:00 AM 2.26 36.068 0.148 7.29 2.83 13.25
3/2/2023 4:00:00 AM 2.27 36.086 0.148 7.28 2.94 13.25
3/2/2023 4:15:00 AM 2.26 36.068 0.148 7.28 2.89 13.25
3/2/2023 4:30:00 AM 2.26 36.068 0.148 7.28 2.81 13.25
3/2/2023 4:45:00 AM 2.26 36.068 0.148 7.28 2.76 13.25
3/2/2023 5:00:00 AM 2.24 36.032 0.147 7.28 2.71 13.25
3/2/2023 5:15:00 AM 2.23 36.014 0.147 7.28 2.73 13.26
3/2/2023 5:30:00 AM 2.22 35.996 0.147 7.28 2.58 13.26
3/2/2023 5:45:00 AM 2.2 35.96 0.147 7.28 2.69 13.27
3/2/2023 6:00:00 AM 2.19 35.942 0.147 7.28 2.78 13.27
3/2/2023 6:15:00 AM 2.18 35.924 0.147 7.28 2.59 13.27
3/2/2023 6:30:00 AM 2.17 35.906 0.147 7.27 2.55 13.28
3/2/2023 6:45:00 AM 2.15 35.87 0.146 7.27 2.74 13.29
3/2/2023 7:00:00 AM 2.14 35.852 0.146 7.27 2.76 13.3
3/2/2023 7:15:00 AM 2.13 35.834 0.146 7.27 2.54 13.31
3/2/2023 7:30:00 AM 2.13 35.834 0.146 7.28 2.56 13.34
3/2/2023 7:45:00 AM 2.14 35.852 0.146 7.29 2.63 13.36
3/2/2023 8:00:00 AM 2.14 35.852 0.145 7.29 2.83 13.37
3/2/2023 8:15:00 AM 2.14 35.852 0.145 7.29 2.62 13.36
3/2/2023 8:30:00 AM 2.16 35.888 0.145 7.29 2.63 13.39
3/2/2023 8:45:00 AM 2.2 35.96 0.145 7.3 2.66 13.41
3/2/2023 9:00:00 AM 2.24 36.032 0.144 7.3 2.68 13.42
3/2/2023 9:15:00 AM 2.33 36.194 0.144 7.31 2.8 13.43
3/2/2023 9:30:00 AM 2.41 36.338 0.144 7.32 2.71 13.43
3/2/2023 9:45:00 AM 2.59 36.662 0.144 7.33 2.71 13.42
3/2/2023 10:00:00 AM 2.7 36.86 0.144 7.34 2.55 13.39
3/2/2023 10:15:00 AM 2.97 37.346 0.143 7.35 2.65 13.35
3/2/2023 10:30:00 AM 3.04 37.472 0.143 7.36 2.75 13.32
3/2/2023 10:45:00 AM 3.12 37.616 0.143 7.37 2.69 13.3
3/2/2023 11:00:00 AM 3.19 37.742 0.143 7.37 2.61 13.29
3/2/2023 11:15:00 AM 3.34 38.012 0.143 7.38 2.68 13.25
3/2/2023 11:30:00 AM 3.56 38.408 0.143 7.39 2.57 13.19
3/2/2023 11:45:00 AM 3.79 38.822 0.143 7.39 2.62 13.12
3/2/2023 12:00:00 PM 3.98 39.164 0.143 7.4 2.64 13.05
3/2/2023 12:15:00 PM 4.17 39.506 0.142 7.4 2.54 13.01
3/2/2023 12:30:00 PM 4.33 39.794 0.142 7.41 2.58 12.94
3/2/2023 12:45:00 PM 4.49 40.082 0.143 7.42 2.58 12.9
3/2/2023 1:00:00 PM 4.62 40.316 0.143 7.42 2.76 12.84
3/2/2023 1:15:00 PM 4.77 40.586 0.143 7.43 2.67 12.8
3/2/2023 1:30:00 PM 4.92 40.856 0.143 7.43 2.79 12.76
3/2/2023 1:45:00 PM 4.96 40.928 0.143 7.44 2.95 12.72
3/2/2023 2:00:00 PM 5.02 41.036 0.144 7.45 3.62 12.7
3/2/2023 2:15:00 PM 5.01 41.018 0.145 7.45 5.74 12.69
3/2/2023 2:30:00 PM 5 41 0.145 7.45 6.11 12.7
3/2/2023 2:45:00 PM 5.03 41.054 0.146 7.45 6.59 12.69
3/2/2023 3:00:00 PM 5.02 41.036 0.146 7.45 6.37 12.68
3/2/2023 3:15:00 PM 4.97 40.946 0.146 7.45 6.36 12.67
3/2/2023 3:30:00 PM 4.97 40.946 0.146 7.44 6.54 12.65
3/2/2023 3:45:00 PM 5 41 0.146 7.44 6.15 12.63
3/2/2023 4:00:00 PM 5.03 41.054 0.146 7.44 6.74 12.59
3/2/2023 4:15:00 PM 5.08 41.144 0.146 7.43 6.37 12.56
3/2/2023 4:30:00 PM 5.13 41.234 0.146 7.43 6.87 12.53
3/2/2023 4:45:00 PM 5.18 41.324 0.147 7.43 7.21 12.49
3/2/2023 5:00:00 PM 5.21 41.378 0.146 7.42 8.27 12.45
3/2/2023 5:15:00 PM 5.23 41.414 0.146 7.41 8.16 12.43
3/2/2023 5:30:00 PM 5.23 41.414 0.145 7.4 9.07 12.4
3/2/2023 5:45:00 PM 5.23 41.414 0.144 7.39 9.35 12.37
3/2/2023 6:00:00 PM 5.21 41.378 0.144 7.38 9.67 12.36
3/2/2023 6:15:00 PM 5.19 41.342 0.144 7.37 10.73 12.35
3/2/2023 6:30:00 PM 5.16 41.288 0.144 7.37 12.14 12.34
3/2/2023 6:45:00 PM 5.14 41.252 0.143 7.36 13.68 12.35
3/2/2023 7:00:00 PM 5.1 41.18 0.143 7.36 13.76 12.36
3/2/2023 7:15:00 PM 5.05 41.09 0.143 7.35 14.06 12.38
3/2/2023 7:30:00 PM 4.97 40.946 0.143 7.35 15.21 12.4
3/2/2023 7:45:00 PM 4.9 40.82 0.143 7.34 14.37 12.42
3/2/2023 8:00:00 PM 4.83 40.694 0.145 7.34 12.88 12.44
3/2/2023 8:15:00 PM 4.76 40.568 0.145 7.34 13.16 12.46
3/2/2023 8:30:00 PM 4.69 40.442 0.147 7.33 12.55 12.48
3/2/2023 8:45:00 PM 4.61 40.298 0.149 7.33 11.82 12.5
3/2/2023 9:00:00 PM 4.55 40.19 0.151 7.33 12.44 12.52
3/2/2023 9:15:00 PM 4.49 40.082 0.153 7.32 12.82 12.54
3/2/2023 9:30:00 PM 4.43 39.974 0.155 7.32 12.17 12.56
3/2/2023 9:45:00 PM 4.37 39.866 0.156 7.32 12.91 12.57
3/2/2023 10:00:00 PM 4.31 39.758 0.156 7.32 14.13 12.6
3/2/2023 10:15:00 PM 4.25 39.65 0.156 7.32 14.11 12.62
3/2/2023 10:30:00 PM 4.18 39.524 0.156 7.31 14.64 12.65
3/2/2023 10:45:00 PM 4.11 39.398 0.156 7.31 14.77 12.67
3/2/2023 11:00:00 PM 4.04 39.272 0.155 7.31 15.47 12.7
3/2/2023 11:15:00 PM 3.98 39.164 0.155 7.3 15.63 12.72
3/2/2023 11:30:00 PM 3.91 39.038 0.154 7.3 14.73 12.75
3/2/2023 11:45:00 PM 3.84 38.912 0.153 7.3 14.76 12.77
3/3/2023 12:00:00 AM 3.77 38.786 0.152 7.3 15.46 12.8
3/3/2023 12:15:00 AM 3.7 38.66 0.151 7.29 15.57 12.83
3/3/2023 12:30:00 AM 3.63 38.534 0.15 7.29 14.34 12.86
3/3/2023 12:45:00 AM 3.56 38.408 0.149 7.29 14.45 12.88
3/3/2023 1:00:00 AM 3.47 38.246 0.148 7.28 14.86 12.91
3/3/2023 1:15:00 AM 3.38 38.084 0.147 7.28 14.31 12.94
3/3/2023 1:30:00 AM 3.29 37.922 0.146 7.28 13.26 12.97
3/3/2023 1:45:00 AM 3.21 37.778 0.145 7.28 13.59 13
3/3/2023 2:00:00 AM 3.13 37.634 0.144 7.27 13.48 13.03
3/3/2023 2:15:00 AM 3.05 37.49 0.143 7.27 13.16 13.06
3/3/2023 2:30:00 AM 2.98 37.364 0.142 7.27 13.68 13.08
3/3/2023 2:45:00 AM 2.91 37.238 0.141 7.27 13.63 13.1
3/3/2023 3:00:00 AM 2.85 37.13 0.141 7.26 13.48 13.13
3/3/2023 3:15:00 AM 2.8 37.04 0.14 7.26 13.91 13.15
3/3/2023 3:30:00 AM 2.75 36.95 0.14 7.26 13.52 13.18
3/3/2023 3:45:00 AM 2.7 36.86 0.139 7.26 13.07 13.19
3/3/2023 4:00:00 AM 2.65 36.77 0.139 7.25 13.29 13.2
3/3/2023 4:15:00 AM 2.62 36.716 0.139 7.25 13.82 13.22
3/3/2023 4:30:00 AM 2.58 36.644 0.139 7.25 14.21 13.23
3/3/2023 4:45:00 AM 2.56 36.608 0.138 7.25 15.49 13.24
3/3/2023 5:00:00 AM 2.54 36.572 0.139 7.25 15.3 13.25
3/3/2023 5:15:00 AM 2.53 36.554 0.139 7.25 15.77 13.25
3/3/2023 5:30:00 AM 2.52 36.536 0.139 7.25 15.07 13.25
3/3/2023 5:45:00 AM 2.51 36.518 0.138 7.24 16.6 13.26
3/3/2023 6:00:00 AM 2.5 36.5 0.139 7.24 16.44 13.26
3/3/2023 6:15:00 AM 2.49 36.482 0.138 7.24 15.26 13.27
3/3/2023 6:30:00 AM 2.47 36.446 0.138 7.24 16.43 13.28
3/3/2023 6:45:00 AM 2.44 36.392 0.138 7.23 16.28 13.29
3/3/2023 7:00:00 AM 2.41 36.338 0.139 7.23 16.19 13.31
3/3/2023 7:15:00 AM 2.38 36.284 0.138 7.23 16.09 13.33
3/3/2023 7:30:00 AM 2.36 36.248 0.139 7.23 17.19 13.36
3/3/2023 7:45:00 AM 2.34 36.212 0.139 7.23 15.51 13.37
3/3/2023 8:00:00 AM 2.34 36.212 0.139 7.24 15.89 13.4
3/3/2023 8:15:00 AM 2.35 36.23 0.139 7.24 15.7 13.42
3/3/2023 8:30:00 AM 2.37 36.266 0.14 7.25 14.71 13.44
3/3/2023 8:45:00 AM 2.38 36.284 0.139 7.25 15.89 13.46
3/3/2023 9:00:00 AM 2.42 36.356 0.14 7.26 14.48 13.47
3/3/2023 9:15:00 AM 2.46 36.428 0.14 7.27 15.01 13.48
3/3/2023 9:30:00 AM 2.53 36.554 0.14 7.28 14.13 13.49
3/3/2023 9:45:00 AM 2.6 36.68 0.141 7.28 13.66 13.49
3/3/2023 10:00:00 AM 2.69 36.842 0.141 7.29 14.93 13.49
3/3/2023 10:15:00 AM 2.79 37.022 0.142 7.3 15.13 13.47
3/3/2023 10:30:00 AM 2.88 37.184 0.142 7.3 15.65 13.45
3/3/2023 10:45:00 AM 2.98 37.364 0.143 7.31 14.4 13.44
3/3/2023 11:00:00 AM 3.06 37.508 0.144 7.31 14.59 13.42
3/3/2023 11:15:00 AM 3.15 37.67 0.145 7.32 14.41 13.4
3/3/2023 11:30:00 AM 3.24 37.832 0.146 7.32 15.09 13.38
3/3/2023 11:45:00 AM 3.39 38.102 0.146 7.32 14.21 13.35
3/3/2023 12:00:00 PM 3.48 38.264 0.147 7.33 13.69 13.31
3/3/2023 12:15:00 PM 3.56 38.408 0.146 7.34 13.19 13.29
3/3/2023 12:30:00 PM 3.64 38.552 0.146 7.34 13.5 13.27
3/3/2023 12:45:00 PM 3.7 38.66 0.145 7.35 13.2 13.25
3/3/2023 1:00:00 PM 3.75 38.75 0.144 7.35 14.08 13.23
3/3/2023 1:15:00 PM 3.8 38.84 0.144 7.36 11.94 13.2
3/3/2023 1:30:00 PM 3.83 38.894 0.143 7.36 11.81 13.19
3/3/2023 1:45:00 PM 3.85 38.93 0.142 7.37 10.54 13.17
3/3/2023 2:00:00 PM 3.86 38.948 0.141 7.37 11.61 13.14
3/3/2023 2:15:00 PM 3.89 39.002 0.14 7.37 11.28 13.11
3/3/2023 2:30:00 PM 3.92 39.056 0.14 7.37 10.82 13.09
3/3/2023 2:45:00 PM 3.95 39.11 0.138 7.37 10.08 13.06
3/3/2023 3:00:00 PM 3.99 39.182 0.138 7.36 10.25 13.04
3/3/2023 3:15:00 PM 4.04 39.272 0.137 7.37 10.07 13.01
3/3/2023 3:30:00 PM 4.09 39.362 0.137 7.37 9.93 12.99
3/3/2023 3:45:00 PM 4.11 39.398 0.136 7.37 10.54 12.95
3/3/2023 4:00:00 PM 4.13 39.434 0.135 7.37 9.32 12.91
3/3/2023 4:15:00 PM 4.14 39.452 0.135 7.36 9.56 12.88
3/3/2023 4:30:00 PM 4.14 39.452 0.135 7.35 9.58 12.86
3/3/2023 4:45:00 PM 4.15 39.47 0.134 7.35 9.79 12.83
3/3/2023 5:00:00 PM 4.14 39.452 0.134 7.34 9.35 12.8
3/3/2023 5:15:00 PM 4.11 39.398 0.134 7.33 8.92 12.79
3/3/2023 5:30:00 PM 4.07 39.326 0.134 7.33 10.28 12.79
3/3/2023 5:45:00 PM 4.04 39.272 0.133 7.32 8.84 12.77
3/3/2023 6:00:00 PM 4 39.2 0.133 7.31 9.11 12.76
3/3/2023 6:15:00 PM 3.96 39.128 0.133 7.31 9.32 12.75
3/3/2023 6:30:00 PM 3.91 39.038 0.133 7.3 8.7 12.76
3/3/2023 6:45:00 PM 3.84 38.912 0.133 7.3 8.86 12.75
3/3/2023 7:00:00 PM 3.76 38.768 0.133 7.29 8.84 12.75
3/3/2023 7:15:00 PM 3.7 38.66 0.133 7.29 8.84 12.76
3/3/2023 7:30:00 PM 3.55 38.39 0.133 7.28 9.79 12.77
3/3/2023 7:45:00 PM 3.28 37.904 0.133 7.28 9.41 12.79
3/3/2023 8:00:00 PM 3.21 37.778 0.133 7.28 9.2 12.83
3/3/2023 8:15:00 PM 3.16 37.688 0.133 7.27 8.92 12.86
3/3/2023 8:30:00 PM 2.94 37.292 0.133 7.27 8.43 12.9
3/3/2023 8:45:00 PM 2.91 37.238 0.133 7.26 9.09 12.92
3/3/2023 9:00:00 PM 2.79 37.022 0.134 7.26 8.3 12.96
3/3/2023 9:15:00 PM 2.65 36.77 0.133 7.26 8.59 12.99
3/3/2023 9:30:00 PM 2.46 36.428 0.133 7.25 8.64 13.04
3/3/2023 9:45:00 PM 2.43 36.374 0.133 7.25 9.02 13.07
3/3/2023 10:00:00 PM 2.33 36.194 0.133 7.25 8.78 13.1
3/3/2023 10:15:00 PM 2.1 35.78 0.134 7.25 8.68 13.13
3/3/2023 10:30:00 PM 2 35.6 0.133 7.25 7.95 13.18
3/3/2023 10:45:00 PM 1.64 34.952 0.133 7.24 8.29 13.23
3/3/2023 11:00:00 PM 1.33 34.394 0.133 7.23 8.79 13.29
3/3/2023 11:15:00 PM 1.24 34.232 0.133 7.22 8.67 13.37
3/3/2023 11:30:00 PM 0.84 33.512 0.133 7.21 8.36 13.45
3/3/2023 11:45:00 PM 0.49 32.882 0.133 7.2 8.85 13.54
3/4/2023 12:00:00 AM 0.24 32.432 0.134 7.2 8.65 13.65
3/4/2023 12:15:00 AM 0.11 32.198 0.134 7.19 8.17 13.73
3/4/2023 12:30:00 AM 0 32 0.135 7.19 8.65 13.79
3/4/2023 12:45:00 AM -0.04 31.928 0.135 7.19 8.79 13.83
3/4/2023 1:00:00 AM -0.04 31.928 0.136 7.19 8.28 13.85
3/4/2023 1:15:00 AM -0.04 31.928 0.136 7.19 9.02 13.88
3/4/2023 1:30:00 AM -0.02 31.964 0.136 7.18 8.51 13.89
3/4/2023 1:45:00 AM 0.01 32.018 0.136 7.18 9.11 13.89
3/4/2023 2:00:00 AM 0.01 32.018 0.136 7.18 8.9 13.89
3/4/2023 2:15:00 AM 0.02 32.036 0.136 7.18 8.24 13.9
3/4/2023 2:30:00 AM 0.04 32.072 0.136 7.18 7.92 13.9
3/4/2023 2:45:00 AM 0.06 32.108 0.136 7.18 8.36 13.9
3/4/2023 3:00:00 AM 0.08 32.144 0.136 7.18 8.6 13.91
3/4/2023 3:15:00 AM 0.1 32.18 0.135 7.18 8.75 13.91
3/4/2023 3:30:00 AM 0.12 32.216 0.136 7.18 8.22 13.92
3/4/2023 3:45:00 AM 0.13 32.234 0.135 7.18 8.52 13.91
3/4/2023 4:00:00 AM 0.15 32.27 0.136 7.18 8.13 13.91
3/4/2023 4:15:00 AM 0.17 32.306 0.136 7.18 7.85 13.91
3/4/2023 4:30:00 AM 0.17 32.306 0.136 7.18 8.19 13.91
3/4/2023 4:45:00 AM 0.17 32.306 0.136 7.18 7.94 13.92
3/4/2023 5:00:00 AM 0.18 32.324 0.136 7.18 8.6 13.92
3/4/2023 5:15:00 AM 0.19 32.342 0.136 7.18 7.92 13.92
3/4/2023 5:30:00 AM 0.21 32.378 0.136 7.18 7.74 13.92
3/4/2023 5:45:00 AM 0.22 32.396 0.136 7.18 7.64 13.92
3/4/2023 6:00:00 AM 0.24 32.432 0.136 7.18 7.6 13.92
3/4/2023 6:15:00 AM 0.25 32.45 0.137 7.19 8.16 13.92
3/4/2023 6:30:00 AM 0.27 32.486 0.137 7.18 7.59 13.92
3/4/2023 6:45:00 AM 0.28 32.504 0.138 7.19 8.08 13.92
3/4/2023 7:00:00 AM 0.3 32.54 0.138 7.19 7.44 13.93
3/4/2023 7:15:00 AM 0.31 32.558 0.139 7.19 7.18 13.93
3/4/2023 7:30:00 AM 0.33 32.594 0.139 7.2 7.72 13.94
3/4/2023 7:45:00 AM 0.36 32.648 0.14 7.2 7.4 13.95
3/4/2023 8:00:00 AM 0.39 32.702 0.14 7.21 7.18 13.97
3/4/2023 8:15:00 AM 0.42 32.756 0.141 7.21 7.34 13.98
3/4/2023 8:30:00 AM 0.47 32.846 0.142 7.22 7.05 13.99
3/4/2023 8:45:00 AM 0.5 32.9 0.143 7.23 7.11 13.99
3/4/2023 9:00:00 AM 0.54 32.972 0.144 7.23 7.4 14
3/4/2023 9:15:00 AM 0.59 33.062 0.144 7.24 7.4 14
3/4/2023 9:30:00 AM 0.65 33.17 0.145 7.25 7.23 14
3/4/2023 9:45:00 AM 0.72 33.296 0.146 7.26 7.02 13.99
3/4/2023 10:00:00 AM 0.79 33.422 0.147 7.26 6.63 13.98
3/4/2023 10:15:00 AM 0.89 33.602 0.147 7.27 7.39 13.96
3/4/2023 10:30:00 AM 1 33.8 0.147 7.28 6.8 13.94
3/4/2023 10:45:00 AM 1.11 33.998 0.147 7.28 6.64 13.91
3/4/2023 11:00:00 AM 1.22 34.196 0.147 7.29 6.78 13.87
3/4/2023 11:15:00 AM 1.32 34.376 0.147 7.3 6.89 13.84
3/4/2023 11:30:00 AM 1.43 34.574 0.147 7.31 6.57 13.8
3/4/2023 11:45:00 AM 1.56 34.808 0.147 7.31 7.46 13.78
3/4/2023 12:00:00 PM 1.66 34.988 0.148 7.32 7.01 13.74
3/4/2023 12:15:00 PM 1.77 35.186 0.148 7.32 7.46 13.72
3/4/2023 12:30:00 PM 1.89 35.402 0.148 7.33 6.9 13.69
3/4/2023 12:45:00 PM 1.96 35.528 0.149 7.33 6.86 13.66
3/4/2023 1:00:00 PM 2.03 35.654 0.15 7.33 7.09 13.64
3/4/2023 1:15:00 PM 2.12 35.816 0.15 7.34 6.92 13.62
3/4/2023 1:30:00 PM 2.18 35.924 0.152 7.34 6.61 13.6
3/4/2023 1:45:00 PM 2.22 35.996 0.153 7.34 7 13.58
3/4/2023 2:00:00 PM 2.24 36.032 0.153 7.34 6.95 13.56
3/4/2023 2:15:00 PM 2.26 36.068 0.155 7.34 7.42 13.55
3/4/2023 2:30:00 PM 2.29 36.122 0.156 7.35 7.73 13.55
3/4/2023 2:45:00 PM 2.33 36.194 0.156 7.35 7.78 13.54
3/4/2023 3:00:00 PM 2.34 36.212 0.156 7.35 8.36 13.54
3/4/2023 3:15:00 PM 2.33 36.194 0.157 7.34 8.92 13.53
3/4/2023 3:30:00 PM 2.33 36.194 0.157 7.34 9.17 13.53
3/4/2023 3:45:00 PM 2.32 36.176 0.157 7.34 9.63 13.52
3/4/2023 4:00:00 PM 2.32 36.176 0.157 7.33 9.84 13.52
3/4/2023 4:15:00 PM 2.31 36.158 0.156 7.33 10.58 13.52
3/4/2023 4:30:00 PM 2.3 36.14 0.156 7.32 10.26 13.51
3/4/2023 4:45:00 PM 2.29 36.122 0.156 7.32 11.14 13.5
3/4/2023 5:00:00 PM 2.28 36.104 0.155 7.31 12.04 13.49
3/4/2023 5:15:00 PM 2.26 36.068 0.155 7.31 12.72 13.48
3/4/2023 5:30:00 PM 2.26 36.068 0.154 7.3 12.7 13.48
3/4/2023 5:45:00 PM 2.25 36.05 0.154 7.29 13.81 13.48
3/4/2023 6:00:00 PM 2.24 36.032 0.153 7.29 13.69 13.47
3/4/2023 6:15:00 PM 2.22 35.996 0.153 7.28 14.67 13.46
3/4/2023 6:30:00 PM 2.21 35.978 0.153 7.27 13.88 13.46
3/4/2023 6:45:00 PM 2.19 35.942 0.154 7.27 14.91 13.46
3/4/2023 7:00:00 PM 2.17 35.906 0.154 7.26 14.53 13.46
3/4/2023 7:15:00 PM 2.15 35.87 0.156 7.26 14.91 13.46
3/4/2023 7:30:00 PM 2.13 35.834 0.156 7.25 14.89 13.47
3/4/2023 7:45:00 PM 2.11 35.798 0.157 7.25 15.9 13.47
3/4/2023 8:00:00 PM 2.08 35.744 0.158 7.25 15.24 13.49
3/4/2023 8:15:00 PM 2.06 35.708 0.159 7.24 14.68 13.49
3/4/2023 8:30:00 PM 2.04 35.672 0.159 7.24 15.38 13.5
3/4/2023 8:45:00 PM 2.01 35.618 0.159 7.24 15.99 13.51
3/4/2023 9:00:00 PM 1.99 35.582 0.159 7.23 14.99 13.52
3/4/2023 9:15:00 PM 1.97 35.546 0.159 7.23 15.4 13.53
3/4/2023 9:30:00 PM 1.96 35.528 0.16 7.23 15.66 13.53
3/4/2023 9:45:00 PM 1.94 35.492 0.16 7.23 17.6 13.54
3/4/2023 10:00:00 PM 1.93 35.474 0.16 7.22 15.53 13.54
3/4/2023 10:15:00 PM 1.91 35.438 0.16 7.22 19.74 13.55
3/4/2023 10:30:00 PM 1.9 35.42 0.16 7.22 16.09 13.56
3/4/2023 10:45:00 PM 1.88 35.384 0.16 7.22 14.28 13.56
3/4/2023 11:00:00 PM 1.86 35.348 0.16 7.22 16.3 13.57
3/4/2023 11:15:00 PM 1.85 35.33 0.16 7.21 15.5 13.58
3/4/2023 11:30:00 PM 1.83 35.294 0.159 7.21 15.47 13.58
3/4/2023 11:45:00 PM 1.82 35.276 0.159 7.21 15.32 13.59
3/5/2023 12:00:00 AM 1.81 35.258 0.158 7.2 15.04 13.59
3/5/2023 12:15:00 AM 1.8 35.24 0.158 7.21 14.76 13.6
3/5/2023 12:30:00 AM 1.79 35.222 0.157 7.2 14.63 13.6
3/5/2023 12:45:00 AM 1.78 35.204 0.157 7.2 14.93 13.6
3/5/2023 1:00:00 AM 1.77 35.186 0.157 7.2 14.43 13.61
3/5/2023 1:15:00 AM 1.77 35.186 0.157 7.2 13.17 13.61
3/5/2023 1:30:00 AM 1.76 35.168 0.157 7.19 13.65 13.62
3/5/2023 1:45:00 AM 1.75 35.15 0.157 7.2 15.17 13.62
3/5/2023 2:00:00 AM 1.75 35.15 0.156 7.19 15.15 13.62
3/5/2023 2:15:00 AM 1.74 35.132 0.157 7.19 14.14 13.62
3/5/2023 2:30:00 AM 1.72 35.096 0.157 7.19 15.09 13.62
3/5/2023 2:45:00 AM 1.7 35.06 0.157 7.19 15.06 13.63
3/5/2023 3:00:00 AM 1.69 35.042 0.156 7.19 15.17 13.64
3/5/2023 3:15:00 AM 1.67 35.006 0.156 7.19 14.66 13.65
3/5/2023 3:30:00 AM 1.66 34.988 0.156 7.18 15.01 13.65
3/5/2023 3:45:00 AM 1.65 34.97 0.155 7.18 14.53 13.66
3/5/2023 4:00:00 AM 1.62 34.916 0.155 7.18 15.99 13.66
3/5/2023 4:15:00 AM 1.61 34.898 0.154 7.18 13.78 13.67
3/5/2023 4:30:00 AM 1.58 34.844 0.154 7.18 14.68 13.68
3/5/2023 4:45:00 AM 1.56 34.808 0.153 7.18 14.47 13.69
3/5/2023 5:00:00 AM 1.54 34.772 0.152 7.18 14.64 13.69
3/5/2023 5:15:00 AM 1.52 34.736 0.152 7.18 14.55 13.7
3/5/2023 5:30:00 AM 1.51 34.718 0.152 7.18 13.86 13.71
3/5/2023 5:45:00 AM 1.5 34.7 0.152 7.17 13.53 13.71
3/5/2023 6:00:00 AM 1.49 34.682 0.152 7.18 13.61 13.71
3/5/2023 6:15:00 AM 1.49 34.682 0.152 7.18 13.57 13.72
3/5/2023 6:30:00 AM 1.48 34.664 0.152 7.17 13.4 13.72
3/5/2023 6:45:00 AM 1.48 34.664 0.152 7.17 12.76 13.73
3/5/2023 7:00:00 AM 1.47 34.646 0.153 7.17 12.71 13.74
3/5/2023 7:15:00 AM 1.48 34.664 0.153 7.17 13.48 13.75
3/5/2023 7:30:00 AM 1.48 34.664 0.153 7.18 12.93 13.76
3/5/2023 7:45:00 AM 1.48 34.664 0.154 7.18 11.96 13.77
3/5/2023 8:00:00 AM 1.49 34.682 0.154 7.18 12.66 13.78
3/5/2023 8:15:00 AM 1.5 34.7 0.154 7.18 12.22 13.79
3/5/2023 8:30:00 AM 1.52 34.736 0.154 7.19 11.76 13.81
3/5/2023 8:45:00 AM 1.55 34.79 0.154 7.2 11.41 13.82
3/5/2023 9:00:00 AM 1.58 34.844 0.155 7.2 11.63 13.84
3/5/2023 9:15:00 AM 1.62 34.916 0.155 7.21 11.93 13.84
3/5/2023 9:30:00 AM 1.67 35.006 0.155 7.21 10.61 13.85
3/5/2023 9:45:00 AM 1.73 35.114 0.155 7.22 10.51 13.85
3/5/2023 10:00:00 AM 1.8 35.24 0.155 7.22 10.67 13.84
3/5/2023 10:15:00 AM 1.85 35.33 0.155 7.23 10.03 13.83
3/5/2023 10:30:00 AM 1.86 35.348 0.155 7.23 10.71 13.83
3/5/2023 10:45:00 AM 1.89 35.402 0.155 7.24 10.3 13.82
3/5/2023 11:00:00 AM 1.94 35.492 0.155 7.24 10.59 13.82
3/5/2023 11:15:00 AM 2.01 35.618 0.154 7.25 10.37 13.8
3/5/2023 11:30:00 AM 2.07 35.726 0.155 7.25 9.73 13.8
3/5/2023 11:45:00 AM 2.12 35.816 0.154 7.26 10.06 13.78
3/5/2023 12:00:00 PM 2.17 35.906 0.154 7.26 9.43 13.77
3/5/2023 12:15:00 PM 2.23 36.014 0.154 7.26 9.65 13.75
3/5/2023 12:30:00 PM 2.3 36.14 0.153 7.27 9.64 13.74
3/5/2023 12:45:00 PM 2.42 36.356 0.153 7.27 9.44 13.71
3/5/2023 1:00:00 PM 2.48 36.464 0.153 7.27 9.33 13.67
3/5/2023 1:15:00 PM 2.5 36.5 0.152 7.28 9.09 13.65
3/5/2023 1:30:00 PM 2.52 36.536 0.152 7.27 9.74 13.64
3/5/2023 1:45:00 PM 2.56 36.608 0.152 7.28 9.22 13.63
3/5/2023 2:00:00 PM 2.62 36.716 0.152 7.28 9.55 13.61
3/5/2023 2:15:00 PM 2.67 36.806 0.152 7.28 9.04 13.59
3/5/2023 2:30:00 PM 2.74 36.932 0.151 7.29 8.89 13.57
3/5/2023 2:45:00 PM 2.78 37.004 0.152 7.29 8.83 13.55
3/5/2023 3:00:00 PM 2.82 37.076 0.152 7.29 9.37 13.53
3/5/2023 3:15:00 PM 2.85 37.13 0.152 7.29 8.35 13.51
3/5/2023 3:30:00 PM 2.87 37.166 0.151 7.29 8.5 13.49
3/5/2023 3:45:00 PM 2.89 37.202 0.152 7.29 8.79 13.47
3/5/2023 4:00:00 PM 2.92 37.256 0.151 7.28 8.9 13.44
3/5/2023 4:15:00 PM 2.95 37.31 0.151 7.28 8.76 13.43
3/5/2023 4:30:00 PM 2.99 37.382 0.152 7.28 9.33 13.41
3/5/2023 4:45:00 PM 3.02 37.436 0.151 7.28 9.2 13.39
3/5/2023 5:00:00 PM 3.04 37.472 0.151 7.28 9.33 13.36
3/5/2023 5:15:00 PM 3.07 37.526 0.151 7.28 9.78 13.34
3/5/2023 5:30:00 PM 3.09 37.562 0.151 7.27 9.43 13.31
3/5/2023 5:45:00 PM 3.1 37.58 0.151 7.26 9.84 13.28
3/5/2023 6:00:00 PM 3.11 37.598 0.15 7.26 10 13.27
3/5/2023 6:15:00 PM 3.1 37.58 0.15 7.25 10.31 13.25
3/5/2023 6:30:00 PM 3.08 37.544 0.149 7.25 11.12 13.25
3/5/2023 6:45:00 PM 3.06 37.508 0.149 7.24 11.3 13.25
3/5/2023 7:00:00 PM 3.05 37.49 0.148 7.23 11.5 13.24
3/5/2023 7:15:00 PM 3.02 37.436 0.147 7.23 11.48 13.25
3/5/2023 7:30:00 PM 3 37.4 0.147 7.23 11.44 13.25
3/5/2023 7:45:00 PM 2.98 37.364 0.147 7.22 11.16 13.26
3/5/2023 8:00:00 PM 2.95 37.31 0.147 7.22 11.74 13.27
3/5/2023 8:15:00 PM 2.93 37.274 0.147 7.22 11.15 13.27
3/5/2023 8:30:00 PM 2.91 37.238 0.147 7.21 11.08 13.28
3/5/2023 8:45:00 PM 2.9 37.22 0.147 7.21 11 13.28
3/5/2023 9:00:00 PM 2.88 37.184 0.148 7.21 11.5 13.28
3/5/2023 9:15:00 PM 2.87 37.166 0.147 7.2 11.19 13.28
3/5/2023 9:30:00 PM 2.85 37.13 0.147 7.2 11.71 13.29
3/5/2023 9:45:00 PM 2.83 37.094 0.147 7.2 11 13.3
3/5/2023 10:00:00 PM 2.81 37.058 0.147 7.2 10.89 13.3
3/5/2023 10:15:00 PM 2.79 37.022 0.148 7.2 11.16 13.3
3/5/2023 10:30:00 PM 2.77 36.986 0.147 7.2 10.83 13.31
3/5/2023 10:45:00 PM 2.76 36.968 0.148 7.2 11.23 13.31
3/5/2023 11:00:00 PM 2.74 36.932 0.148 7.2 10.76 13.32
3/5/2023 11:15:00 PM 2.72 36.896 0.148 7.19 11.09 13.33
3/5/2023 11:30:00 PM 2.71 36.878 0.147 7.2 11.03 13.33
3/5/2023 11:45:00 PM 2.69 36.842 0.148 7.19 10.76 13.33
3/6/2023 12:00:00 AM 2.68 36.824 0.148 7.19 11 13.33
3/6/2023 12:15:00 AM 2.66 36.788 0.147 7.19 10.83 13.34
3/6/2023 12:30:00 AM 2.65 36.77 0.147 7.19 10.86 13.34
3/6/2023 12:45:00 AM 2.63 36.734 0.147 7.19 11.07 13.35
3/6/2023 1:00:00 AM 2.62 36.716 0.146 7.18 10.09 13.35
3/6/2023 1:15:00 AM 2.61 36.698 0.146 7.18 10.4 13.36
3/6/2023 1:30:00 AM 2.6 36.68 0.146 7.19 10.01 13.36
3/6/2023 1:45:00 AM 2.59 36.662 0.145 7.18 10.26 13.37
3/6/2023 2:00:00 AM 2.57 36.626 0.145 7.18 10.39 13.37
3/6/2023 2:15:00 AM 2.54 36.572 0.145 7.18 10.16 13.37
3/6/2023 2:30:00 AM 2.51 36.518 0.144 7.18 10.3 13.39
3/6/2023 2:45:00 AM 2.49 36.482 0.144 7.18 10.54 13.39
3/6/2023 3:00:00 AM 2.46 36.428 0.144 7.18 9.95 13.4
3/6/2023 3:15:00 AM 2.43 36.374 0.144 7.18 10.24 13.4
3/6/2023 3:30:00 AM 2.4 36.32 0.143 7.18 10.75 13.41
3/6/2023 3:45:00 AM 2.38 36.284 0.143 7.18 10.12 13.42
3/6/2023 4:00:00 AM 2.35 36.23 0.143 7.17 10.24 13.43
3/6/2023 4:15:00 AM 2.32 36.176 0.143 7.18 10.31 13.44
3/6/2023 4:30:00 AM 2.3 36.14 0.143 7.17 10.26 13.45
3/6/2023 4:45:00 AM 2.28 36.104 0.143 7.17 10.15 13.45
3/6/2023 5:00:00 AM 2.25 36.05 0.142 7.17 10.03 13.46
3/6/2023 5:15:00 AM 2.22 35.996 0.142 7.17 9.86 13.47
3/6/2023 5:30:00 AM 2.2 35.96 0.142 7.17 9.51 13.48
3/6/2023 5:45:00 AM 2.18 35.924 0.142 7.17 9.43 13.49
3/6/2023 6:00:00 AM 2.15 35.87 0.141 7.17 9.52 13.5
3/6/2023 6:15:00 AM 2.13 35.834 0.141 7.17 9.68 13.51
3/6/2023 6:30:00 AM 2.1 35.78 0.141 7.16 9.27 13.52
3/6/2023 6:45:00 AM 2.09 35.762 0.141 7.17 9.61 13.53
3/6/2023 7:00:00 AM 2.08 35.744 0.141 7.17 9.38 13.54
3/6/2023 7:15:00 AM 2.07 35.726 0.141 7.17 8.98 13.55
3/6/2023 7:30:00 AM 2.08 35.744 0.141 7.17 9.02 13.58
3/6/2023 7:45:00 AM 2.08 35.744 0.141 7.18 9.02 13.59
3/6/2023 8:00:00 AM 2.09 35.762 0.141 7.18 9.03 13.61
3/6/2023 8:15:00 AM 2.11 35.798 0.141 7.19 9.11 13.62
3/6/2023 8:30:00 AM 2.16 35.888 0.141 7.19 8.57 13.63
3/6/2023 8:45:00 AM 2.2 35.96 0.141 7.2 8.56 13.64
3/6/2023 9:00:00 AM 2.24 36.032 0.141 7.21 8.15 13.65
3/6/2023 9:15:00 AM 2.27 36.086 0.141 7.21 8.1 13.65
3/6/2023 9:30:00 AM 2.3 36.14 0.141 7.22 8.14 13.66
3/6/2023 9:45:00 AM 2.33 36.194 0.141 7.23 8.18 13.66
3/6/2023 10:00:00 AM 2.35 36.23 0.141 7.23 8.35 13.65
3/6/2023 10:15:00 AM 2.4 36.32 0.141 7.23 8.16 13.66
3/6/2023 10:30:00 AM 2.46 36.428 0.141 7.24 8.18 13.65
3/6/2023 10:45:00 AM 2.53 36.554 0.141 7.24 7.77 13.65
3/6/2023 11:00:00 AM 2.57 36.626 0.141 7.25 7.38 13.63
3/6/2023 11:15:00 AM 2.65 36.77 0.142 7.25 7.39 13.62
3/6/2023 11:30:00 AM 2.76 36.968 0.142 7.26 7.23 13.6
3/6/2023 11:45:00 AM 2.92 37.256 0.141 7.27 7.37 13.57
3/6/2023 12:00:00 PM 3 37.4 0.141 7.27 7.09 13.55
3/6/2023 12:15:00 PM 3.06 37.508 0.141 7.28 7.21 13.53
3/6/2023 12:30:00 PM 3.1 37.58 0.141 7.28 6.93 13.51
3/6/2023 12:45:00 PM 3.2 37.76 0.141 7.29 6.69 13.48
3/6/2023 1:00:00 PM 3.3 37.94 0.14 7.29 6.97 13.45
3/6/2023 1:15:00 PM 3.38 38.084 0.14 7.3 6.64 13.43
3/6/2023 1:30:00 PM 3.46 38.228 0.139 7.3 6.98 13.39
3/6/2023 1:45:00 PM 3.51 38.318 0.139 7.3 6.7 13.38
3/6/2023 2:00:00 PM 3.56 38.408 0.139 7.31 6.48 13.36
3/6/2023 2:15:00 PM 3.62 38.516 0.138 7.31 6.66 13.34
3/6/2023 2:30:00 PM 3.72 38.696 0.138 7.32 6.91 13.3
3/6/2023 2:45:00 PM 3.81 38.858 0.138 7.31 6.71 13.26
3/6/2023 3:00:00 PM 3.89 39.002 0.138 7.32 6.95 13.24
3/6/2023 3:15:00 PM 3.91 39.038 0.138 7.32 6.94 13.21
3/6/2023 3:30:00 PM 3.91 39.038 0.138 7.31 6.93 13.18
3/6/2023 3:45:00 PM 3.93 39.074 0.138 7.31 6.73 13.17
3/6/2023 4:00:00 PM 3.94 39.092 0.137 7.31 6.71 13.14
3/6/2023 4:15:00 PM 3.92 39.056 0.137 7.31 6.92 13.12
3/6/2023 4:30:00 PM 3.92 39.056 0.137 7.31 7.28 13.11
3/6/2023 4:45:00 PM 3.94 39.092 0.137 7.31 6.77 13.09
3/6/2023 5:00:00 PM 3.96 39.128 0.137 7.3 7.12 13.07
3/6/2023 5:15:00 PM 3.96 39.128 0.136 7.3 7.13 13.03
3/6/2023 5:30:00 PM 3.96 39.128 0.136 7.29 6.98 13
3/6/2023 5:45:00 PM 3.96 39.128 0.136 7.28 6.69 12.97
3/6/2023 6:00:00 PM 3.96 39.128 0.136 7.27 7.18 12.94
3/6/2023 6:15:00 PM 3.96 39.128 0.136 7.26 6.72 12.92
3/6/2023 6:30:00 PM 3.94 39.092 0.136 7.26 7.04 12.91
3/6/2023 6:45:00 PM 3.91 39.038 0.136 7.25 6.93 12.9
3/6/2023 7:00:00 PM 3.88 38.984 0.136 7.24 6.83 12.89
3/6/2023 7:15:00 PM 3.85 38.93 0.135 7.23 7.2 12.89
3/6/2023 7:30:00 PM 3.81 38.858 0.135 7.23 7.09 12.9
3/6/2023 7:45:00 PM 3.78 38.804 0.135 7.22 7.25 12.9
3/6/2023 8:00:00 PM 3.75 38.75 0.135 7.22 7.32 12.9
3/6/2023 8:15:00 PM 3.7 38.66 0.135 7.22 7.63 12.91
3/6/2023 8:30:00 PM 3.66 38.588 0.134 7.21 7 12.92
3/6/2023 8:45:00 PM 3.62 38.516 0.134 7.21 7.03 12.92
3/6/2023 9:00:00 PM 3.59 38.462 0.134 7.21 7.14 12.92
3/6/2023 9:15:00 PM 3.55 38.39 0.134 7.2 6.59 12.93
3/6/2023 9:30:00 PM 3.52 38.336 0.134 7.2 7.03 12.94
3/6/2023 9:45:00 PM 3.48 38.264 0.134 7.2 6.79 12.94
3/6/2023 10:00:00 PM 3.45 38.21 0.134 7.2 6.71 12.95
3/6/2023 10:15:00 PM 3.43 38.174 0.133 7.19 6.38 12.95
3/6/2023 10:30:00 PM 3.4 38.12 0.133 7.19 6.89 12.96
3/6/2023 10:45:00 PM 3.38 38.084 0.134 7.19 7.14 12.96
3/6/2023 11:00:00 PM 3.35 38.03 0.133 7.2 6.55 12.97
3/6/2023 11:15:00 PM 3.32 37.976 0.133 7.2 6.42 12.98
3/6/2023 11:30:00 PM 3.28 37.904 0.133 7.2 6.37 12.99
3/6/2023 11:45:00 PM 3.25 37.85 0.133 7.19 6.37 13
3/7/2023 12:00:00 AM 3.22 37.796 0.133 7.19 6.35 13.01
3/7/2023 12:15:00 AM 3.17 37.706 0.133 7.19 6.63 13.02
3/7/2023 12:30:00 AM 3.11 37.598 0.132 7.19 6.75 13.03
3/7/2023 12:45:00 AM 3.07 37.526 0.132 7.19 6.46 13.04
3/7/2023 1:00:00 AM 3.01 37.418 0.132 7.19 6.33 13.05
3/7/2023 1:15:00 AM 2.94 37.292 0.132 7.19 6.45 13.07
3/7/2023 1:30:00 AM 2.89 37.202 0.132 7.19 6 13.09
3/7/2023 1:45:00 AM 2.86 37.148 0.132 7.19 6.14 13.1
3/7/2023 2:00:00 AM 2.84 37.112 0.132 7.19 6.27 13.1
3/7/2023 2:15:00 AM 2.83 37.094 0.132 7.18 6.32 13.1
3/7/2023 2:30:00 AM 2.82 37.076 0.132 7.18 6.36 13.11
3/7/2023 2:45:00 AM 2.81 37.058 0.132 7.19 6.37 13.11
3/7/2023 3:00:00 AM 2.8 37.04 0.132 7.19 6.47 13.12
3/7/2023 3:15:00 AM 2.79 37.022 0.131 7.18 6.19 13.12
3/7/2023 3:30:00 AM 2.79 37.022 0.131 7.18 6.29 13.12
3/7/2023 3:45:00 AM 2.79 37.022 0.131 7.19 6.17 13.11
3/7/2023 4:00:00 AM 2.79 37.022 0.131 7.18 6.53 13.11
3/7/2023 4:15:00 AM 2.78 37.004 0.131 7.18 6.44 13.12
3/7/2023 4:30:00 AM 2.76 36.968 0.131 7.18 6.12 13.12
3/7/2023 4:45:00 AM 2.76 36.968 0.131 7.18 6.39 13.12
3/7/2023 5:00:00 AM 2.76 36.968 0.131 7.18 6.27 13.12
3/7/2023 5:15:00 AM 2.75 36.95 0.131 7.18 6.62 13.13
3/7/2023 5:30:00 AM 2.74 36.932 0.131 7.18 6.5 13.13
3/7/2023 5:45:00 AM 2.73 36.914 0.131 7.17 6.33 13.14
3/7/2023 6:00:00 AM 2.71 36.878 0.131 7.18 6.65 13.14
3/7/2023 6:15:00 AM 2.69 36.842 0.13 7.18 6.92 13.14
3/7/2023 6:30:00 AM 2.67 36.806 0.13 7.18 6.55 13.15
3/7/2023 6:45:00 AM 2.64 36.752 0.13 7.18 6.83 13.17
3/7/2023 7:00:00 AM 2.63 36.734 0.13 7.18 6.35 13.19
3/7/2023 7:15:00 AM 2.62 36.716 0.13 7.18 6.9 13.21
3/7/2023 7:30:00 AM 2.6 36.68 0.13 7.19 6.8 13.23
3/7/2023 7:45:00 AM 2.59 36.662 0.13 7.19 6.54 13.25
3/7/2023 8:00:00 AM 2.6 36.68 0.13 7.2 6.61 13.27
3/7/2023 8:15:00 AM 2.61 36.698 0.13 7.21 6.57 13.3
3/7/2023 8:30:00 AM 2.63 36.734 0.13 7.21 6.21 13.31
3/7/2023 8:45:00 AM 2.64 36.752 0.13 7.22 6.33 13.32
3/7/2023 9:00:00 AM 2.68 36.824 0.13 7.22 6.69 13.33
3/7/2023 9:15:00 AM 2.73 36.914 0.13 7.23 6.48 13.34
3/7/2023 9:30:00 AM 2.77 36.986 0.13 7.23 6.19 13.35
3/7/2023 9:45:00 AM 2.81 37.058 0.13 7.23 6.37 13.35
3/7/2023 10:00:00 AM 2.86 37.148 0.13 7.24 6.11 13.36
3/7/2023 10:15:00 AM 2.93 37.274 0.13 7.24 6.19 13.35
3/7/2023 10:30:00 AM 3.02 37.436 0.129 7.25 6.16 13.34
3/7/2023 10:45:00 AM 3.09 37.562 0.129 7.25 5.84 13.33
3/7/2023 11:00:00 AM 3.17 37.706 0.129 7.26 5.99 13.32
3/7/2023 11:15:00 AM 3.26 37.868 0.13 7.26 5.92 13.31
3/7/2023 11:30:00 AM 3.37 38.066 0.13 7.27 5.94 13.28
3/7/2023 11:45:00 AM 3.47 38.246 0.129 7.27 6.16 13.26
3/7/2023 12:00:00 PM 3.59 38.462 0.129 7.28 6.75 13.24
3/7/2023 12:15:00 PM 3.71 38.678 0.129 7.29 5.91 13.21
3/7/2023 12:30:00 PM 3.82 38.876 0.128 7.29 5.72 13.18
3/7/2023 12:45:00 PM 3.92 39.056 0.129 7.29 5.92 13.15
3/7/2023 1:00:00 PM 4 39.2 0.129 7.3 5.73 13.13
3/7/2023 1:15:00 PM 4.07 39.326 0.128 7.3 5.93 13.1
3/7/2023 1:30:00 PM 4.17 39.506 0.128 7.31 5.54 13.08
3/7/2023 1:45:00 PM 4.26 39.668 0.128 7.31 5.83 13.04
3/7/2023 2:00:00 PM 4.32 39.776 0.128 7.32 5.71 13.02
3/7/2023 2:15:00 PM 4.4 39.92 0.128 7.32 5.47 13
3/7/2023 2:30:00 PM 4.49 40.082 0.128 7.32 5.61 12.98
3/7/2023 2:45:00 PM 4.54 40.172 0.127 7.33 5.7 12.94
3/7/2023 3:00:00 PM 4.57 40.226 0.127 7.33 5.65 12.92
3/7/2023 3:15:00 PM 4.59 40.262 0.127 7.33 5.57 12.91
3/7/2023 3:30:00 PM 4.6 40.28 0.127 7.34 5.63 12.89
3/7/2023 3:45:00 PM 4.61 40.298 0.127 7.33 5.36 12.88
3/7/2023 4:00:00 PM 4.62 40.316 0.127 7.34 5.67 12.86
3/7/2023 4:15:00 PM 4.65 40.37 0.127 7.34 5.4 12.84
3/7/2023 4:30:00 PM 4.66 40.388 0.127 7.34 5.55 12.83
3/7/2023 4:45:00 PM 4.65 40.37 0.127 7.33 5.53 12.82
3/7/2023 5:00:00 PM 4.6 40.28 0.127 7.33 5.61 12.82
3/7/2023 5:15:00 PM 4.54 40.172 0.127 7.32 5.44 12.81
3/7/2023 5:30:00 PM 4.47 40.046 0.127 7.31 5.73 12.8
3/7/2023 5:45:00 PM 4.4 39.92 0.127 7.3 5.36 12.8
3/7/2023 6:00:00 PM 4.31 39.758 0.127 7.29 5.68 12.8
3/7/2023 6:15:00 PM 4.22 39.596 0.127 7.28 5.61 12.81
3/7/2023 6:30:00 PM 4.12 39.416 0.127 7.27 5.68 12.83
3/7/2023 6:45:00 PM 4.02 39.236 0.127 7.26 5.89 12.85
3/7/2023 7:00:00 PM 3.94 39.092 0.127 7.25 5.88 12.86
3/7/2023 7:15:00 PM 3.86 38.948 0.127 7.25 5.73 12.88
3/7/2023 7:30:00 PM 3.8 38.84 0.127 7.24 6.07 12.89
3/7/2023 7:45:00 PM 3.74 38.732 0.127 7.24 5.91 12.91
3/7/2023 8:00:00 PM 3.68 38.624 0.127 7.24 5.86 12.92
3/7/2023 8:15:00 PM 3.61 38.498 0.127 7.23 5.88 12.93
3/7/2023 8:30:00 PM 3.55 38.39 0.127 7.23 5.82 12.95
3/7/2023 8:45:00 PM 3.49 38.282 0.127 7.22 5.61 12.97
3/7/2023 9:00:00 PM 3.44 38.192 0.127 7.22 5.64 12.98
3/7/2023 9:15:00 PM 3.38 38.084 0.127 7.21 5.73 13
3/7/2023 9:30:00 PM 3.32 37.976 0.127 7.21 5.45 13.02
3/7/2023 9:45:00 PM 3.27 37.886 0.127 7.21 5.41 13.04
3/7/2023 10:00:00 PM 3.2 37.76 0.127 7.21 5.6 13.07
3/7/2023 10:15:00 PM 3.14 37.652 0.127 7.2 5.55 13.09
3/7/2023 10:30:00 PM 3.08 37.544 0.127 7.2 5.41 13.11
3/7/2023 10:45:00 PM 3.02 37.436 0.127 7.2 5.57 13.13
3/7/2023 11:00:00 PM 2.96 37.328 0.127 7.2 5.5 13.15
3/7/2023 11:15:00 PM 2.91 37.238 0.127 7.2 5.23 13.17
3/7/2023 11:30:00 PM 2.87 37.166 0.127 7.2 5.33 13.19
3/7/2023 11:45:00 PM 2.83 37.094 0.127 7.19 5.6 13.2
3/8/2023 12:00:00 AM 2.78 37.004 0.127 7.19 5.24 13.22
3/8/2023 12:15:00 AM 2.74 36.932 0.128 7.19 5.26 13.23
3/8/2023 12:30:00 AM 2.69 36.842 0.127 7.19 5.52 13.25
3/8/2023 12:45:00 AM 2.66 36.788 0.127 7.19 5.18 13.27
3/8/2023 1:00:00 AM 2.62 36.716 0.128 7.19 5.34 13.28
3/8/2023 1:15:00 AM 2.59 36.662 0.127 7.19 5.42 13.29
3/8/2023 1:30:00 AM 2.56 36.608 0.127 7.19 5.25 13.31
3/8/2023 1:45:00 AM 2.52 36.536 0.127 7.19 5.46 13.32
3/8/2023 2:00:00 AM 2.5 36.5 0.127 7.19 5.14 13.33
3/8/2023 2:15:00 AM 2.47 36.446 0.127 7.19 5.23 13.33
3/8/2023 2:30:00 AM 2.45 36.41 0.127 7.19 5.44 13.34
3/8/2023 2:45:00 AM 2.42 36.356 0.127 7.19 5.01 13.36
3/8/2023 3:00:00 AM 2.4 36.32 0.127 7.19 4.88 13.36
3/8/2023 3:15:00 AM 2.38 36.284 0.127 7.19 5.04 13.38
3/8/2023 3:30:00 AM 2.36 36.248 0.127 7.19 4.84 13.39
3/8/2023 3:45:00 AM 2.33 36.194 0.127 7.19 4.76 13.4
3/8/2023 4:00:00 AM 2.31 36.158 0.127 7.19 5.1 13.41
3/8/2023 4:15:00 AM 2.3 36.14 0.127 7.19 4.71 13.41
3/8/2023 4:30:00 AM 2.28 36.104 0.127 7.19 4.55 13.42
3/8/2023 4:45:00 AM 2.26 36.068 0.127 7.19 5.21 13.43
3/8/2023 5:00:00 AM 2.23 36.014 0.127 7.19 5.09 13.44
3/8/2023 5:15:00 AM 2.21 35.978 0.126 7.19 5.08 13.45
3/8/2023 5:30:00 AM 2.19 35.942 0.127 7.19 4.84 13.46
3/8/2023 5:45:00 AM 2.17 35.906 0.126 7.19 5.13 13.46
3/8/2023 6:00:00 AM 2.15 35.87 0.126 7.19 4.55 13.47
3/8/2023 6:15:00 AM 2.13 35.834 0.126 7.19 4.72 13.48
3/8/2023 6:30:00 AM 2.11 35.798 0.126 7.19 4.79 13.49
3/8/2023 6:45:00 AM 2.09 35.762 0.126 7.19 4.51 13.5
3/8/2023 7:00:00 AM 2.08 35.744 0.126 7.19 4.73 13.51
3/8/2023 7:15:00 AM 2.07 35.726 0.126 7.19 4.46 13.53
3/8/2023 7:30:00 AM 2.07 35.726 0.126 7.2 4.38 13.56
3/8/2023 7:45:00 AM 2.07 35.726 0.126 7.21 4.56 13.58
3/8/2023 8:00:00 AM 2.07 35.726 0.126 7.22 4.48 13.61
3/8/2023 8:15:00 AM 2.09 35.762 0.126 7.22 4.63 13.63
3/8/2023 8:30:00 AM 2.1 35.78 0.126 7.23 4.42 13.66
3/8/2023 8:45:00 AM 2.12 35.816 0.126 7.23 4.55 13.68
3/8/2023 9:00:00 AM 2.13 35.834 0.125 7.24 4.26 13.7
3/8/2023 9:15:00 AM 2.16 35.888 0.126 7.25 4.39 13.72
3/8/2023 9:30:00 AM 2.2 35.96 0.125 7.26 4.28 13.73
3/8/2023 9:45:00 AM 2.26 36.068 0.125 7.27 4.11 13.74
3/8/2023 10:00:00 AM 2.31 36.158 0.125 7.27 4.22 13.74
3/8/2023 10:15:00 AM 2.34 36.212 0.125 7.28 4.37 13.74
3/8/2023 10:30:00 AM 2.37 36.266 0.125 7.28 4.06 13.75
3/8/2023 10:45:00 AM 2.4 36.32 0.125 7.29 3.98 13.75
3/8/2023 11:00:00 AM 2.45 36.41 0.125 7.3 4.15 13.75
3/8/2023 11:15:00 AM 2.51 36.518 0.125 7.29 3.86 13.74
3/8/2023 11:30:00 AM 2.6 36.68 0.125 7.3 3.95 13.73
3/8/2023 11:45:00 AM 2.67 36.806 0.125 7.31 3.82 13.72
3/8/2023 12:00:00 PM 2.72 36.896 0.125 7.31 4.26 13.71
3/8/2023 12:15:00 PM 2.78 37.004 0.125 7.32 3.76 13.7
3/8/2023 12:30:00 PM 2.84 37.112 0.124 7.32 4.02 13.68
3/8/2023 12:45:00 PM 2.91 37.238 0.125 7.33 3.98 13.67
3/8/2023 1:00:00 PM 3.01 37.418 0.124 7.33 3.7 13.64
3/8/2023 1:15:00 PM 3.1 37.58 0.124 7.34 3.89 13.62
3/8/2023 1:30:00 PM 3.16 37.688 0.124 7.34 3.77 13.59
3/8/2023 1:45:00 PM 3.19 37.742 0.124 7.35 4 13.58
3/8/2023 2:00:00 PM 3.22 37.796 0.124 7.35 3.76 13.56
3/8/2023 2:15:00 PM 3.26 37.868 0.124 7.35 3.73 13.55
3/8/2023 2:30:00 PM 3.32 37.976 0.124 7.35 3.7 13.53
3/8/2023 2:45:00 PM 3.38 38.084 0.124 7.35 3.73 13.5
3/8/2023 3:00:00 PM 3.47 38.246 0.124 7.36 3.95 13.48
3/8/2023 3:15:00 PM 3.54 38.372 0.124 7.36 4.21 13.45
3/8/2023 3:30:00 PM 3.57 38.426 0.124 7.37 3.82 13.43
3/8/2023 3:45:00 PM 3.57 38.426 0.124 7.37 3.71 13.41
3/8/2023 4:00:00 PM 3.56 38.408 0.124 7.37 3.67 13.41
3/8/2023 4:15:00 PM 3.56 38.408 0.124 7.37 3.46 13.4
3/8/2023 4:30:00 PM 3.55 38.39 0.124 7.37 3.36 13.4
3/8/2023 4:45:00 PM 3.56 38.408 0.124 7.36 3.51 13.38
3/8/2023 5:00:00 PM 3.57 38.426 0.124 7.36 3.61 13.36
3/8/2023 5:15:00 PM 3.55 38.39 0.124 7.36 3.68 13.34
3/8/2023 5:30:00 PM 3.51 38.318 0.124 7.35 3.78 13.31
3/8/2023 5:45:00 PM 3.46 38.228 0.124 7.34 3.63 13.29
3/8/2023 6:00:00 PM 3.43 38.174 0.124 7.33 3.64 13.27
3/8/2023 6:15:00 PM 3.39 38.102 0.124 7.31 4.17 13.25
3/8/2023 6:30:00 PM 3.36 38.048 0.124 7.3 3.93 13.23
3/8/2023 6:45:00 PM 3.34 38.012 0.124 7.3 3.64 13.22
3/8/2023 7:00:00 PM 3.33 37.994 0.124 7.29 3.88 13.2
3/8/2023 7:15:00 PM 3.3 37.94 0.124 7.28 3.8 13.2
3/8/2023 7:30:00 PM 3.27 37.886 0.124 7.27 3.97 13.19

These are provisional data and have not been subject to a quality assurance process, but rather are the raw data reported by the instrument.
H: value is above sensor operating range
L: value is below sensor operating range
Offline: station is not reporting data
NC: parameter is not collected at site

Data Availability & Limitations

Uncertainty and potential for error can be associated with environmental monitoring data. Provisional data have not been subject to a quality assurance process, but rather are the raw data reported by the instrument. Data users are cautioned to consider carefully the provisional nature of the information before using it for decisions that concern personal or public safety or the conduct of business that involves substantial monetary or operational consequences.

Approved data are currently available by request by emailing: [email protected]. Approved data have been subject to a quality assurance process to correct for equipment or fouling drift. Data recorded during equipment malfunctions have been removed.

View Historical Stations that have been discontinued.